<?xml version="1.0" encoding="UTF-8" standalone="no" ?>
<gpx xmlns="http://www.topografix.com/GPX/1/1" xmlns:xsi="http://www.w3.org/2001/XMLSchema-instance" xsi:schemaLocation="http://www.topografix.com/GPX/1/1 http://www.topografix.com/GPX/1/1/gpx.xsd" version="1.1" creator="VisuGPX - https://www.visugpx.com">
  <metadata>
    <name>cima 26/12</name>
    <desc><![CDATA[Sous la pluie... dns la boue avec nico lio]]></desc>
  </metadata>
  <trk>
    <name><![CDATA[Cima 26/13]]></name>
    <desc><![CDATA[(null)]]></desc>
    <trkseg>
      <trkpt lat="43.78106" lon="7.25217">
        <ele>502</ele>
        <time>2010-12-26T12:02:58Z</time>
      </trkpt>
      <trkpt lat="43.78106" lon="7.25217">
        <ele>502</ele>
        <time>2010-12-26T12:02:58Z</time>
      </trkpt>
      <trkpt lat="43.78106" lon="7.25217">
        <ele>502</ele>
        <time>2010-12-26T12:03:02Z</time>
      </trkpt>
      <trkpt lat="43.78106" lon="7.25217">
        <ele>502</ele>
        <time>2010-12-26T12:03:09Z</time>
      </trkpt>
      <trkpt lat="43.78138" lon="7.25235">
        <ele>567</ele>
        <time>2010-12-26T12:03:13Z</time>
      </trkpt>
      <trkpt lat="43.78138" lon="7.25235">
        <ele>567</ele>
        <time>2010-12-26T12:03:15Z</time>
      </trkpt>
      <trkpt lat="43.78147" lon="7.2523">
        <ele>570</ele>
        <time>2010-12-26T12:03:44Z</time>
      </trkpt>
      <trkpt lat="43.78138" lon="7.25224">
        <ele>571</ele>
        <time>2010-12-26T12:03:58Z</time>
      </trkpt>
      <trkpt lat="43.78134" lon="7.25236">
        <ele>577</ele>
        <time>2010-12-26T12:04:21Z</time>
      </trkpt>
      <trkpt lat="43.78143" lon="7.25249">
        <ele>577</ele>
        <time>2010-12-26T12:04:23Z</time>
      </trkpt>
      <trkpt lat="43.78151" lon="7.25257">
        <ele>577</ele>
        <time>2010-12-26T12:04:24Z</time>
      </trkpt>
      <trkpt lat="43.78159" lon="7.25265">
        <ele>578</ele>
        <time>2010-12-26T12:04:25Z</time>
      </trkpt>
      <trkpt lat="43.7817" lon="7.25275">
        <ele>578</ele>
        <time>2010-12-26T12:04:27Z</time>
      </trkpt>
      <trkpt lat="43.78173" lon="7.25278">
        <ele>578</ele>
        <time>2010-12-26T12:04:28Z</time>
      </trkpt>
      <trkpt lat="43.78181" lon="7.25284">
        <ele>578</ele>
        <time>2010-12-26T12:04:30Z</time>
      </trkpt>
      <trkpt lat="43.78191" lon="7.2529">
        <ele>578</ele>
        <time>2010-12-26T12:04:32Z</time>
      </trkpt>
      <trkpt lat="43.782" lon="7.25287">
        <ele>578</ele>
        <time>2010-12-26T12:04:34Z</time>
      </trkpt>
      <trkpt lat="43.78208" lon="7.2528">
        <ele>578</ele>
        <time>2010-12-26T12:04:37Z</time>
      </trkpt>
      <trkpt lat="43.78215" lon="7.25271">
        <ele>578</ele>
        <time>2010-12-26T12:04:40Z</time>
      </trkpt>
      <trkpt lat="43.78224" lon="7.25262">
        <ele>578</ele>
        <time>2010-12-26T12:04:44Z</time>
      </trkpt>
      <trkpt lat="43.78232" lon="7.25256">
        <ele>577</ele>
        <time>2010-12-26T12:04:49Z</time>
      </trkpt>
      <trkpt lat="43.78239" lon="7.25251">
        <ele>577</ele>
        <time>2010-12-26T12:04:53Z</time>
      </trkpt>
      <trkpt lat="43.78248" lon="7.25241">
        <ele>577</ele>
        <time>2010-12-26T12:05:05Z</time>
      </trkpt>
      <trkpt lat="43.78256" lon="7.25235">
        <ele>579</ele>
        <time>2010-12-26T12:05:12Z</time>
      </trkpt>
      <trkpt lat="43.7826" lon="7.25231">
        <ele>580</ele>
        <time>2010-12-26T12:05:15Z</time>
      </trkpt>
      <trkpt lat="43.78268" lon="7.25225">
        <ele>582</ele>
        <time>2010-12-26T12:05:21Z</time>
      </trkpt>
      <trkpt lat="43.78276" lon="7.25218">
        <ele>582</ele>
        <time>2010-12-26T12:05:27Z</time>
      </trkpt>
      <trkpt lat="43.78286" lon="7.25211">
        <ele>582</ele>
        <time>2010-12-26T12:05:36Z</time>
      </trkpt>
      <trkpt lat="43.78295" lon="7.25205">
        <ele>582</ele>
        <time>2010-12-26T12:05:43Z</time>
      </trkpt>
      <trkpt lat="43.78298" lon="7.25202">
        <ele>582</ele>
        <time>2010-12-26T12:05:46Z</time>
      </trkpt>
      <trkpt lat="43.78307" lon="7.25198">
        <ele>582</ele>
        <time>2010-12-26T12:05:52Z</time>
      </trkpt>
      <trkpt lat="43.78317" lon="7.25194">
        <ele>585</ele>
        <time>2010-12-26T12:06:00Z</time>
      </trkpt>
      <trkpt lat="43.78326" lon="7.25188">
        <ele>587</ele>
        <time>2010-12-26T12:06:06Z</time>
      </trkpt>
      <trkpt lat="43.78335" lon="7.25184">
        <ele>587</ele>
        <time>2010-12-26T12:06:12Z</time>
      </trkpt>
      <trkpt lat="43.78342" lon="7.25179">
        <ele>588</ele>
        <time>2010-12-26T12:06:18Z</time>
      </trkpt>
      <trkpt lat="43.78352" lon="7.25172">
        <ele>589</ele>
        <time>2010-12-26T12:06:23Z</time>
      </trkpt>
      <trkpt lat="43.7836" lon="7.25166">
        <ele>591</ele>
        <time>2010-12-26T12:06:28Z</time>
      </trkpt>
      <trkpt lat="43.78369" lon="7.2516">
        <ele>592</ele>
        <time>2010-12-26T12:06:33Z</time>
      </trkpt>
      <trkpt lat="43.7837" lon="7.25159">
        <ele>593</ele>
        <time>2010-12-26T12:06:34Z</time>
      </trkpt>
      <trkpt lat="43.78379" lon="7.25154">
        <ele>596</ele>
        <time>2010-12-26T12:06:39Z</time>
      </trkpt>
      <trkpt lat="43.78383" lon="7.25152">
        <ele>597</ele>
        <time>2010-12-26T12:06:43Z</time>
      </trkpt>
      <trkpt lat="43.78392" lon="7.2515">
        <ele>599</ele>
        <time>2010-12-26T12:06:48Z</time>
      </trkpt>
      <trkpt lat="43.78394" lon="7.25149">
        <ele>599</ele>
        <time>2010-12-26T12:06:51Z</time>
      </trkpt>
      <trkpt lat="43.78403" lon="7.25147">
        <ele>603</ele>
        <time>2010-12-26T12:06:57Z</time>
      </trkpt>
      <trkpt lat="43.78412" lon="7.25143">
        <ele>603</ele>
        <time>2010-12-26T12:07:03Z</time>
      </trkpt>
      <trkpt lat="43.78421" lon="7.25138">
        <ele>605</ele>
        <time>2010-12-26T12:07:08Z</time>
      </trkpt>
      <trkpt lat="43.78429" lon="7.2513">
        <ele>605</ele>
        <time>2010-12-26T12:07:13Z</time>
      </trkpt>
      <trkpt lat="43.78437" lon="7.25121">
        <ele>606</ele>
        <time>2010-12-26T12:07:18Z</time>
      </trkpt>
      <trkpt lat="43.78444" lon="7.25113">
        <ele>607</ele>
        <time>2010-12-26T12:07:24Z</time>
      </trkpt>
      <trkpt lat="43.78451" lon="7.25105">
        <ele>609</ele>
        <time>2010-12-26T12:07:29Z</time>
      </trkpt>
      <trkpt lat="43.78459" lon="7.25098">
        <ele>610</ele>
        <time>2010-12-26T12:07:34Z</time>
      </trkpt>
      <trkpt lat="43.78466" lon="7.25089">
        <ele>610</ele>
        <time>2010-12-26T12:07:39Z</time>
      </trkpt>
      <trkpt lat="43.78473" lon="7.2508">
        <ele>611</ele>
        <time>2010-12-26T12:07:45Z</time>
      </trkpt>
      <trkpt lat="43.78481" lon="7.25071">
        <ele>612</ele>
        <time>2010-12-26T12:07:51Z</time>
      </trkpt>
      <trkpt lat="43.78486" lon="7.2506">
        <ele>612</ele>
        <time>2010-12-26T12:07:57Z</time>
      </trkpt>
      <trkpt lat="43.78489" lon="7.25055">
        <ele>614</ele>
        <time>2010-12-26T12:08:01Z</time>
      </trkpt>
      <trkpt lat="43.78497" lon="7.25036">
        <ele>613</ele>
        <time>2010-12-26T12:08:09Z</time>
      </trkpt>
      <trkpt lat="43.78501" lon="7.25027">
        <ele>613</ele>
        <time>2010-12-26T12:08:13Z</time>
      </trkpt>
      <trkpt lat="43.78507" lon="7.25017">
        <ele>615</ele>
        <time>2010-12-26T12:08:17Z</time>
      </trkpt>
      <trkpt lat="43.78513" lon="7.25008">
        <ele>616</ele>
        <time>2010-12-26T12:08:21Z</time>
      </trkpt>
      <trkpt lat="43.7852" lon="7.24998">
        <ele>617</ele>
        <time>2010-12-26T12:08:25Z</time>
      </trkpt>
      <trkpt lat="43.78527" lon="7.24989">
        <ele>618</ele>
        <time>2010-12-26T12:08:31Z</time>
      </trkpt>
      <trkpt lat="43.78537" lon="7.24982">
        <ele>618</ele>
        <time>2010-12-26T12:08:37Z</time>
      </trkpt>
      <trkpt lat="43.7854" lon="7.2498">
        <ele>618</ele>
        <time>2010-12-26T12:08:41Z</time>
      </trkpt>
      <trkpt lat="43.78548" lon="7.24974">
        <ele>619</ele>
        <time>2010-12-26T12:08:42Z</time>
      </trkpt>
      <trkpt lat="43.78557" lon="7.24968">
        <ele>620</ele>
        <time>2010-12-26T12:08:44Z</time>
      </trkpt>
      <trkpt lat="43.78566" lon="7.2496">
        <ele>621</ele>
        <time>2010-12-26T12:08:47Z</time>
      </trkpt>
      <trkpt lat="43.78575" lon="7.24954">
        <ele>621</ele>
        <time>2010-12-26T12:08:50Z</time>
      </trkpt>
      <trkpt lat="43.78585" lon="7.24948">
        <ele>621</ele>
        <time>2010-12-26T12:08:52Z</time>
      </trkpt>
      <trkpt lat="43.78587" lon="7.24946">
        <ele>621</ele>
        <time>2010-12-26T12:08:53Z</time>
      </trkpt>
      <trkpt lat="43.78596" lon="7.24941">
        <ele>621</ele>
        <time>2010-12-26T12:08:56Z</time>
      </trkpt>
      <trkpt lat="43.78605" lon="7.24937">
        <ele>621</ele>
        <time>2010-12-26T12:08:59Z</time>
      </trkpt>
      <trkpt lat="43.78613" lon="7.24935">
        <ele>621</ele>
        <time>2010-12-26T12:09:01Z</time>
      </trkpt>
      <trkpt lat="43.78622" lon="7.24933">
        <ele>622</ele>
        <time>2010-12-26T12:09:04Z</time>
      </trkpt>
      <trkpt lat="43.78631" lon="7.2493">
        <ele>622</ele>
        <time>2010-12-26T12:09:07Z</time>
      </trkpt>
      <trkpt lat="43.78641" lon="7.24928">
        <ele>622</ele>
        <time>2010-12-26T12:09:10Z</time>
      </trkpt>
      <trkpt lat="43.78651" lon="7.24927">
        <ele>621</ele>
        <time>2010-12-26T12:09:12Z</time>
      </trkpt>
      <trkpt lat="43.78653" lon="7.24926">
        <ele>621</ele>
        <time>2010-12-26T12:09:13Z</time>
      </trkpt>
      <trkpt lat="43.7866" lon="7.24917">
        <ele>621</ele>
        <time>2010-12-26T12:09:16Z</time>
      </trkpt>
      <trkpt lat="43.78661" lon="7.24903">
        <ele>622</ele>
        <time>2010-12-26T12:09:19Z</time>
      </trkpt>
      <trkpt lat="43.78659" lon="7.24886">
        <ele>622</ele>
        <time>2010-12-26T12:09:21Z</time>
      </trkpt>
      <trkpt lat="43.78657" lon="7.24871">
        <ele>622</ele>
        <time>2010-12-26T12:09:23Z</time>
      </trkpt>
      <trkpt lat="43.78655" lon="7.24856">
        <ele>622</ele>
        <time>2010-12-26T12:09:25Z</time>
      </trkpt>
      <trkpt lat="43.78652" lon="7.24842">
        <ele>621</ele>
        <time>2010-12-26T12:09:27Z</time>
      </trkpt>
      <trkpt lat="43.78649" lon="7.24829">
        <ele>621</ele>
        <time>2010-12-26T12:09:29Z</time>
      </trkpt>
      <trkpt lat="43.78647" lon="7.24815">
        <ele>621</ele>
        <time>2010-12-26T12:09:31Z</time>
      </trkpt>
      <trkpt lat="43.78646" lon="7.24801">
        <ele>620</ele>
        <time>2010-12-26T12:09:33Z</time>
      </trkpt>
      <trkpt lat="43.78653" lon="7.2479">
        <ele>620</ele>
        <time>2010-12-26T12:09:36Z</time>
      </trkpt>
      <trkpt lat="43.78662" lon="7.24784">
        <ele>619</ele>
        <time>2010-12-26T12:09:38Z</time>
      </trkpt>
      <trkpt lat="43.78672" lon="7.24777">
        <ele>619</ele>
        <time>2010-12-26T12:09:41Z</time>
      </trkpt>
      <trkpt lat="43.78682" lon="7.24768">
        <ele>619</ele>
        <time>2010-12-26T12:09:43Z</time>
      </trkpt>
      <trkpt lat="43.78692" lon="7.24765">
        <ele>619</ele>
        <time>2010-12-26T12:09:45Z</time>
      </trkpt>
      <trkpt lat="43.78701" lon="7.24769">
        <ele>620</ele>
        <time>2010-12-26T12:09:47Z</time>
      </trkpt>
      <trkpt lat="43.78712" lon="7.24773">
        <ele>619</ele>
        <time>2010-12-26T12:09:50Z</time>
      </trkpt>
      <trkpt lat="43.78721" lon="7.24777">
        <ele>618</ele>
        <time>2010-12-26T12:09:54Z</time>
      </trkpt>
      <trkpt lat="43.7873" lon="7.24778">
        <ele>619</ele>
        <time>2010-12-26T12:09:57Z</time>
      </trkpt>
      <trkpt lat="43.78732" lon="7.24778">
        <ele>619</ele>
        <time>2010-12-26T12:09:58Z</time>
      </trkpt>
      <trkpt lat="43.78741" lon="7.24777">
        <ele>619</ele>
        <time>2010-12-26T12:10:03Z</time>
      </trkpt>
      <trkpt lat="43.7875" lon="7.24773">
        <ele>619</ele>
        <time>2010-12-26T12:10:09Z</time>
      </trkpt>
      <trkpt lat="43.78759" lon="7.24765">
        <ele>619</ele>
        <time>2010-12-26T12:10:15Z</time>
      </trkpt>
      <trkpt lat="43.7876" lon="7.24763">
        <ele>619</ele>
        <time>2010-12-26T12:10:16Z</time>
      </trkpt>
      <trkpt lat="43.78766" lon="7.24751">
        <ele>618</ele>
        <time>2010-12-26T12:10:20Z</time>
      </trkpt>
      <trkpt lat="43.7877" lon="7.24739">
        <ele>618</ele>
        <time>2010-12-26T12:10:25Z</time>
      </trkpt>
      <trkpt lat="43.78774" lon="7.24727">
        <ele>618</ele>
        <time>2010-12-26T12:10:29Z</time>
      </trkpt>
      <trkpt lat="43.78778" lon="7.24715">
        <ele>618</ele>
        <time>2010-12-26T12:10:33Z</time>
      </trkpt>
      <trkpt lat="43.78782" lon="7.24702">
        <ele>618</ele>
        <time>2010-12-26T12:10:39Z</time>
      </trkpt>
      <trkpt lat="43.78784" lon="7.24689">
        <ele>618</ele>
        <time>2010-12-26T12:10:43Z</time>
      </trkpt>
      <trkpt lat="43.78787" lon="7.24676">
        <ele>619</ele>
        <time>2010-12-26T12:10:48Z</time>
      </trkpt>
      <trkpt lat="43.78788" lon="7.24673">
        <ele>619</ele>
        <time>2010-12-26T12:10:49Z</time>
      </trkpt>
      <trkpt lat="43.78792" lon="7.2466">
        <ele>619</ele>
        <time>2010-12-26T12:10:55Z</time>
      </trkpt>
      <trkpt lat="43.78794" lon="7.24647">
        <ele>621</ele>
        <time>2010-12-26T12:11:00Z</time>
      </trkpt>
      <trkpt lat="43.78796" lon="7.24633">
        <ele>622</ele>
        <time>2010-12-26T12:11:06Z</time>
      </trkpt>
      <trkpt lat="43.78799" lon="7.2462">
        <ele>624</ele>
        <time>2010-12-26T12:11:11Z</time>
      </trkpt>
      <trkpt lat="43.78803" lon="7.24608">
        <ele>625</ele>
        <time>2010-12-26T12:11:16Z</time>
      </trkpt>
      <trkpt lat="43.78812" lon="7.24609">
        <ele>627</ele>
        <time>2010-12-26T12:11:23Z</time>
      </trkpt>
      <trkpt lat="43.78813" lon="7.2461">
        <ele>627</ele>
        <time>2010-12-26T12:11:27Z</time>
      </trkpt>
      <trkpt lat="43.78817" lon="7.24622">
        <ele>630</ele>
        <time>2010-12-26T12:11:40Z</time>
      </trkpt>
      <trkpt lat="43.78823" lon="7.24633">
        <ele>630</ele>
        <time>2010-12-26T12:11:45Z</time>
      </trkpt>
      <trkpt lat="43.78832" lon="7.24642">
        <ele>629</ele>
        <time>2010-12-26T12:11:51Z</time>
      </trkpt>
      <trkpt lat="43.78833" lon="7.24643">
        <ele>629</ele>
        <time>2010-12-26T12:11:51Z</time>
      </trkpt>
      <trkpt lat="43.7884" lon="7.24651">
        <ele>628</ele>
        <time>2010-12-26T12:11:57Z</time>
      </trkpt>
      <trkpt lat="43.78848" lon="7.24659">
        <ele>629</ele>
        <time>2010-12-26T12:12:04Z</time>
      </trkpt>
      <trkpt lat="43.78856" lon="7.24664">
        <ele>629</ele>
        <time>2010-12-26T12:12:11Z</time>
      </trkpt>
      <trkpt lat="43.78865" lon="7.24666">
        <ele>629</ele>
        <time>2010-12-26T12:12:17Z</time>
      </trkpt>
      <trkpt lat="43.78866" lon="7.24666">
        <ele>629</ele>
        <time>2010-12-26T12:12:19Z</time>
      </trkpt>
      <trkpt lat="43.78873" lon="7.24663">
        <ele>630</ele>
        <time>2010-12-26T12:12:23Z</time>
      </trkpt>
      <trkpt lat="43.78882" lon="7.24658">
        <ele>631</ele>
        <time>2010-12-26T12:12:28Z</time>
      </trkpt>
      <trkpt lat="43.78883" lon="7.24657">
        <ele>631</ele>
        <time>2010-12-26T12:12:29Z</time>
      </trkpt>
      <trkpt lat="43.78892" lon="7.24652">
        <ele>632</ele>
        <time>2010-12-26T12:12:34Z</time>
      </trkpt>
      <trkpt lat="43.78903" lon="7.24649">
        <ele>633</ele>
        <time>2010-12-26T12:12:39Z</time>
      </trkpt>
      <trkpt lat="43.78912" lon="7.24649">
        <ele>634</ele>
        <time>2010-12-26T12:12:44Z</time>
      </trkpt>
      <trkpt lat="43.78921" lon="7.24651">
        <ele>635</ele>
        <time>2010-12-26T12:12:49Z</time>
      </trkpt>
      <trkpt lat="43.7893" lon="7.24657">
        <ele>635</ele>
        <time>2010-12-26T12:12:54Z</time>
      </trkpt>
      <trkpt lat="43.78937" lon="7.24667">
        <ele>636</ele>
        <time>2010-12-26T12:12:59Z</time>
      </trkpt>
      <trkpt lat="43.78946" lon="7.2468">
        <ele>637</ele>
        <time>2010-12-26T12:13:10Z</time>
      </trkpt>
      <trkpt lat="43.7895" lon="7.24687">
        <ele>639</ele>
        <time>2010-12-26T12:13:13Z</time>
      </trkpt>
      <trkpt lat="43.78959" lon="7.24696">
        <ele>639</ele>
        <time>2010-12-26T12:13:19Z</time>
      </trkpt>
      <trkpt lat="43.78967" lon="7.24701">
        <ele>638</ele>
        <time>2010-12-26T12:13:23Z</time>
      </trkpt>
      <trkpt lat="43.78977" lon="7.24702">
        <ele>637</ele>
        <time>2010-12-26T12:13:29Z</time>
      </trkpt>
      <trkpt lat="43.78986" lon="7.247">
        <ele>637</ele>
        <time>2010-12-26T12:13:34Z</time>
      </trkpt>
      <trkpt lat="43.78995" lon="7.24696">
        <ele>637</ele>
        <time>2010-12-26T12:13:39Z</time>
      </trkpt>
      <trkpt lat="43.79" lon="7.24695">
        <ele>637</ele>
        <time>2010-12-26T12:13:42Z</time>
      </trkpt>
      <trkpt lat="43.79009" lon="7.24693">
        <ele>638</ele>
        <time>2010-12-26T12:13:47Z</time>
      </trkpt>
      <trkpt lat="43.79018" lon="7.2469">
        <ele>638</ele>
        <time>2010-12-26T12:13:52Z</time>
      </trkpt>
      <trkpt lat="43.79029" lon="7.24686">
        <ele>640</ele>
        <time>2010-12-26T12:13:57Z</time>
      </trkpt>
      <trkpt lat="43.79042" lon="7.24683">
        <ele>641</ele>
        <time>2010-12-26T12:14:07Z</time>
      </trkpt>
      <trkpt lat="43.79054" lon="7.24681">
        <ele>648</ele>
        <time>2010-12-26T12:14:16Z</time>
      </trkpt>
      <trkpt lat="43.79064" lon="7.24694">
        <ele>652</ele>
        <time>2010-12-26T12:15:42Z</time>
      </trkpt>
      <trkpt lat="43.79066" lon="7.24695">
        <ele>643</ele>
        <time>2010-12-26T12:17:53Z</time>
      </trkpt>
      <trkpt lat="43.79057" lon="7.24693">
        <ele>650</ele>
        <time>2010-12-26T12:24:14Z</time>
      </trkpt>
      <trkpt lat="43.79066" lon="7.24697">
        <ele>649</ele>
        <time>2010-12-26T12:24:27Z</time>
      </trkpt>
      <trkpt lat="43.79075" lon="7.24693">
        <ele>649</ele>
        <time>2010-12-26T12:24:33Z</time>
      </trkpt>
      <trkpt lat="43.79084" lon="7.24687">
        <ele>647</ele>
        <time>2010-12-26T12:24:39Z</time>
      </trkpt>
      <trkpt lat="43.79091" lon="7.24681">
        <ele>646</ele>
        <time>2010-12-26T12:24:44Z</time>
      </trkpt>
      <trkpt lat="43.791" lon="7.24675">
        <ele>647</ele>
        <time>2010-12-26T12:24:50Z</time>
      </trkpt>
      <trkpt lat="43.79109" lon="7.24672">
        <ele>648</ele>
        <time>2010-12-26T12:24:56Z</time>
      </trkpt>
      <trkpt lat="43.79118" lon="7.24669">
        <ele>649</ele>
        <time>2010-12-26T12:25:03Z</time>
      </trkpt>
      <trkpt lat="43.79127" lon="7.24664">
        <ele>648</ele>
        <time>2010-12-26T12:25:10Z</time>
      </trkpt>
      <trkpt lat="43.79135" lon="7.24655">
        <ele>649</ele>
        <time>2010-12-26T12:25:17Z</time>
      </trkpt>
      <trkpt lat="43.79144" lon="7.24653">
        <ele>649</ele>
        <time>2010-12-26T12:25:23Z</time>
      </trkpt>
      <trkpt lat="43.79153" lon="7.2465">
        <ele>649</ele>
        <time>2010-12-26T12:25:28Z</time>
      </trkpt>
      <trkpt lat="43.79163" lon="7.24647">
        <ele>649</ele>
        <time>2010-12-26T12:25:34Z</time>
      </trkpt>
      <trkpt lat="43.79172" lon="7.24645">
        <ele>650</ele>
        <time>2010-12-26T12:25:40Z</time>
      </trkpt>
      <trkpt lat="43.79182" lon="7.24641">
        <ele>650</ele>
        <time>2010-12-26T12:25:48Z</time>
      </trkpt>
      <trkpt lat="43.7919" lon="7.24637">
        <ele>650</ele>
        <time>2010-12-26T12:25:54Z</time>
      </trkpt>
      <trkpt lat="43.79199" lon="7.24631">
        <ele>650</ele>
        <time>2010-12-26T12:25:59Z</time>
      </trkpt>
      <trkpt lat="43.79207" lon="7.24623">
        <ele>650</ele>
        <time>2010-12-26T12:26:04Z</time>
      </trkpt>
      <trkpt lat="43.79212" lon="7.24612">
        <ele>652</ele>
        <time>2010-12-26T12:26:09Z</time>
      </trkpt>
      <trkpt lat="43.79217" lon="7.24599">
        <ele>653</ele>
        <time>2010-12-26T12:26:14Z</time>
      </trkpt>
      <trkpt lat="43.79219" lon="7.24591">
        <ele>653</ele>
        <time>2010-12-26T12:26:17Z</time>
      </trkpt>
      <trkpt lat="43.79224" lon="7.24581">
        <ele>654</ele>
        <time>2010-12-26T12:26:22Z</time>
      </trkpt>
      <trkpt lat="43.7923" lon="7.2457">
        <ele>655</ele>
        <time>2010-12-26T12:26:27Z</time>
      </trkpt>
      <trkpt lat="43.79236" lon="7.2456">
        <ele>655</ele>
        <time>2010-12-26T12:26:32Z</time>
      </trkpt>
      <trkpt lat="43.79244" lon="7.24551">
        <ele>656</ele>
        <time>2010-12-26T12:26:37Z</time>
      </trkpt>
      <trkpt lat="43.7925" lon="7.24544">
        <ele>656</ele>
        <time>2010-12-26T12:26:42Z</time>
      </trkpt>
      <trkpt lat="43.79259" lon="7.24535">
        <ele>656</ele>
        <time>2010-12-26T12:26:47Z</time>
      </trkpt>
      <trkpt lat="43.79267" lon="7.2453">
        <ele>657</ele>
        <time>2010-12-26T12:26:51Z</time>
      </trkpt>
      <trkpt lat="43.7927" lon="7.24528">
        <ele>657</ele>
        <time>2010-12-26T12:26:53Z</time>
      </trkpt>
      <trkpt lat="43.79279" lon="7.24522">
        <ele>657</ele>
        <time>2010-12-26T12:26:58Z</time>
      </trkpt>
      <trkpt lat="43.79281" lon="7.2452">
        <ele>657</ele>
        <time>2010-12-26T12:27:00Z</time>
      </trkpt>
      <trkpt lat="43.79289" lon="7.24512">
        <ele>657</ele>
        <time>2010-12-26T12:27:05Z</time>
      </trkpt>
      <trkpt lat="43.79297" lon="7.24502">
        <ele>658</ele>
        <time>2010-12-26T12:27:13Z</time>
      </trkpt>
      <trkpt lat="43.79304" lon="7.24492">
        <ele>664</ele>
        <time>2010-12-26T12:27:19Z</time>
      </trkpt>
      <trkpt lat="43.79311" lon="7.24484">
        <ele>665</ele>
        <time>2010-12-26T12:27:23Z</time>
      </trkpt>
      <trkpt lat="43.79319" lon="7.24475">
        <ele>665</ele>
        <time>2010-12-26T12:27:27Z</time>
      </trkpt>
      <trkpt lat="43.79322" lon="7.24472">
        <ele>665</ele>
        <time>2010-12-26T12:27:29Z</time>
      </trkpt>
      <trkpt lat="43.7933" lon="7.24465">
        <ele>666</ele>
        <time>2010-12-26T12:27:34Z</time>
      </trkpt>
      <trkpt lat="43.79339" lon="7.2446">
        <ele>666</ele>
        <time>2010-12-26T12:27:38Z</time>
      </trkpt>
      <trkpt lat="43.79347" lon="7.24452">
        <ele>666</ele>
        <time>2010-12-26T12:27:43Z</time>
      </trkpt>
      <trkpt lat="43.79356" lon="7.24445">
        <ele>665</ele>
        <time>2010-12-26T12:27:48Z</time>
      </trkpt>
      <trkpt lat="43.79364" lon="7.2444">
        <ele>666</ele>
        <time>2010-12-26T12:27:53Z</time>
      </trkpt>
      <trkpt lat="43.79372" lon="7.24434">
        <ele>667</ele>
        <time>2010-12-26T12:27:58Z</time>
      </trkpt>
      <trkpt lat="43.79381" lon="7.2443">
        <ele>667</ele>
        <time>2010-12-26T12:28:02Z</time>
      </trkpt>
      <trkpt lat="43.79389" lon="7.24426">
        <ele>667</ele>
        <time>2010-12-26T12:28:07Z</time>
      </trkpt>
      <trkpt lat="43.79398" lon="7.2442">
        <ele>667</ele>
        <time>2010-12-26T12:28:11Z</time>
      </trkpt>
      <trkpt lat="43.79406" lon="7.24413">
        <ele>668</ele>
        <time>2010-12-26T12:28:16Z</time>
      </trkpt>
      <trkpt lat="43.79415" lon="7.24405">
        <ele>668</ele>
        <time>2010-12-26T12:28:22Z</time>
      </trkpt>
      <trkpt lat="43.79423" lon="7.24396">
        <ele>669</ele>
        <time>2010-12-26T12:28:27Z</time>
      </trkpt>
      <trkpt lat="43.79431" lon="7.24388">
        <ele>670</ele>
        <time>2010-12-26T12:28:32Z</time>
      </trkpt>
      <trkpt lat="43.7944" lon="7.24381">
        <ele>671</ele>
        <time>2010-12-26T12:28:38Z</time>
      </trkpt>
      <trkpt lat="43.79447" lon="7.24374">
        <ele>671</ele>
        <time>2010-12-26T12:28:42Z</time>
      </trkpt>
      <trkpt lat="43.79456" lon="7.24366">
        <ele>672</ele>
        <time>2010-12-26T12:28:48Z</time>
      </trkpt>
      <trkpt lat="43.79464" lon="7.24357">
        <ele>673</ele>
        <time>2010-12-26T12:28:53Z</time>
      </trkpt>
      <trkpt lat="43.79472" lon="7.24349">
        <ele>674</ele>
        <time>2010-12-26T12:28:59Z</time>
      </trkpt>
      <trkpt lat="43.7948" lon="7.2434">
        <ele>675</ele>
        <time>2010-12-26T12:29:04Z</time>
      </trkpt>
      <trkpt lat="43.79482" lon="7.24337">
        <ele>676</ele>
        <time>2010-12-26T12:29:05Z</time>
      </trkpt>
      <trkpt lat="43.79489" lon="7.24329">
        <ele>676</ele>
        <time>2010-12-26T12:29:10Z</time>
      </trkpt>
      <trkpt lat="43.79496" lon="7.2432">
        <ele>677</ele>
        <time>2010-12-26T12:29:14Z</time>
      </trkpt>
      <trkpt lat="43.79502" lon="7.24311">
        <ele>677</ele>
        <time>2010-12-26T12:29:19Z</time>
      </trkpt>
      <trkpt lat="43.79509" lon="7.24302">
        <ele>677</ele>
        <time>2010-12-26T12:29:24Z</time>
      </trkpt>
      <trkpt lat="43.79513" lon="7.24296">
        <ele>677</ele>
        <time>2010-12-26T12:29:27Z</time>
      </trkpt>
      <trkpt lat="43.79521" lon="7.24287">
        <ele>678</ele>
        <time>2010-12-26T12:29:33Z</time>
      </trkpt>
      <trkpt lat="43.79526" lon="7.24281">
        <ele>679</ele>
        <time>2010-12-26T12:29:36Z</time>
      </trkpt>
      <trkpt lat="43.79533" lon="7.24271">
        <ele>679</ele>
        <time>2010-12-26T12:29:42Z</time>
      </trkpt>
      <trkpt lat="43.7954" lon="7.24261">
        <ele>680</ele>
        <time>2010-12-26T12:29:47Z</time>
      </trkpt>
      <trkpt lat="43.79547" lon="7.24251">
        <ele>682</ele>
        <time>2010-12-26T12:29:52Z</time>
      </trkpt>
      <trkpt lat="43.79551" lon="7.24245">
        <ele>682</ele>
        <time>2010-12-26T12:29:55Z</time>
      </trkpt>
      <trkpt lat="43.79557" lon="7.24234">
        <ele>682</ele>
        <time>2010-12-26T12:30:00Z</time>
      </trkpt>
      <trkpt lat="43.7956" lon="7.24222">
        <ele>683</ele>
        <time>2010-12-26T12:30:05Z</time>
      </trkpt>
      <trkpt lat="43.79562" lon="7.24209">
        <ele>683</ele>
        <time>2010-12-26T12:30:11Z</time>
      </trkpt>
      <trkpt lat="43.79564" lon="7.24202">
        <ele>684</ele>
        <time>2010-12-26T12:30:15Z</time>
      </trkpt>
      <trkpt lat="43.79569" lon="7.24191">
        <ele>683</ele>
        <time>2010-12-26T12:30:22Z</time>
      </trkpt>
      <trkpt lat="43.79573" lon="7.24179">
        <ele>684</ele>
        <time>2010-12-26T12:30:28Z</time>
      </trkpt>
      <trkpt lat="43.79575" lon="7.24173">
        <ele>684</ele>
        <time>2010-12-26T12:30:31Z</time>
      </trkpt>
      <trkpt lat="43.79579" lon="7.24161">
        <ele>685</ele>
        <time>2010-12-26T12:30:37Z</time>
      </trkpt>
      <trkpt lat="43.79587" lon="7.24156">
        <ele>685</ele>
        <time>2010-12-26T12:30:44Z</time>
      </trkpt>
      <trkpt lat="43.79591" lon="7.24168">
        <ele>686</ele>
        <time>2010-12-26T12:30:54Z</time>
      </trkpt>
      <trkpt lat="43.7959" lon="7.24171">
        <ele>686</ele>
        <time>2010-12-26T12:30:56Z</time>
      </trkpt>
      <trkpt lat="43.79585" lon="7.24182">
        <ele>687</ele>
        <time>2010-12-26T12:31:04Z</time>
      </trkpt>
      <trkpt lat="43.79583" lon="7.24186">
        <ele>687</ele>
        <time>2010-12-26T12:31:07Z</time>
      </trkpt>
      <trkpt lat="43.79579" lon="7.24197">
        <ele>688</ele>
        <time>2010-12-26T12:31:15Z</time>
      </trkpt>
      <trkpt lat="43.79578" lon="7.24203">
        <ele>689</ele>
        <time>2010-12-26T12:31:20Z</time>
      </trkpt>
      <trkpt lat="43.79575" lon="7.24216">
        <ele>689</ele>
        <time>2010-12-26T12:31:28Z</time>
      </trkpt>
      <trkpt lat="43.79574" lon="7.24229">
        <ele>690</ele>
        <time>2010-12-26T12:31:35Z</time>
      </trkpt>
      <trkpt lat="43.79572" lon="7.2424">
        <ele>690</ele>
        <time>2010-12-26T12:31:40Z</time>
      </trkpt>
      <trkpt lat="43.7957" lon="7.24252">
        <ele>691</ele>
        <time>2010-12-26T12:31:46Z</time>
      </trkpt>
      <trkpt lat="43.79567" lon="7.24264">
        <ele>692</ele>
        <time>2010-12-26T12:31:53Z</time>
      </trkpt>
      <trkpt lat="43.79563" lon="7.24278">
        <ele>694</ele>
        <time>2010-12-26T12:32:00Z</time>
      </trkpt>
      <trkpt lat="43.79559" lon="7.2429">
        <ele>695</ele>
        <time>2010-12-26T12:32:07Z</time>
      </trkpt>
      <trkpt lat="43.79554" lon="7.24301">
        <ele>695</ele>
        <time>2010-12-26T12:32:13Z</time>
      </trkpt>
      <trkpt lat="43.79548" lon="7.24312">
        <ele>696</ele>
        <time>2010-12-26T12:32:18Z</time>
      </trkpt>
      <trkpt lat="43.79543" lon="7.24324">
        <ele>697</ele>
        <time>2010-12-26T12:32:24Z</time>
      </trkpt>
      <trkpt lat="43.79538" lon="7.24336">
        <ele>698</ele>
        <time>2010-12-26T12:32:31Z</time>
      </trkpt>
      <trkpt lat="43.79533" lon="7.24347">
        <ele>698</ele>
        <time>2010-12-26T12:32:36Z</time>
      </trkpt>
      <trkpt lat="43.79526" lon="7.24357">
        <ele>699</ele>
        <time>2010-12-26T12:32:42Z</time>
      </trkpt>
      <trkpt lat="43.79525" lon="7.24359">
        <ele>699</ele>
        <time>2010-12-26T12:32:43Z</time>
      </trkpt>
      <trkpt lat="43.79518" lon="7.24369">
        <ele>700</ele>
        <time>2010-12-26T12:32:49Z</time>
      </trkpt>
      <trkpt lat="43.79513" lon="7.24379">
        <ele>700</ele>
        <time>2010-12-26T12:32:54Z</time>
      </trkpt>
      <trkpt lat="43.79506" lon="7.24389">
        <ele>700</ele>
        <time>2010-12-26T12:33:00Z</time>
      </trkpt>
      <trkpt lat="43.79501" lon="7.24399">
        <ele>701</ele>
        <time>2010-12-26T12:33:05Z</time>
      </trkpt>
      <trkpt lat="43.79494" lon="7.24409">
        <ele>702</ele>
        <time>2010-12-26T12:33:10Z</time>
      </trkpt>
      <trkpt lat="43.79488" lon="7.24418">
        <ele>702</ele>
        <time>2010-12-26T12:33:16Z</time>
      </trkpt>
      <trkpt lat="43.79486" lon="7.24422">
        <ele>703</ele>
        <time>2010-12-26T12:33:18Z</time>
      </trkpt>
      <trkpt lat="43.7948" lon="7.24434">
        <ele>703</ele>
        <time>2010-12-26T12:33:24Z</time>
      </trkpt>
      <trkpt lat="43.79475" lon="7.24444">
        <ele>704</ele>
        <time>2010-12-26T12:33:30Z</time>
      </trkpt>
      <trkpt lat="43.79468" lon="7.24453">
        <ele>704</ele>
        <time>2010-12-26T12:33:35Z</time>
      </trkpt>
      <trkpt lat="43.7946" lon="7.24462">
        <ele>705</ele>
        <time>2010-12-26T12:33:41Z</time>
      </trkpt>
      <trkpt lat="43.79453" lon="7.24469">
        <ele>705</ele>
        <time>2010-12-26T12:33:46Z</time>
      </trkpt>
      <trkpt lat="43.79447" lon="7.24474">
        <ele>706</ele>
        <time>2010-12-26T12:33:50Z</time>
      </trkpt>
      <trkpt lat="43.7944" lon="7.24481">
        <ele>706</ele>
        <time>2010-12-26T12:33:56Z</time>
      </trkpt>
      <trkpt lat="43.79438" lon="7.24484">
        <ele>706</ele>
        <time>2010-12-26T12:33:57Z</time>
      </trkpt>
      <trkpt lat="43.7943" lon="7.24492">
        <ele>707</ele>
        <time>2010-12-26T12:34:03Z</time>
      </trkpt>
      <trkpt lat="43.79423" lon="7.24501">
        <ele>708</ele>
        <time>2010-12-26T12:34:09Z</time>
      </trkpt>
      <trkpt lat="43.79415" lon="7.2451">
        <ele>708</ele>
        <time>2010-12-26T12:34:15Z</time>
      </trkpt>
      <trkpt lat="43.79409" lon="7.24518">
        <ele>708</ele>
        <time>2010-12-26T12:34:20Z</time>
      </trkpt>
      <trkpt lat="43.79407" lon="7.24521">
        <ele>708</ele>
        <time>2010-12-26T12:34:21Z</time>
      </trkpt>
      <trkpt lat="43.794" lon="7.24529">
        <ele>709</ele>
        <time>2010-12-26T12:34:27Z</time>
      </trkpt>
      <trkpt lat="43.79396" lon="7.24534">
        <ele>710</ele>
        <time>2010-12-26T12:34:30Z</time>
      </trkpt>
      <trkpt lat="43.79389" lon="7.24544">
        <ele>710</ele>
        <time>2010-12-26T12:34:36Z</time>
      </trkpt>
      <trkpt lat="43.79382" lon="7.24553">
        <ele>711</ele>
        <time>2010-12-26T12:34:41Z</time>
      </trkpt>
      <trkpt lat="43.79376" lon="7.24564">
        <ele>711</ele>
        <time>2010-12-26T12:34:47Z</time>
      </trkpt>
      <trkpt lat="43.79371" lon="7.24575">
        <ele>711</ele>
        <time>2010-12-26T12:34:53Z</time>
      </trkpt>
      <trkpt lat="43.79369" lon="7.24581">
        <ele>712</ele>
        <time>2010-12-26T12:34:56Z</time>
      </trkpt>
      <trkpt lat="43.79364" lon="7.24594">
        <ele>713</ele>
        <time>2010-12-26T12:35:02Z</time>
      </trkpt>
      <trkpt lat="43.79361" lon="7.24606">
        <ele>713</ele>
        <time>2010-12-26T12:35:07Z</time>
      </trkpt>
      <trkpt lat="43.7936" lon="7.24614">
        <ele>713</ele>
        <time>2010-12-26T12:35:11Z</time>
      </trkpt>
      <trkpt lat="43.79358" lon="7.24627">
        <ele>714</ele>
        <time>2010-12-26T12:35:17Z</time>
      </trkpt>
      <trkpt lat="43.79354" lon="7.2464">
        <ele>715</ele>
        <time>2010-12-26T12:35:23Z</time>
      </trkpt>
      <trkpt lat="43.79349" lon="7.24652">
        <ele>716</ele>
        <time>2010-12-26T12:35:27Z</time>
      </trkpt>
      <trkpt lat="43.79345" lon="7.24664">
        <ele>717</ele>
        <time>2010-12-26T12:35:32Z</time>
      </trkpt>
      <trkpt lat="43.79341" lon="7.24676">
        <ele>718</ele>
        <time>2010-12-26T12:35:37Z</time>
      </trkpt>
      <trkpt lat="43.79339" lon="7.24681">
        <ele>718</ele>
        <time>2010-12-26T12:35:39Z</time>
      </trkpt>
      <trkpt lat="43.79335" lon="7.24693">
        <ele>718</ele>
        <time>2010-12-26T12:35:43Z</time>
      </trkpt>
      <trkpt lat="43.79332" lon="7.24705">
        <ele>719</ele>
        <time>2010-12-26T12:35:48Z</time>
      </trkpt>
      <trkpt lat="43.79329" lon="7.24718">
        <ele>720</ele>
        <time>2010-12-26T12:35:53Z</time>
      </trkpt>
      <trkpt lat="43.79329" lon="7.24722">
        <ele>720</ele>
        <time>2010-12-26T12:35:54Z</time>
      </trkpt>
      <trkpt lat="43.79327" lon="7.24736">
        <ele>721</ele>
        <time>2010-12-26T12:35:59Z</time>
      </trkpt>
      <trkpt lat="43.79327" lon="7.24748">
        <ele>722</ele>
        <time>2010-12-26T12:36:03Z</time>
      </trkpt>
      <trkpt lat="43.79327" lon="7.24761">
        <ele>722</ele>
        <time>2010-12-26T12:36:08Z</time>
      </trkpt>
      <trkpt lat="43.79328" lon="7.24774">
        <ele>723</ele>
        <time>2010-12-26T12:36:12Z</time>
      </trkpt>
      <trkpt lat="43.7933" lon="7.24787">
        <ele>723</ele>
        <time>2010-12-26T12:36:17Z</time>
      </trkpt>
      <trkpt lat="43.79331" lon="7.24793">
        <ele>724</ele>
        <time>2010-12-26T12:36:19Z</time>
      </trkpt>
      <trkpt lat="43.79334" lon="7.24806">
        <ele>724</ele>
        <time>2010-12-26T12:36:25Z</time>
      </trkpt>
      <trkpt lat="43.79335" lon="7.24809">
        <ele>724</ele>
        <time>2010-12-26T12:36:30Z</time>
      </trkpt>
      <trkpt lat="43.79343" lon="7.24821">
        <ele>725</ele>
        <time>2010-12-26T12:36:39Z</time>
      </trkpt>
      <trkpt lat="43.79351" lon="7.24832">
        <ele>725</ele>
        <time>2010-12-26T12:36:41Z</time>
      </trkpt>
      <trkpt lat="43.7936" lon="7.2484">
        <ele>726</ele>
        <time>2010-12-26T12:36:43Z</time>
      </trkpt>
      <trkpt lat="43.7937" lon="7.24843">
        <ele>725</ele>
        <time>2010-12-26T12:36:47Z</time>
      </trkpt>
      <trkpt lat="43.79381" lon="7.24845">
        <ele>725</ele>
        <time>2010-12-26T12:36:50Z</time>
      </trkpt>
      <trkpt lat="43.79391" lon="7.24848">
        <ele>725</ele>
        <time>2010-12-26T12:36:53Z</time>
      </trkpt>
      <trkpt lat="43.79397" lon="7.2485">
        <ele>725</ele>
        <time>2010-12-26T12:36:54Z</time>
      </trkpt>
      <trkpt lat="43.79408" lon="7.24855">
        <ele>725</ele>
        <time>2010-12-26T12:36:57Z</time>
      </trkpt>
      <trkpt lat="43.79418" lon="7.2486">
        <ele>725</ele>
        <time>2010-12-26T12:37:00Z</time>
      </trkpt>
      <trkpt lat="43.79427" lon="7.24865">
        <ele>724</ele>
        <time>2010-12-26T12:37:04Z</time>
      </trkpt>
      <trkpt lat="43.79436" lon="7.24871">
        <ele>725</ele>
        <time>2010-12-26T12:37:07Z</time>
      </trkpt>
      <trkpt lat="43.79444" lon="7.24876">
        <ele>725</ele>
        <time>2010-12-26T12:37:10Z</time>
      </trkpt>
      <trkpt lat="43.79453" lon="7.24881">
        <ele>726</ele>
        <time>2010-12-26T12:37:14Z</time>
      </trkpt>
      <trkpt lat="43.79463" lon="7.24885">
        <ele>725</ele>
        <time>2010-12-26T12:37:18Z</time>
      </trkpt>
      <trkpt lat="43.7947" lon="7.24888">
        <ele>725</ele>
        <time>2010-12-26T12:37:21Z</time>
      </trkpt>
      <trkpt lat="43.7948" lon="7.24893">
        <ele>725</ele>
        <time>2010-12-26T12:37:26Z</time>
      </trkpt>
      <trkpt lat="43.7949" lon="7.24897">
        <ele>726</ele>
        <time>2010-12-26T12:37:30Z</time>
      </trkpt>
      <trkpt lat="43.79499" lon="7.249">
        <ele>727</ele>
        <time>2010-12-26T12:37:34Z</time>
      </trkpt>
      <trkpt lat="43.79509" lon="7.24902">
        <ele>727</ele>
        <time>2010-12-26T12:37:38Z</time>
      </trkpt>
      <trkpt lat="43.79518" lon="7.24904">
        <ele>727</ele>
        <time>2010-12-26T12:37:42Z</time>
      </trkpt>
      <trkpt lat="43.79528" lon="7.24905">
        <ele>727</ele>
        <time>2010-12-26T12:37:46Z</time>
      </trkpt>
      <trkpt lat="43.79532" lon="7.24905">
        <ele>727</ele>
        <time>2010-12-26T12:37:48Z</time>
      </trkpt>
      <trkpt lat="43.79541" lon="7.24906">
        <ele>728</ele>
        <time>2010-12-26T12:37:52Z</time>
      </trkpt>
      <trkpt lat="43.79551" lon="7.24906">
        <ele>728</ele>
        <time>2010-12-26T12:37:56Z</time>
      </trkpt>
      <trkpt lat="43.79561" lon="7.24907">
        <ele>728</ele>
        <time>2010-12-26T12:38:00Z</time>
      </trkpt>
      <trkpt lat="43.79572" lon="7.24907">
        <ele>729</ele>
        <time>2010-12-26T12:38:04Z</time>
      </trkpt>
      <trkpt lat="43.79582" lon="7.24907">
        <ele>730</ele>
        <time>2010-12-26T12:38:08Z</time>
      </trkpt>
      <trkpt lat="43.79591" lon="7.24907">
        <ele>730</ele>
        <time>2010-12-26T12:38:11Z</time>
      </trkpt>
      <trkpt lat="43.79601" lon="7.24906">
        <ele>731</ele>
        <time>2010-12-26T12:38:16Z</time>
      </trkpt>
      <trkpt lat="43.79611" lon="7.24906">
        <ele>731</ele>
        <time>2010-12-26T12:38:21Z</time>
      </trkpt>
      <trkpt lat="43.79621" lon="7.24905">
        <ele>732</ele>
        <time>2010-12-26T12:38:25Z</time>
      </trkpt>
      <trkpt lat="43.79627" lon="7.24904">
        <ele>731</ele>
        <time>2010-12-26T12:38:28Z</time>
      </trkpt>
      <trkpt lat="43.79637" lon="7.24902">
        <ele>732</ele>
        <time>2010-12-26T12:38:33Z</time>
      </trkpt>
      <trkpt lat="43.79646" lon="7.24897">
        <ele>733</ele>
        <time>2010-12-26T12:38:38Z</time>
      </trkpt>
      <trkpt lat="43.79653" lon="7.2489">
        <ele>733</ele>
        <time>2010-12-26T12:38:44Z</time>
      </trkpt>
      <trkpt lat="43.79663" lon="7.24878">
        <ele>734</ele>
        <time>2010-12-26T12:38:51Z</time>
      </trkpt>
      <trkpt lat="43.7967" lon="7.24869">
        <ele>735</ele>
        <time>2010-12-26T12:38:57Z</time>
      </trkpt>
      <trkpt lat="43.79677" lon="7.24859">
        <ele>735</ele>
        <time>2010-12-26T12:39:04Z</time>
      </trkpt>
      <trkpt lat="43.79684" lon="7.24851">
        <ele>737</ele>
        <time>2010-12-26T12:39:10Z</time>
      </trkpt>
      <trkpt lat="43.79691" lon="7.24843">
        <ele>737</ele>
        <time>2010-12-26T12:39:15Z</time>
      </trkpt>
      <trkpt lat="43.79695" lon="7.24838">
        <ele>738</ele>
        <time>2010-12-26T12:39:18Z</time>
      </trkpt>
      <trkpt lat="43.79702" lon="7.2483">
        <ele>738</ele>
        <time>2010-12-26T12:39:24Z</time>
      </trkpt>
      <trkpt lat="43.79711" lon="7.24821">
        <ele>739</ele>
        <time>2010-12-26T12:39:29Z</time>
      </trkpt>
      <trkpt lat="43.79719" lon="7.24812">
        <ele>740</ele>
        <time>2010-12-26T12:39:35Z</time>
      </trkpt>
      <trkpt lat="43.79721" lon="7.2481">
        <ele>740</ele>
        <time>2010-12-26T12:39:36Z</time>
      </trkpt>
      <trkpt lat="43.79729" lon="7.24803">
        <ele>741</ele>
        <time>2010-12-26T12:39:41Z</time>
      </trkpt>
      <trkpt lat="43.79739" lon="7.24798">
        <ele>743</ele>
        <time>2010-12-26T12:39:48Z</time>
      </trkpt>
      <trkpt lat="43.79747" lon="7.24794">
        <ele>743</ele>
        <time>2010-12-26T12:39:54Z</time>
      </trkpt>
      <trkpt lat="43.79756" lon="7.2479">
        <ele>743</ele>
        <time>2010-12-26T12:39:59Z</time>
      </trkpt>
      <trkpt lat="43.79766" lon="7.24787">
        <ele>745</ele>
        <time>2010-12-26T12:40:04Z</time>
      </trkpt>
      <trkpt lat="43.79776" lon="7.24782">
        <ele>745</ele>
        <time>2010-12-26T12:40:09Z</time>
      </trkpt>
      <trkpt lat="43.79785" lon="7.24776">
        <ele>746</ele>
        <time>2010-12-26T12:40:15Z</time>
      </trkpt>
      <trkpt lat="43.79787" lon="7.24775">
        <ele>746</ele>
        <time>2010-12-26T12:40:16Z</time>
      </trkpt>
      <trkpt lat="43.79796" lon="7.24768">
        <ele>748</ele>
        <time>2010-12-26T12:40:20Z</time>
      </trkpt>
      <trkpt lat="43.79805" lon="7.24761">
        <ele>748</ele>
        <time>2010-12-26T12:40:25Z</time>
      </trkpt>
      <trkpt lat="43.79813" lon="7.24754">
        <ele>747</ele>
        <time>2010-12-26T12:40:29Z</time>
      </trkpt>
      <trkpt lat="43.79821" lon="7.24745">
        <ele>748</ele>
        <time>2010-12-26T12:40:33Z</time>
      </trkpt>
      <trkpt lat="43.79828" lon="7.24736">
        <ele>749</ele>
        <time>2010-12-26T12:40:37Z</time>
      </trkpt>
      <trkpt lat="43.79833" lon="7.24729">
        <ele>750</ele>
        <time>2010-12-26T12:40:41Z</time>
      </trkpt>
      <trkpt lat="43.7984" lon="7.24719">
        <ele>751</ele>
        <time>2010-12-26T12:40:46Z</time>
      </trkpt>
      <trkpt lat="43.79847" lon="7.2471">
        <ele>753</ele>
        <time>2010-12-26T12:40:51Z</time>
      </trkpt>
      <trkpt lat="43.79849" lon="7.24707">
        <ele>753</ele>
        <time>2010-12-26T12:40:52Z</time>
      </trkpt>
      <trkpt lat="43.79856" lon="7.24698">
        <ele>755</ele>
        <time>2010-12-26T12:40:57Z</time>
      </trkpt>
      <trkpt lat="43.79865" lon="7.2469">
        <ele>755</ele>
        <time>2010-12-26T12:41:03Z</time>
      </trkpt>
      <trkpt lat="43.79874" lon="7.24683">
        <ele>756</ele>
        <time>2010-12-26T12:41:08Z</time>
      </trkpt>
      <trkpt lat="43.79882" lon="7.24677">
        <ele>757</ele>
        <time>2010-12-26T12:41:13Z</time>
      </trkpt>
      <trkpt lat="43.7989" lon="7.2467">
        <ele>757</ele>
        <time>2010-12-26T12:41:17Z</time>
      </trkpt>
      <trkpt lat="43.79897" lon="7.24663">
        <ele>758</ele>
        <time>2010-12-26T12:41:22Z</time>
      </trkpt>
      <trkpt lat="43.79905" lon="7.24654">
        <ele>758</ele>
        <time>2010-12-26T12:41:27Z</time>
      </trkpt>
      <trkpt lat="43.79912" lon="7.24645">
        <ele>759</ele>
        <time>2010-12-26T12:41:32Z</time>
      </trkpt>
      <trkpt lat="43.79919" lon="7.24634">
        <ele>760</ele>
        <time>2010-12-26T12:41:37Z</time>
      </trkpt>
      <trkpt lat="43.79926" lon="7.24625">
        <ele>761</ele>
        <time>2010-12-26T12:41:42Z</time>
      </trkpt>
      <trkpt lat="43.79928" lon="7.24622">
        <ele>762</ele>
        <time>2010-12-26T12:41:43Z</time>
      </trkpt>
      <trkpt lat="43.79934" lon="7.2461">
        <ele>763</ele>
        <time>2010-12-26T12:41:49Z</time>
      </trkpt>
      <trkpt lat="43.79938" lon="7.24598">
        <ele>763</ele>
        <time>2010-12-26T12:41:53Z</time>
      </trkpt>
      <trkpt lat="43.79941" lon="7.24586">
        <ele>764</ele>
        <time>2010-12-26T12:41:58Z</time>
      </trkpt>
      <trkpt lat="43.79943" lon="7.24574">
        <ele>764</ele>
        <time>2010-12-26T12:42:02Z</time>
      </trkpt>
      <trkpt lat="43.79947" lon="7.2456">
        <ele>765</ele>
        <time>2010-12-26T12:42:07Z</time>
      </trkpt>
      <trkpt lat="43.79951" lon="7.24548">
        <ele>766</ele>
        <time>2010-12-26T12:42:11Z</time>
      </trkpt>
      <trkpt lat="43.79952" lon="7.24545">
        <ele>766</ele>
        <time>2010-12-26T12:42:13Z</time>
      </trkpt>
      <trkpt lat="43.79959" lon="7.24534">
        <ele>766</ele>
        <time>2010-12-26T12:42:18Z</time>
      </trkpt>
      <trkpt lat="43.79969" lon="7.24532">
        <ele>767</ele>
        <time>2010-12-26T12:42:24Z</time>
      </trkpt>
      <trkpt lat="43.79979" lon="7.24533">
        <ele>767</ele>
        <time>2010-12-26T12:42:28Z</time>
      </trkpt>
      <trkpt lat="43.79988" lon="7.24536">
        <ele>768</ele>
        <time>2010-12-26T12:42:33Z</time>
      </trkpt>
      <trkpt lat="43.79998" lon="7.24539">
        <ele>768</ele>
        <time>2010-12-26T12:42:38Z</time>
      </trkpt>
      <trkpt lat="43.80005" lon="7.2454">
        <ele>768</ele>
        <time>2010-12-26T12:42:43Z</time>
      </trkpt>
      <trkpt lat="43.80014" lon="7.24544">
        <ele>769</ele>
        <time>2010-12-26T12:42:48Z</time>
      </trkpt>
      <trkpt lat="43.80023" lon="7.2455">
        <ele>770</ele>
        <time>2010-12-26T12:42:54Z</time>
      </trkpt>
      <trkpt lat="43.80033" lon="7.24555">
        <ele>771</ele>
        <time>2010-12-26T12:42:59Z</time>
      </trkpt>
      <trkpt lat="43.8004" lon="7.2455">
        <ele>770</ele>
        <time>2010-12-26T12:43:04Z</time>
      </trkpt>
      <trkpt lat="43.80042" lon="7.24537">
        <ele>772</ele>
        <time>2010-12-26T12:43:08Z</time>
      </trkpt>
      <trkpt lat="43.80043" lon="7.24523">
        <ele>774</ele>
        <time>2010-12-26T12:43:14Z</time>
      </trkpt>
      <trkpt lat="43.80045" lon="7.24511">
        <ele>775</ele>
        <time>2010-12-26T12:43:19Z</time>
      </trkpt>
      <trkpt lat="43.80048" lon="7.24506">
        <ele>775</ele>
        <time>2010-12-26T12:43:23Z</time>
      </trkpt>
      <trkpt lat="43.80054" lon="7.24495">
        <ele>775</ele>
        <time>2010-12-26T12:43:29Z</time>
      </trkpt>
      <trkpt lat="43.80062" lon="7.24489">
        <ele>775</ele>
        <time>2010-12-26T12:43:35Z</time>
      </trkpt>
      <trkpt lat="43.80071" lon="7.24483">
        <ele>776</ele>
        <time>2010-12-26T12:43:40Z</time>
      </trkpt>
      <trkpt lat="43.80076" lon="7.24481">
        <ele>776</ele>
        <time>2010-12-26T12:43:43Z</time>
      </trkpt>
      <trkpt lat="43.80086" lon="7.24482">
        <ele>776</ele>
        <time>2010-12-26T12:43:48Z</time>
      </trkpt>
      <trkpt lat="43.80094" lon="7.24487">
        <ele>776</ele>
        <time>2010-12-26T12:43:54Z</time>
      </trkpt>
      <trkpt lat="43.801" lon="7.24497">
        <ele>780</ele>
        <time>2010-12-26T12:44:02Z</time>
      </trkpt>
      <trkpt lat="43.80105" lon="7.24507">
        <ele>780</ele>
        <time>2010-12-26T12:44:07Z</time>
      </trkpt>
      <trkpt lat="43.80108" lon="7.24514">
        <ele>781</ele>
        <time>2010-12-26T12:44:10Z</time>
      </trkpt>
      <trkpt lat="43.80113" lon="7.24525">
        <ele>783</ele>
        <time>2010-12-26T12:44:16Z</time>
      </trkpt>
      <trkpt lat="43.80118" lon="7.24535">
        <ele>784</ele>
        <time>2010-12-26T12:44:22Z</time>
      </trkpt>
      <trkpt lat="43.80123" lon="7.24546">
        <ele>785</ele>
        <time>2010-12-26T12:44:28Z</time>
      </trkpt>
      <trkpt lat="43.8013" lon="7.24557">
        <ele>786</ele>
        <time>2010-12-26T12:44:35Z</time>
      </trkpt>
      <trkpt lat="43.80137" lon="7.24565">
        <ele>787</ele>
        <time>2010-12-26T12:44:42Z</time>
      </trkpt>
      <trkpt lat="43.80139" lon="7.2457">
        <ele>788</ele>
        <time>2010-12-26T12:44:49Z</time>
      </trkpt>
      <trkpt lat="43.80149" lon="7.24574">
        <ele>790</ele>
        <time>2010-12-26T12:46:16Z</time>
      </trkpt>
      <trkpt lat="43.80157" lon="7.24582">
        <ele>791</ele>
        <time>2010-12-26T12:46:24Z</time>
      </trkpt>
      <trkpt lat="43.80166" lon="7.24587">
        <ele>792</ele>
        <time>2010-12-26T12:46:30Z</time>
      </trkpt>
      <trkpt lat="43.80175" lon="7.24588">
        <ele>792</ele>
        <time>2010-12-26T12:46:35Z</time>
      </trkpt>
      <trkpt lat="43.80185" lon="7.24588">
        <ele>793</ele>
        <time>2010-12-26T12:46:41Z</time>
      </trkpt>
      <trkpt lat="43.80186" lon="7.24587">
        <ele>793</ele>
        <time>2010-12-26T12:46:42Z</time>
      </trkpt>
      <trkpt lat="43.80195" lon="7.24584">
        <ele>794</ele>
        <time>2010-12-26T12:46:48Z</time>
      </trkpt>
      <trkpt lat="43.80205" lon="7.2458">
        <ele>794</ele>
        <time>2010-12-26T12:46:55Z</time>
      </trkpt>
      <trkpt lat="43.8021" lon="7.24577">
        <ele>794</ele>
        <time>2010-12-26T12:46:58Z</time>
      </trkpt>
      <trkpt lat="43.80219" lon="7.24573">
        <ele>795</ele>
        <time>2010-12-26T12:47:04Z</time>
      </trkpt>
      <trkpt lat="43.80228" lon="7.24569">
        <ele>796</ele>
        <time>2010-12-26T12:47:11Z</time>
      </trkpt>
      <trkpt lat="43.80229" lon="7.24568">
        <ele>796</ele>
        <time>2010-12-26T12:47:11Z</time>
      </trkpt>
      <trkpt lat="43.80238" lon="7.24563">
        <ele>796</ele>
        <time>2010-12-26T12:47:19Z</time>
      </trkpt>
      <trkpt lat="43.80242" lon="7.24556">
        <ele>797</ele>
        <time>2010-12-26T12:47:25Z</time>
      </trkpt>
      <trkpt lat="43.80249" lon="7.24547">
        <ele>798</ele>
        <time>2010-12-26T12:47:33Z</time>
      </trkpt>
      <trkpt lat="43.80257" lon="7.2454">
        <ele>801</ele>
        <time>2010-12-26T12:47:42Z</time>
      </trkpt>
      <trkpt lat="43.80267" lon="7.24539">
        <ele>803</ele>
        <time>2010-12-26T12:47:49Z</time>
      </trkpt>
      <trkpt lat="43.80276" lon="7.24539">
        <ele>805</ele>
        <time>2010-12-26T12:47:57Z</time>
      </trkpt>
      <trkpt lat="43.80286" lon="7.24538">
        <ele>806</ele>
        <time>2010-12-26T12:48:05Z</time>
      </trkpt>
      <trkpt lat="43.80295" lon="7.24535">
        <ele>807</ele>
        <time>2010-12-26T12:48:14Z</time>
      </trkpt>
      <trkpt lat="43.80303" lon="7.24529">
        <ele>809</ele>
        <time>2010-12-26T12:48:23Z</time>
      </trkpt>
      <trkpt lat="43.80307" lon="7.24529">
        <ele>809</ele>
        <time>2010-12-26T12:48:26Z</time>
      </trkpt>
      <trkpt lat="43.80316" lon="7.24526">
        <ele>810</ele>
        <time>2010-12-26T12:48:32Z</time>
      </trkpt>
      <trkpt lat="43.80326" lon="7.24524">
        <ele>811</ele>
        <time>2010-12-26T12:48:39Z</time>
      </trkpt>
      <trkpt lat="43.80336" lon="7.24524">
        <ele>811</ele>
        <time>2010-12-26T12:48:44Z</time>
      </trkpt>
      <trkpt lat="43.80345" lon="7.24524">
        <ele>812</ele>
        <time>2010-12-26T12:48:48Z</time>
      </trkpt>
      <trkpt lat="43.80355" lon="7.24523">
        <ele>814</ele>
        <time>2010-12-26T12:48:54Z</time>
      </trkpt>
      <trkpt lat="43.80365" lon="7.24522">
        <ele>814</ele>
        <time>2010-12-26T12:49:00Z</time>
      </trkpt>
      <trkpt lat="43.80374" lon="7.2452">
        <ele>815</ele>
        <time>2010-12-26T12:49:05Z</time>
      </trkpt>
      <trkpt lat="43.80384" lon="7.24518">
        <ele>817</ele>
        <time>2010-12-26T12:49:10Z</time>
      </trkpt>
      <trkpt lat="43.80385" lon="7.24517">
        <ele>817</ele>
        <time>2010-12-26T12:49:11Z</time>
      </trkpt>
      <trkpt lat="43.80396" lon="7.24517">
        <ele>817</ele>
        <time>2010-12-26T12:49:17Z</time>
      </trkpt>
      <trkpt lat="43.80405" lon="7.24516">
        <ele>818</ele>
        <time>2010-12-26T12:49:21Z</time>
      </trkpt>
      <trkpt lat="43.80414" lon="7.24516">
        <ele>819</ele>
        <time>2010-12-26T12:49:26Z</time>
      </trkpt>
      <trkpt lat="43.80418" lon="7.24515">
        <ele>820</ele>
        <time>2010-12-26T12:49:28Z</time>
      </trkpt>
      <trkpt lat="43.80428" lon="7.24514">
        <ele>820</ele>
        <time>2010-12-26T12:49:34Z</time>
      </trkpt>
      <trkpt lat="43.80436" lon="7.24513">
        <ele>821</ele>
        <time>2010-12-26T12:49:38Z</time>
      </trkpt>
      <trkpt lat="43.80446" lon="7.24512">
        <ele>820</ele>
        <time>2010-12-26T12:49:44Z</time>
      </trkpt>
      <trkpt lat="43.80456" lon="7.24512">
        <ele>820</ele>
        <time>2010-12-26T12:49:50Z</time>
      </trkpt>
      <trkpt lat="43.80466" lon="7.24511">
        <ele>820</ele>
        <time>2010-12-26T12:49:55Z</time>
      </trkpt>
      <trkpt lat="43.80469" lon="7.24509">
        <ele>824</ele>
        <time>2010-12-26T12:50:25Z</time>
      </trkpt>
      <trkpt lat="43.80478" lon="7.24515">
        <ele>832</ele>
        <time>2010-12-26T12:56:50Z</time>
      </trkpt>
      <trkpt lat="43.80488" lon="7.24515">
        <ele>832</ele>
        <time>2010-12-26T12:56:54Z</time>
      </trkpt>
      <trkpt lat="43.80488" lon="7.24515">
        <ele>832</ele>
        <time>2010-12-26T12:56:55Z</time>
      </trkpt>
      <trkpt lat="43.805" lon="7.24512">
        <ele>832</ele>
        <time>2010-12-26T12:56:58Z</time>
      </trkpt>
      <trkpt lat="43.80513" lon="7.24512">
        <ele>832</ele>
        <time>2010-12-26T12:57:02Z</time>
      </trkpt>
      <trkpt lat="43.80524" lon="7.24512">
        <ele>832</ele>
        <time>2010-12-26T12:57:06Z</time>
      </trkpt>
      <trkpt lat="43.80533" lon="7.24513">
        <ele>831</ele>
        <time>2010-12-26T12:57:11Z</time>
      </trkpt>
      <trkpt lat="43.80544" lon="7.24513">
        <ele>829</ele>
        <time>2010-12-26T12:57:17Z</time>
      </trkpt>
      <trkpt lat="43.80554" lon="7.24511">
        <ele>828</ele>
        <time>2010-12-26T12:57:21Z</time>
      </trkpt>
      <trkpt lat="43.80568" lon="7.24507">
        <ele>828</ele>
        <time>2010-12-26T12:57:25Z</time>
      </trkpt>
      <trkpt lat="43.80577" lon="7.24504">
        <ele>827</ele>
        <time>2010-12-26T12:57:28Z</time>
      </trkpt>
      <trkpt lat="43.80587" lon="7.24502">
        <ele>827</ele>
        <time>2010-12-26T12:57:30Z</time>
      </trkpt>
      <trkpt lat="43.80597" lon="7.24499">
        <ele>827</ele>
        <time>2010-12-26T12:57:32Z</time>
      </trkpt>
      <trkpt lat="43.80606" lon="7.24496">
        <ele>827</ele>
        <time>2010-12-26T12:57:34Z</time>
      </trkpt>
      <trkpt lat="43.80616" lon="7.24493">
        <ele>826</ele>
        <time>2010-12-26T12:57:36Z</time>
      </trkpt>
      <trkpt lat="43.80627" lon="7.24488">
        <ele>826</ele>
        <time>2010-12-26T12:57:39Z</time>
      </trkpt>
      <trkpt lat="43.80638" lon="7.24484">
        <ele>826</ele>
        <time>2010-12-26T12:57:42Z</time>
      </trkpt>
      <trkpt lat="43.80663" lon="7.24472">
        <ele>826</ele>
        <time>2010-12-26T12:57:45Z</time>
      </trkpt>
      <trkpt lat="43.80675" lon="7.24465">
        <ele>825</ele>
        <time>2010-12-26T12:57:46Z</time>
      </trkpt>
      <trkpt lat="43.80685" lon="7.2446">
        <ele>824</ele>
        <time>2010-12-26T12:57:48Z</time>
      </trkpt>
      <trkpt lat="43.80695" lon="7.24455">
        <ele>824</ele>
        <time>2010-12-26T12:57:49Z</time>
      </trkpt>
      <trkpt lat="43.80709" lon="7.24446">
        <ele>824</ele>
        <time>2010-12-26T12:57:51Z</time>
      </trkpt>
      <trkpt lat="43.80718" lon="7.24439">
        <ele>824</ele>
        <time>2010-12-26T12:57:53Z</time>
      </trkpt>
      <trkpt lat="43.80727" lon="7.24433">
        <ele>823</ele>
        <time>2010-12-26T12:57:54Z</time>
      </trkpt>
      <trkpt lat="43.80736" lon="7.24426">
        <ele>823</ele>
        <time>2010-12-26T12:57:56Z</time>
      </trkpt>
      <trkpt lat="43.80749" lon="7.24416">
        <ele>824</ele>
        <time>2010-12-26T12:57:58Z</time>
      </trkpt>
      <trkpt lat="43.80762" lon="7.24407">
        <ele>825</ele>
        <time>2010-12-26T12:58:00Z</time>
      </trkpt>
      <trkpt lat="43.80774" lon="7.24401">
        <ele>825</ele>
        <time>2010-12-26T12:58:02Z</time>
      </trkpt>
      <trkpt lat="43.80784" lon="7.24395">
        <ele>825</ele>
        <time>2010-12-26T12:58:04Z</time>
      </trkpt>
      <trkpt lat="43.80793" lon="7.24388">
        <ele>825</ele>
        <time>2010-12-26T12:58:07Z</time>
      </trkpt>
      <trkpt lat="43.80797" lon="7.24377">
        <ele>824</ele>
        <time>2010-12-26T12:58:13Z</time>
      </trkpt>
      <trkpt lat="43.8079" lon="7.2437">
        <ele>823</ele>
        <time>2010-12-26T12:58:16Z</time>
      </trkpt>
      <trkpt lat="43.80787" lon="7.24368">
        <ele>823</ele>
        <time>2010-12-26T12:58:16Z</time>
      </trkpt>
      <trkpt lat="43.80779" lon="7.24359">
        <ele>822</ele>
        <time>2010-12-26T12:58:19Z</time>
      </trkpt>
      <trkpt lat="43.8077" lon="7.24352">
        <ele>820</ele>
        <time>2010-12-26T12:58:22Z</time>
      </trkpt>
      <trkpt lat="43.80758" lon="7.24344">
        <ele>819</ele>
        <time>2010-12-26T12:58:26Z</time>
      </trkpt>
      <trkpt lat="43.80749" lon="7.24336">
        <ele>818</ele>
        <time>2010-12-26T12:58:28Z</time>
      </trkpt>
      <trkpt lat="43.80743" lon="7.2433">
        <ele>817</ele>
        <time>2010-12-26T12:58:30Z</time>
      </trkpt>
      <trkpt lat="43.80735" lon="7.24324">
        <ele>816</ele>
        <time>2010-12-26T12:58:32Z</time>
      </trkpt>
      <trkpt lat="43.80726" lon="7.24314">
        <ele>814</ele>
        <time>2010-12-26T12:58:35Z</time>
      </trkpt>
      <trkpt lat="43.80724" lon="7.24311">
        <ele>813</ele>
        <time>2010-12-26T12:58:35Z</time>
      </trkpt>
      <trkpt lat="43.80717" lon="7.24265">
        <ele>797</ele>
        <time>2010-12-26T13:00:04Z</time>
      </trkpt>
      <trkpt lat="43.80717" lon="7.24265">
        <ele>797</ele>
        <time>2010-12-26T13:00:07Z</time>
      </trkpt>
      <trkpt lat="43.80716" lon="7.24251">
        <ele>798</ele>
        <time>2010-12-26T13:00:09Z</time>
      </trkpt>
      <trkpt lat="43.80714" lon="7.24232">
        <ele>800</ele>
        <time>2010-12-26T13:00:29Z</time>
      </trkpt>
      <trkpt lat="43.80714" lon="7.24232">
        <ele>800</ele>
        <time>2010-12-26T13:00:33Z</time>
      </trkpt>
      <trkpt lat="43.80716" lon="7.24218">
        <ele>796</ele>
        <time>2010-12-26T13:00:38Z</time>
      </trkpt>
      <trkpt lat="43.80719" lon="7.24204">
        <ele>791</ele>
        <time>2010-12-26T13:00:49Z</time>
      </trkpt>
      <trkpt lat="43.80719" lon="7.24204">
        <ele>791</ele>
        <time>2010-12-26T13:00:51Z</time>
      </trkpt>
      <trkpt lat="43.80719" lon="7.2419">
        <ele>788</ele>
        <time>2010-12-26T13:01:47Z</time>
      </trkpt>
      <trkpt lat="43.80723" lon="7.24178">
        <ele>788</ele>
        <time>2010-12-26T13:01:53Z</time>
      </trkpt>
      <trkpt lat="43.80726" lon="7.24165">
        <ele>788</ele>
        <time>2010-12-26T13:02:07Z</time>
      </trkpt>
      <trkpt lat="43.80722" lon="7.24155">
        <ele>788</ele>
        <time>2010-12-26T13:02:14Z</time>
      </trkpt>
      <trkpt lat="43.80717" lon="7.24166">
        <ele>781</ele>
        <time>2010-12-26T13:02:43Z</time>
      </trkpt>
      <trkpt lat="43.80707" lon="7.24164">
        <ele>779</ele>
        <time>2010-12-26T13:02:51Z</time>
      </trkpt>
      <trkpt lat="43.80698" lon="7.24162">
        <ele>773</ele>
        <time>2010-12-26T13:03:27Z</time>
      </trkpt>
      <trkpt lat="43.80683" lon="7.24153">
        <ele>764</ele>
        <time>2010-12-26T13:04:22Z</time>
      </trkpt>
      <trkpt lat="43.80667" lon="7.24153">
        <ele>764</ele>
        <time>2010-12-26T13:04:29Z</time>
      </trkpt>
      <trkpt lat="43.80667" lon="7.24153">
        <ele>764</ele>
        <time>2010-12-26T13:04:31Z</time>
      </trkpt>
      <trkpt lat="43.80661" lon="7.24143">
        <ele>754</ele>
        <time>2010-12-26T13:04:41Z</time>
      </trkpt>
      <trkpt lat="43.80658" lon="7.24131">
        <ele>748</ele>
        <time>2010-12-26T13:04:51Z</time>
      </trkpt>
      <trkpt lat="43.80655" lon="7.24131">
        <ele>747</ele>
        <time>2010-12-26T13:04:52Z</time>
      </trkpt>
      <trkpt lat="43.80646" lon="7.24134">
        <ele>744</ele>
        <time>2010-12-26T13:04:57Z</time>
      </trkpt>
      <trkpt lat="43.80641" lon="7.24144">
        <ele>742</ele>
        <time>2010-12-26T13:05:07Z</time>
      </trkpt>
      <trkpt lat="43.80634" lon="7.24136">
        <ele>737</ele>
        <time>2010-12-26T13:05:41Z</time>
      </trkpt>
      <trkpt lat="43.80631" lon="7.24123">
        <ele>736</ele>
        <time>2010-12-26T13:05:55Z</time>
      </trkpt>
      <trkpt lat="43.80637" lon="7.24132">
        <ele>730</ele>
        <time>2010-12-26T13:06:24Z</time>
      </trkpt>
      <trkpt lat="43.80646" lon="7.24131">
        <ele>725</ele>
        <time>2010-12-26T13:07:24Z</time>
      </trkpt>
      <trkpt lat="43.80651" lon="7.24127">
        <ele>725</ele>
        <time>2010-12-26T13:07:28Z</time>
      </trkpt>
      <trkpt lat="43.80657" lon="7.24116">
        <ele>725</ele>
        <time>2010-12-26T13:07:33Z</time>
      </trkpt>
      <trkpt lat="43.80657" lon="7.24104">
        <ele>723</ele>
        <time>2010-12-26T13:07:41Z</time>
      </trkpt>
      <trkpt lat="43.80657" lon="7.24103">
        <ele>723</ele>
        <time>2010-12-26T13:07:43Z</time>
      </trkpt>
      <trkpt lat="43.8065" lon="7.24094">
        <ele>727</ele>
        <time>2010-12-26T13:08:05Z</time>
      </trkpt>
      <trkpt lat="43.80641" lon="7.24096">
        <ele>722</ele>
        <time>2010-12-26T13:08:52Z</time>
      </trkpt>
      <trkpt lat="43.80633" lon="7.24091">
        <ele>719</ele>
        <time>2010-12-26T13:09:19Z</time>
      </trkpt>
      <trkpt lat="43.80624" lon="7.24087">
        <ele>718</ele>
        <time>2010-12-26T13:09:23Z</time>
      </trkpt>
      <trkpt lat="43.80621" lon="7.24074">
        <ele>711</ele>
        <time>2010-12-26T13:10:41Z</time>
      </trkpt>
      <trkpt lat="43.80621" lon="7.24068">
        <ele>709</ele>
        <time>2010-12-26T13:10:46Z</time>
      </trkpt>
      <trkpt lat="43.80615" lon="7.24059">
        <ele>698</ele>
        <time>2010-12-26T13:11:14Z</time>
      </trkpt>
      <trkpt lat="43.80601" lon="7.24058">
        <ele>697</ele>
        <time>2010-12-26T13:11:23Z</time>
      </trkpt>
      <trkpt lat="43.8059" lon="7.24056">
        <ele>695</ele>
        <time>2010-12-26T13:11:28Z</time>
      </trkpt>
      <trkpt lat="43.80583" lon="7.24045">
        <ele>692</ele>
        <time>2010-12-26T13:11:33Z</time>
      </trkpt>
      <trkpt lat="43.80578" lon="7.24034">
        <ele>691</ele>
        <time>2010-12-26T13:11:37Z</time>
      </trkpt>
      <trkpt lat="43.8057" lon="7.24022">
        <ele>687</ele>
        <time>2010-12-26T13:11:58Z</time>
      </trkpt>
      <trkpt lat="43.8057" lon="7.24022">
        <ele>687</ele>
        <time>2010-12-26T13:12:02Z</time>
      </trkpt>
      <trkpt lat="43.80574" lon="7.2401">
        <ele>676</ele>
        <time>2010-12-26T13:14:16Z</time>
      </trkpt>
      <trkpt lat="43.80575" lon="7.24006">
        <ele>676</ele>
        <time>2010-12-26T13:14:23Z</time>
      </trkpt>
      <trkpt lat="43.80581" lon="7.23996">
        <ele>675</ele>
        <time>2010-12-26T13:14:31Z</time>
      </trkpt>
      <trkpt lat="43.80585" lon="7.23985">
        <ele>674</ele>
        <time>2010-12-26T13:14:55Z</time>
      </trkpt>
      <trkpt lat="43.80585" lon="7.23984">
        <ele>674</ele>
        <time>2010-12-26T13:14:56Z</time>
      </trkpt>
      <trkpt lat="43.80593" lon="7.23993">
        <ele>671</ele>
        <time>2010-12-26T13:15:32Z</time>
      </trkpt>
      <trkpt lat="43.80598" lon="7.2398">
        <ele>678</ele>
        <time>2010-12-26T13:16:24Z</time>
      </trkpt>
      <trkpt lat="43.80608" lon="7.23969">
        <ele>677</ele>
        <time>2010-12-26T13:16:28Z</time>
      </trkpt>
      <trkpt lat="43.80617" lon="7.23964">
        <ele>675</ele>
        <time>2010-12-26T13:16:33Z</time>
      </trkpt>
      <trkpt lat="43.80627" lon="7.23955">
        <ele>674</ele>
        <time>2010-12-26T13:16:37Z</time>
      </trkpt>
      <trkpt lat="43.80633" lon="7.23951">
        <ele>674</ele>
        <time>2010-12-26T13:16:39Z</time>
      </trkpt>
      <trkpt lat="43.80641" lon="7.23943">
        <ele>674</ele>
        <time>2010-12-26T13:16:42Z</time>
      </trkpt>
      <trkpt lat="43.80652" lon="7.23933">
        <ele>672</ele>
        <time>2010-12-26T13:16:47Z</time>
      </trkpt>
      <trkpt lat="43.80659" lon="7.23924">
        <ele>671</ele>
        <time>2010-12-26T13:16:51Z</time>
      </trkpt>
      <trkpt lat="43.80663" lon="7.23912">
        <ele>668</ele>
        <time>2010-12-26T13:16:58Z</time>
      </trkpt>
      <trkpt lat="43.80665" lon="7.23895">
        <ele>667</ele>
        <time>2010-12-26T13:17:02Z</time>
      </trkpt>
      <trkpt lat="43.80673" lon="7.23881">
        <ele>664</ele>
        <time>2010-12-26T13:17:07Z</time>
      </trkpt>
      <trkpt lat="43.80681" lon="7.23875">
        <ele>663</ele>
        <time>2010-12-26T13:17:11Z</time>
      </trkpt>
      <trkpt lat="43.80687" lon="7.23879">
        <ele>661</ele>
        <time>2010-12-26T13:17:20Z</time>
      </trkpt>
      <trkpt lat="43.80698" lon="7.23881">
        <ele>652</ele>
        <time>2010-12-26T13:18:25Z</time>
      </trkpt>
      <trkpt lat="43.80711" lon="7.23879">
        <ele>653</ele>
        <time>2010-12-26T13:18:29Z</time>
      </trkpt>
      <trkpt lat="43.80724" lon="7.2387">
        <ele>653</ele>
        <time>2010-12-26T13:18:32Z</time>
      </trkpt>
      <trkpt lat="43.80734" lon="7.23868">
        <ele>654</ele>
        <time>2010-12-26T13:18:35Z</time>
      </trkpt>
      <trkpt lat="43.80745" lon="7.23867">
        <ele>656</ele>
        <time>2010-12-26T13:18:38Z</time>
      </trkpt>
      <trkpt lat="43.80762" lon="7.23863">
        <ele>656</ele>
        <time>2010-12-26T13:18:42Z</time>
      </trkpt>
      <trkpt lat="43.80771" lon="7.23854">
        <ele>655</ele>
        <time>2010-12-26T13:18:47Z</time>
      </trkpt>
      <trkpt lat="43.80775" lon="7.23842">
        <ele>655</ele>
        <time>2010-12-26T13:18:51Z</time>
      </trkpt>
      <trkpt lat="43.80778" lon="7.23827">
        <ele>653</ele>
        <time>2010-12-26T13:18:56Z</time>
      </trkpt>
      <trkpt lat="43.80775" lon="7.23814">
        <ele>652</ele>
        <time>2010-12-26T13:18:59Z</time>
      </trkpt>
      <trkpt lat="43.80773" lon="7.23797">
        <ele>649</ele>
        <time>2010-12-26T13:19:05Z</time>
      </trkpt>
      <trkpt lat="43.80772" lon="7.23781">
        <ele>648</ele>
        <time>2010-12-26T13:19:09Z</time>
      </trkpt>
      <trkpt lat="43.80772" lon="7.23768">
        <ele>646</ele>
        <time>2010-12-26T13:19:14Z</time>
      </trkpt>
      <trkpt lat="43.80774" lon="7.23754">
        <ele>643</ele>
        <time>2010-12-26T13:19:19Z</time>
      </trkpt>
      <trkpt lat="43.80777" lon="7.23743">
        <ele>641</ele>
        <time>2010-12-26T13:19:22Z</time>
      </trkpt>
      <trkpt lat="43.8078" lon="7.23729">
        <ele>638</ele>
        <time>2010-12-26T13:19:26Z</time>
      </trkpt>
      <trkpt lat="43.8079" lon="7.23713">
        <ele>635</ele>
        <time>2010-12-26T13:19:36Z</time>
      </trkpt>
      <trkpt lat="43.80806" lon="7.23703">
        <ele>632</ele>
        <time>2010-12-26T13:19:40Z</time>
      </trkpt>
      <trkpt lat="43.80816" lon="7.23699">
        <ele>630</ele>
        <time>2010-12-26T13:19:43Z</time>
      </trkpt>
      <trkpt lat="43.80831" lon="7.23681">
        <ele>627</ele>
        <time>2010-12-26T13:19:47Z</time>
      </trkpt>
      <trkpt lat="43.80838" lon="7.23671">
        <ele>623</ele>
        <time>2010-12-26T13:19:49Z</time>
      </trkpt>
      <trkpt lat="43.80844" lon="7.23658">
        <ele>619</ele>
        <time>2010-12-26T13:19:53Z</time>
      </trkpt>
      <trkpt lat="43.80846" lon="7.23644">
        <ele>618</ele>
        <time>2010-12-26T13:19:56Z</time>
      </trkpt>
      <trkpt lat="43.80847" lon="7.23638">
        <ele>617</ele>
        <time>2010-12-26T13:19:58Z</time>
      </trkpt>
      <trkpt lat="43.8085" lon="7.23619">
        <ele>617</ele>
        <time>2010-12-26T13:20:02Z</time>
      </trkpt>
      <trkpt lat="43.80852" lon="7.23606">
        <ele>615</ele>
        <time>2010-12-26T13:20:05Z</time>
      </trkpt>
      <trkpt lat="43.80856" lon="7.23588">
        <ele>613</ele>
        <time>2010-12-26T13:20:08Z</time>
      </trkpt>
      <trkpt lat="43.80861" lon="7.23575">
        <ele>611</ele>
        <time>2010-12-26T13:20:11Z</time>
      </trkpt>
      <trkpt lat="43.80871" lon="7.23564">
        <ele>610</ele>
        <time>2010-12-26T13:20:15Z</time>
      </trkpt>
      <trkpt lat="43.80883" lon="7.23552">
        <ele>608</ele>
        <time>2010-12-26T13:20:19Z</time>
      </trkpt>
      <trkpt lat="43.80891" lon="7.23547">
        <ele>605</ele>
        <time>2010-12-26T13:20:23Z</time>
      </trkpt>
      <trkpt lat="43.80891" lon="7.23547">
        <ele>605</ele>
        <time>2010-12-26T13:21:33Z</time>
      </trkpt>
      <trkpt lat="43.80891" lon="7.23534">
        <ele>577</ele>
        <time>2010-12-26T13:22:31Z</time>
      </trkpt>
      <trkpt lat="43.80895" lon="7.23517">
        <ele>578</ele>
        <time>2010-12-26T13:22:37Z</time>
      </trkpt>
      <trkpt lat="43.80903" lon="7.23507">
        <ele>578</ele>
        <time>2010-12-26T13:22:42Z</time>
      </trkpt>
      <trkpt lat="43.80911" lon="7.23497">
        <ele>577</ele>
        <time>2010-12-26T13:22:48Z</time>
      </trkpt>
      <trkpt lat="43.8092" lon="7.23487">
        <ele>575</ele>
        <time>2010-12-26T13:22:51Z</time>
      </trkpt>
      <trkpt lat="43.80928" lon="7.23477">
        <ele>571</ele>
        <time>2010-12-26T13:23:06Z</time>
      </trkpt>
      <trkpt lat="43.80938" lon="7.23469">
        <ele>567</ele>
        <time>2010-12-26T13:23:19Z</time>
      </trkpt>
      <trkpt lat="43.80947" lon="7.2346">
        <ele>566</ele>
        <time>2010-12-26T13:23:24Z</time>
      </trkpt>
      <trkpt lat="43.80954" lon="7.23454">
        <ele>564</ele>
        <time>2010-12-26T13:23:28Z</time>
      </trkpt>
      <trkpt lat="43.80963" lon="7.23449">
        <ele>563</ele>
        <time>2010-12-26T13:23:31Z</time>
      </trkpt>
      <trkpt lat="43.80971" lon="7.23444">
        <ele>563</ele>
        <time>2010-12-26T13:23:36Z</time>
      </trkpt>
      <trkpt lat="43.80982" lon="7.23442">
        <ele>562</ele>
        <time>2010-12-26T13:23:40Z</time>
      </trkpt>
      <trkpt lat="43.80995" lon="7.23439">
        <ele>561</ele>
        <time>2010-12-26T13:23:44Z</time>
      </trkpt>
      <trkpt lat="43.81001" lon="7.2343">
        <ele>559</ele>
        <time>2010-12-26T13:23:48Z</time>
      </trkpt>
      <trkpt lat="43.81006" lon="7.23419">
        <ele>555</ele>
        <time>2010-12-26T13:23:52Z</time>
      </trkpt>
      <trkpt lat="43.81012" lon="7.23409">
        <ele>550</ele>
        <time>2010-12-26T13:24:00Z</time>
      </trkpt>
      <trkpt lat="43.81015" lon="7.23396">
        <ele>552</ele>
        <time>2010-12-26T13:24:12Z</time>
      </trkpt>
      <trkpt lat="43.81023" lon="7.23383">
        <ele>544</ele>
        <time>2010-12-26T13:25:34Z</time>
      </trkpt>
      <trkpt lat="43.81031" lon="7.23373">
        <ele>545</ele>
        <time>2010-12-26T13:25:41Z</time>
      </trkpt>
      <trkpt lat="43.8104" lon="7.23366">
        <ele>546</ele>
        <time>2010-12-26T13:25:47Z</time>
      </trkpt>
      <trkpt lat="43.81047" lon="7.23358">
        <ele>549</ele>
        <time>2010-12-26T13:25:56Z</time>
      </trkpt>
      <trkpt lat="43.81056" lon="7.23351">
        <ele>550</ele>
        <time>2010-12-26T13:26:07Z</time>
      </trkpt>
      <trkpt lat="43.81066" lon="7.23323">
        <ele>555</ele>
        <time>2010-12-26T13:27:14Z</time>
      </trkpt>
      <trkpt lat="43.81076" lon="7.23317">
        <ele>561</ele>
        <time>2010-12-26T13:27:54Z</time>
      </trkpt>
      <trkpt lat="43.81085" lon="7.23312">
        <ele>563</ele>
        <time>2010-12-26T13:28:06Z</time>
      </trkpt>
      <trkpt lat="43.81089" lon="7.23308">
        <ele>563</ele>
        <time>2010-12-26T13:28:15Z</time>
      </trkpt>
      <trkpt lat="43.81095" lon="7.23299">
        <ele>565</ele>
        <time>2010-12-26T13:28:15Z</time>
      </trkpt>
      <trkpt lat="43.81095" lon="7.23285">
        <ele>567</ele>
        <time>2010-12-26T13:28:22Z</time>
      </trkpt>
      <trkpt lat="43.81094" lon="7.23271">
        <ele>566</ele>
        <time>2010-12-26T13:28:32Z</time>
      </trkpt>
      <trkpt lat="43.81098" lon="7.23228">
        <ele>562</ele>
        <time>2010-12-26T13:29:27Z</time>
      </trkpt>
      <trkpt lat="43.81107" lon="7.23211">
        <ele>562</ele>
        <time>2010-12-26T13:29:38Z</time>
      </trkpt>
      <trkpt lat="43.81115" lon="7.23205">
        <ele>561</ele>
        <time>2010-12-26T13:29:51Z</time>
      </trkpt>
      <trkpt lat="43.81123" lon="7.23201">
        <ele>561</ele>
        <time>2010-12-26T13:30:07Z</time>
      </trkpt>
      <trkpt lat="43.81131" lon="7.23194">
        <ele>561</ele>
        <time>2010-12-26T13:30:09Z</time>
      </trkpt>
      <trkpt lat="43.81137" lon="7.23182">
        <ele>560</ele>
        <time>2010-12-26T13:30:16Z</time>
      </trkpt>
      <trkpt lat="43.8114" lon="7.2317">
        <ele>560</ele>
        <time>2010-12-26T13:30:21Z</time>
      </trkpt>
      <trkpt lat="43.81143" lon="7.23157">
        <ele>560</ele>
        <time>2010-12-26T13:30:26Z</time>
      </trkpt>
      <trkpt lat="43.81145" lon="7.23145">
        <ele>560</ele>
        <time>2010-12-26T13:30:32Z</time>
      </trkpt>
      <trkpt lat="43.8115" lon="7.23132">
        <ele>560</ele>
        <time>2010-12-26T13:30:39Z</time>
      </trkpt>
      <trkpt lat="43.8115" lon="7.23132">
        <ele>560</ele>
        <time>2010-12-26T13:30:42Z</time>
      </trkpt>
      <trkpt lat="43.81157" lon="7.23117">
        <ele>559</ele>
        <time>2010-12-26T13:30:50Z</time>
      </trkpt>
      <trkpt lat="43.81163" lon="7.23109">
        <ele>560</ele>
        <time>2010-12-26T13:30:57Z</time>
      </trkpt>
      <trkpt lat="43.81172" lon="7.23097">
        <ele>561</ele>
        <time>2010-12-26T13:31:06Z</time>
      </trkpt>
      <trkpt lat="43.81179" lon="7.2309">
        <ele>561</ele>
        <time>2010-12-26T13:31:12Z</time>
      </trkpt>
      <trkpt lat="43.81188" lon="7.23079">
        <ele>561</ele>
        <time>2010-12-26T13:31:21Z</time>
      </trkpt>
      <trkpt lat="43.812" lon="7.23073">
        <ele>563</ele>
        <time>2010-12-26T13:31:31Z</time>
      </trkpt>
      <trkpt lat="43.81195" lon="7.23085">
        <ele>566</ele>
        <time>2010-12-26T13:31:42Z</time>
      </trkpt>
      <trkpt lat="43.81188" lon="7.23095">
        <ele>569</ele>
        <time>2010-12-26T13:31:48Z</time>
      </trkpt>
      <trkpt lat="43.81183" lon="7.23105">
        <ele>574</ele>
        <time>2010-12-26T13:31:58Z</time>
      </trkpt>
      <trkpt lat="43.81181" lon="7.23119">
        <ele>577</ele>
        <time>2010-12-26T13:32:06Z</time>
      </trkpt>
      <trkpt lat="43.81183" lon="7.23132">
        <ele>577</ele>
        <time>2010-12-26T13:32:15Z</time>
      </trkpt>
      <trkpt lat="43.81182" lon="7.23147">
        <ele>577</ele>
        <time>2010-12-26T13:32:24Z</time>
      </trkpt>
      <trkpt lat="43.81181" lon="7.23159">
        <ele>578</ele>
        <time>2010-12-26T13:32:30Z</time>
      </trkpt>
      <trkpt lat="43.81179" lon="7.23172">
        <ele>579</ele>
        <time>2010-12-26T13:32:37Z</time>
      </trkpt>
      <trkpt lat="43.81178" lon="7.23186">
        <ele>581</ele>
        <time>2010-12-26T13:32:45Z</time>
      </trkpt>
      <trkpt lat="43.81179" lon="7.23199">
        <ele>583</ele>
        <time>2010-12-26T13:32:53Z</time>
      </trkpt>
      <trkpt lat="43.81179" lon="7.23212">
        <ele>585</ele>
        <time>2010-12-26T13:32:59Z</time>
      </trkpt>
      <trkpt lat="43.81187" lon="7.23222">
        <ele>586</ele>
        <time>2010-12-26T13:33:09Z</time>
      </trkpt>
      <trkpt lat="43.81193" lon="7.23212">
        <ele>586</ele>
        <time>2010-12-26T13:33:16Z</time>
      </trkpt>
      <trkpt lat="43.81198" lon="7.23202">
        <ele>588</ele>
        <time>2010-12-26T13:33:24Z</time>
      </trkpt>
      <trkpt lat="43.81201" lon="7.23189">
        <ele>590</ele>
        <time>2010-12-26T13:33:31Z</time>
      </trkpt>
      <trkpt lat="43.81205" lon="7.23173">
        <ele>592</ele>
        <time>2010-12-26T13:33:42Z</time>
      </trkpt>
      <trkpt lat="43.81208" lon="7.23186">
        <ele>595</ele>
        <time>2010-12-26T13:33:54Z</time>
      </trkpt>
      <trkpt lat="43.81212" lon="7.232">
        <ele>597</ele>
        <time>2010-12-26T13:34:02Z</time>
      </trkpt>
      <trkpt lat="43.81223" lon="7.2321">
        <ele>598</ele>
        <time>2010-12-26T13:34:20Z</time>
      </trkpt>
      <trkpt lat="43.81233" lon="7.23208">
        <ele>599</ele>
        <time>2010-12-26T13:34:30Z</time>
      </trkpt>
      <trkpt lat="43.81245" lon="7.23206">
        <ele>602</ele>
        <time>2010-12-26T13:34:41Z</time>
      </trkpt>
      <trkpt lat="43.81254" lon="7.23206">
        <ele>604</ele>
        <time>2010-12-26T13:34:54Z</time>
      </trkpt>
      <trkpt lat="43.81263" lon="7.23204">
        <ele>604</ele>
        <time>2010-12-26T13:35:04Z</time>
      </trkpt>
      <trkpt lat="43.81266" lon="7.23204">
        <ele>604</ele>
        <time>2010-12-26T13:35:14Z</time>
      </trkpt>
      <trkpt lat="43.81271" lon="7.23191">
        <ele>604</ele>
        <time>2010-12-26T13:35:15Z</time>
      </trkpt>
      <trkpt lat="43.81272" lon="7.23176">
        <ele>603</ele>
        <time>2010-12-26T13:35:17Z</time>
      </trkpt>
      <trkpt lat="43.81273" lon="7.23162">
        <ele>603</ele>
        <time>2010-12-26T13:35:19Z</time>
      </trkpt>
      <trkpt lat="43.81272" lon="7.23155">
        <ele>603</ele>
        <time>2010-12-26T13:35:19Z</time>
      </trkpt>
      <trkpt lat="43.81272" lon="7.23142">
        <ele>603</ele>
        <time>2010-12-26T13:35:21Z</time>
      </trkpt>
      <trkpt lat="43.81271" lon="7.23126">
        <ele>603</ele>
        <time>2010-12-26T13:35:23Z</time>
      </trkpt>
      <trkpt lat="43.81275" lon="7.23113">
        <ele>603</ele>
        <time>2010-12-26T13:35:26Z</time>
      </trkpt>
      <trkpt lat="43.81277" lon="7.23111">
        <ele>602</ele>
        <time>2010-12-26T13:35:27Z</time>
      </trkpt>
      <trkpt lat="43.81285" lon="7.23121">
        <ele>602</ele>
        <time>2010-12-26T13:35:34Z</time>
      </trkpt>
      <trkpt lat="43.8129" lon="7.23132">
        <ele>602</ele>
        <time>2010-12-26T13:35:38Z</time>
      </trkpt>
      <trkpt lat="43.81299" lon="7.2314">
        <ele>603</ele>
        <time>2010-12-26T13:35:41Z</time>
      </trkpt>
      <trkpt lat="43.81306" lon="7.23146">
        <ele>603</ele>
        <time>2010-12-26T13:35:42Z</time>
      </trkpt>
      <trkpt lat="43.81316" lon="7.23153">
        <ele>604</ele>
        <time>2010-12-26T13:35:44Z</time>
      </trkpt>
      <trkpt lat="43.81329" lon="7.23157">
        <ele>604</ele>
        <time>2010-12-26T13:35:46Z</time>
      </trkpt>
      <trkpt lat="43.81341" lon="7.23157">
        <ele>604</ele>
        <time>2010-12-26T13:35:48Z</time>
      </trkpt>
      <trkpt lat="43.81352" lon="7.23155">
        <ele>604</ele>
        <time>2010-12-26T13:35:51Z</time>
      </trkpt>
      <trkpt lat="43.81363" lon="7.23152">
        <ele>603</ele>
        <time>2010-12-26T13:35:53Z</time>
      </trkpt>
      <trkpt lat="43.81374" lon="7.2315">
        <ele>602</ele>
        <time>2010-12-26T13:35:55Z</time>
      </trkpt>
      <trkpt lat="43.81384" lon="7.23153">
        <ele>601</ele>
        <time>2010-12-26T13:35:57Z</time>
      </trkpt>
      <trkpt lat="43.81388" lon="7.23154">
        <ele>600</ele>
        <time>2010-12-26T13:35:58Z</time>
      </trkpt>
      <trkpt lat="43.81399" lon="7.23161">
        <ele>599</ele>
        <time>2010-12-26T13:36:00Z</time>
      </trkpt>
      <trkpt lat="43.81411" lon="7.23169">
        <ele>598</ele>
        <time>2010-12-26T13:36:02Z</time>
      </trkpt>
      <trkpt lat="43.81423" lon="7.23176">
        <ele>597</ele>
        <time>2010-12-26T13:36:04Z</time>
      </trkpt>
      <trkpt lat="43.81432" lon="7.23181">
        <ele>598</ele>
        <time>2010-12-26T13:36:06Z</time>
      </trkpt>
      <trkpt lat="43.81444" lon="7.23188">
        <ele>598</ele>
        <time>2010-12-26T13:36:08Z</time>
      </trkpt>
      <trkpt lat="43.81453" lon="7.23193">
        <ele>599</ele>
        <time>2010-12-26T13:36:09Z</time>
      </trkpt>
      <trkpt lat="43.81466" lon="7.232">
        <ele>599</ele>
        <time>2010-12-26T13:36:11Z</time>
      </trkpt>
      <trkpt lat="43.81478" lon="7.23207">
        <ele>599</ele>
        <time>2010-12-26T13:36:13Z</time>
      </trkpt>
      <trkpt lat="43.81486" lon="7.23212">
        <ele>599</ele>
        <time>2010-12-26T13:36:15Z</time>
      </trkpt>
      <trkpt lat="43.81497" lon="7.23219">
        <ele>599</ele>
        <time>2010-12-26T13:36:17Z</time>
      </trkpt>
      <trkpt lat="43.81505" lon="7.23227">
        <ele>599</ele>
        <time>2010-12-26T13:36:19Z</time>
      </trkpt>
      <trkpt lat="43.81507" lon="7.23239">
        <ele>599</ele>
        <time>2010-12-26T13:36:24Z</time>
      </trkpt>
      <trkpt lat="43.81503" lon="7.23252">
        <ele>596</ele>
        <time>2010-12-26T13:36:29Z</time>
      </trkpt>
      <trkpt lat="43.81503" lon="7.23254">
        <ele>596</ele>
        <time>2010-12-26T13:36:40Z</time>
      </trkpt>
      <trkpt lat="43.81506" lon="7.23267">
        <ele>593</ele>
        <time>2010-12-26T13:36:44Z</time>
      </trkpt>
      <trkpt lat="43.81513" lon="7.23275">
        <ele>592</ele>
        <time>2010-12-26T13:36:52Z</time>
      </trkpt>
      <trkpt lat="43.81523" lon="7.23293">
        <ele>589</ele>
        <time>2010-12-26T13:37:01Z</time>
      </trkpt>
      <trkpt lat="43.81526" lon="7.23303">
        <ele>588</ele>
        <time>2010-12-26T13:37:05Z</time>
      </trkpt>
      <trkpt lat="43.81528" lon="7.23324">
        <ele>587</ele>
        <time>2010-12-26T13:37:10Z</time>
      </trkpt>
      <trkpt lat="43.81531" lon="7.23338">
        <ele>587</ele>
        <time>2010-12-26T13:37:13Z</time>
      </trkpt>
      <trkpt lat="43.81536" lon="7.2335">
        <ele>586</ele>
        <time>2010-12-26T13:37:15Z</time>
      </trkpt>
      <trkpt lat="43.81541" lon="7.23364">
        <ele>586</ele>
        <time>2010-12-26T13:37:17Z</time>
      </trkpt>
      <trkpt lat="43.81545" lon="7.23377">
        <ele>586</ele>
        <time>2010-12-26T13:37:19Z</time>
      </trkpt>
      <trkpt lat="43.8155" lon="7.23392">
        <ele>586</ele>
        <time>2010-12-26T13:37:21Z</time>
      </trkpt>
      <trkpt lat="43.81551" lon="7.23396">
        <ele>586</ele>
        <time>2010-12-26T13:37:22Z</time>
      </trkpt>
      <trkpt lat="43.81558" lon="7.23416">
        <ele>587</ele>
        <time>2010-12-26T13:37:26Z</time>
      </trkpt>
      <trkpt lat="43.81563" lon="7.23434">
        <ele>587</ele>
        <time>2010-12-26T13:37:30Z</time>
      </trkpt>
      <trkpt lat="43.81565" lon="7.23455">
        <ele>587</ele>
        <time>2010-12-26T13:37:34Z</time>
      </trkpt>
      <trkpt lat="43.81566" lon="7.2347">
        <ele>587</ele>
        <time>2010-12-26T13:37:36Z</time>
      </trkpt>
      <trkpt lat="43.81567" lon="7.23484">
        <ele>587</ele>
        <time>2010-12-26T13:37:38Z</time>
      </trkpt>
      <trkpt lat="43.81568" lon="7.235">
        <ele>587</ele>
        <time>2010-12-26T13:37:41Z</time>
      </trkpt>
      <trkpt lat="43.81568" lon="7.23514">
        <ele>587</ele>
        <time>2010-12-26T13:37:44Z</time>
      </trkpt>
      <trkpt lat="43.81565" lon="7.23529">
        <ele>586</ele>
        <time>2010-12-26T13:37:47Z</time>
      </trkpt>
      <trkpt lat="43.81562" lon="7.23542">
        <ele>585</ele>
        <time>2010-12-26T13:37:49Z</time>
      </trkpt>
      <trkpt lat="43.81558" lon="7.23559">
        <ele>586</ele>
        <time>2010-12-26T13:37:54Z</time>
      </trkpt>
      <trkpt lat="43.81555" lon="7.23574">
        <ele>587</ele>
        <time>2010-12-26T13:37:57Z</time>
      </trkpt>
      <trkpt lat="43.81557" lon="7.23615">
        <ele>587</ele>
        <time>2010-12-26T13:38:12Z</time>
      </trkpt>
      <trkpt lat="43.81562" lon="7.23655">
        <ele>588</ele>
        <time>2010-12-26T13:38:21Z</time>
      </trkpt>
      <trkpt lat="43.81563" lon="7.2367">
        <ele>587</ele>
        <time>2010-12-26T13:38:23Z</time>
      </trkpt>
      <trkpt lat="43.81563" lon="7.2367">
        <ele>587</ele>
        <time>2010-12-26T13:38:26Z</time>
      </trkpt>
      <trkpt lat="43.81556" lon="7.23708">
        <ele>588</ele>
        <time>2010-12-26T13:38:31Z</time>
      </trkpt>
      <trkpt lat="43.8154" lon="7.23742">
        <ele>586</ele>
        <time>2010-12-26T13:38:40Z</time>
      </trkpt>
      <trkpt lat="43.81524" lon="7.23776">
        <ele>585</ele>
        <time>2010-12-26T13:38:51Z</time>
      </trkpt>
      <trkpt lat="43.81524" lon="7.23776">
        <ele>585</ele>
        <time>2010-12-26T13:38:55Z</time>
      </trkpt>
      <trkpt lat="43.81517" lon="7.23785">
        <ele>585</ele>
        <time>2010-12-26T13:38:57Z</time>
      </trkpt>
      <trkpt lat="43.81508" lon="7.23791">
        <ele>587</ele>
        <time>2010-12-26T13:39:04Z</time>
      </trkpt>
      <trkpt lat="43.81488" lon="7.23814">
        <ele>585</ele>
        <time>2010-12-26T13:39:23Z</time>
      </trkpt>
      <trkpt lat="43.81488" lon="7.23814">
        <ele>585</ele>
        <time>2010-12-26T13:39:30Z</time>
      </trkpt>
      <trkpt lat="43.8148" lon="7.23821">
        <ele>586</ele>
        <time>2010-12-26T13:39:34Z</time>
      </trkpt>
      <trkpt lat="43.81471" lon="7.23827">
        <ele>585</ele>
        <time>2010-12-26T13:39:40Z</time>
      </trkpt>
      <trkpt lat="43.81465" lon="7.23831">
        <ele>585</ele>
        <time>2010-12-26T13:39:44Z</time>
      </trkpt>
      <trkpt lat="43.81455" lon="7.23836">
        <ele>583</ele>
        <time>2010-12-26T13:39:51Z</time>
      </trkpt>
      <trkpt lat="43.81454" lon="7.23837">
        <ele>583</ele>
        <time>2010-12-26T13:39:52Z</time>
      </trkpt>
      <trkpt lat="43.81445" lon="7.23842">
        <ele>583</ele>
        <time>2010-12-26T13:39:59Z</time>
      </trkpt>
      <trkpt lat="43.81426" lon="7.23851">
        <ele>585</ele>
        <time>2010-12-26T13:40:16Z</time>
      </trkpt>
      <trkpt lat="43.81401" lon="7.23871">
        <ele>587</ele>
        <time>2010-12-26T13:40:37Z</time>
      </trkpt>
      <trkpt lat="43.81393" lon="7.23879">
        <ele>586</ele>
        <time>2010-12-26T13:40:45Z</time>
      </trkpt>
      <trkpt lat="43.81389" lon="7.23893">
        <ele>587</ele>
        <time>2010-12-26T13:40:54Z</time>
      </trkpt>
      <trkpt lat="43.81391" lon="7.23902">
        <ele>587</ele>
        <time>2010-12-26T13:40:59Z</time>
      </trkpt>
      <trkpt lat="43.81397" lon="7.23912">
        <ele>588</ele>
        <time>2010-12-26T13:41:06Z</time>
      </trkpt>
      <trkpt lat="43.81399" lon="7.23915">
        <ele>588</ele>
        <time>2010-12-26T13:41:09Z</time>
      </trkpt>
      <trkpt lat="43.81406" lon="7.23925">
        <ele>588</ele>
        <time>2010-12-26T13:41:13Z</time>
      </trkpt>
      <trkpt lat="43.81413" lon="7.23934">
        <ele>588</ele>
        <time>2010-12-26T13:41:22Z</time>
      </trkpt>
      <trkpt lat="43.81421" lon="7.23942">
        <ele>587</ele>
        <time>2010-12-26T13:41:30Z</time>
      </trkpt>
      <trkpt lat="43.8143" lon="7.2395">
        <ele>588</ele>
        <time>2010-12-26T13:41:37Z</time>
      </trkpt>
      <trkpt lat="43.81444" lon="7.2397">
        <ele>588</ele>
        <time>2010-12-26T13:41:47Z</time>
      </trkpt>
      <trkpt lat="43.8145" lon="7.23977">
        <ele>589</ele>
        <time>2010-12-26T13:41:54Z</time>
      </trkpt>
      <trkpt lat="43.81458" lon="7.23988">
        <ele>590</ele>
        <time>2010-12-26T13:41:56Z</time>
      </trkpt>
      <trkpt lat="43.81465" lon="7.23999">
        <ele>591</ele>
        <time>2010-12-26T13:42:01Z</time>
      </trkpt>
      <trkpt lat="43.81471" lon="7.24011">
        <ele>594</ele>
        <time>2010-12-26T13:42:08Z</time>
      </trkpt>
      <trkpt lat="43.81475" lon="7.24027">
        <ele>595</ele>
        <time>2010-12-26T13:42:14Z</time>
      </trkpt>
      <trkpt lat="43.81479" lon="7.24041">
        <ele>597</ele>
        <time>2010-12-26T13:42:18Z</time>
      </trkpt>
      <trkpt lat="43.81481" lon="7.24063">
        <ele>599</ele>
        <time>2010-12-26T13:42:26Z</time>
      </trkpt>
      <trkpt lat="43.81481" lon="7.24078">
        <ele>598</ele>
        <time>2010-12-26T13:42:32Z</time>
      </trkpt>
      <trkpt lat="43.81479" lon="7.24094">
        <ele>600</ele>
        <time>2010-12-26T13:42:43Z</time>
      </trkpt>
      <trkpt lat="43.81477" lon="7.24112">
        <ele>604</ele>
        <time>2010-12-26T13:42:57Z</time>
      </trkpt>
      <trkpt lat="43.81476" lon="7.24126">
        <ele>606</ele>
        <time>2010-12-26T13:43:03Z</time>
      </trkpt>
      <trkpt lat="43.81476" lon="7.24142">
        <ele>607</ele>
        <time>2010-12-26T13:43:10Z</time>
      </trkpt>
      <trkpt lat="43.81475" lon="7.2416">
        <ele>608</ele>
        <time>2010-12-26T13:43:17Z</time>
      </trkpt>
      <trkpt lat="43.81475" lon="7.24173">
        <ele>609</ele>
        <time>2010-12-26T13:43:20Z</time>
      </trkpt>
      <trkpt lat="43.81475" lon="7.24192">
        <ele>610</ele>
        <time>2010-12-26T13:43:27Z</time>
      </trkpt>
      <trkpt lat="43.81475" lon="7.24205">
        <ele>612</ele>
        <time>2010-12-26T13:43:32Z</time>
      </trkpt>
      <trkpt lat="43.81474" lon="7.24218">
        <ele>612</ele>
        <time>2010-12-26T13:43:37Z</time>
      </trkpt>
      <trkpt lat="43.81473" lon="7.24237">
        <ele>612</ele>
        <time>2010-12-26T13:43:46Z</time>
      </trkpt>
      <trkpt lat="43.81472" lon="7.24258">
        <ele>611</ele>
        <time>2010-12-26T13:43:54Z</time>
      </trkpt>
      <trkpt lat="43.81472" lon="7.2426">
        <ele>611</ele>
        <time>2010-12-26T13:43:56Z</time>
      </trkpt>
      <trkpt lat="43.81474" lon="7.24273">
        <ele>610</ele>
        <time>2010-12-26T13:44:02Z</time>
      </trkpt>
      <trkpt lat="43.81472" lon="7.24286">
        <ele>612</ele>
        <time>2010-12-26T13:44:07Z</time>
      </trkpt>
      <trkpt lat="43.81463" lon="7.24301">
        <ele>612</ele>
        <time>2010-12-26T13:44:13Z</time>
      </trkpt>
      <trkpt lat="43.8146" lon="7.24305">
        <ele>612</ele>
        <time>2010-12-26T13:44:15Z</time>
      </trkpt>
      <trkpt lat="43.8145" lon="7.24312">
        <ele>612</ele>
        <time>2010-12-26T13:44:17Z</time>
      </trkpt>
      <trkpt lat="43.81442" lon="7.24319">
        <ele>612</ele>
        <time>2010-12-26T13:44:20Z</time>
      </trkpt>
      <trkpt lat="43.81431" lon="7.24325">
        <ele>612</ele>
        <time>2010-12-26T13:44:23Z</time>
      </trkpt>
      <trkpt lat="43.81423" lon="7.24331">
        <ele>612</ele>
        <time>2010-12-26T13:44:25Z</time>
      </trkpt>
      <trkpt lat="43.81415" lon="7.24337">
        <ele>612</ele>
        <time>2010-12-26T13:44:27Z</time>
      </trkpt>
      <trkpt lat="43.81407" lon="7.24345">
        <ele>612</ele>
        <time>2010-12-26T13:44:29Z</time>
      </trkpt>
      <trkpt lat="43.81395" lon="7.24359">
        <ele>611</ele>
        <time>2010-12-26T13:44:33Z</time>
      </trkpt>
      <trkpt lat="43.81388" lon="7.2437">
        <ele>610</ele>
        <time>2010-12-26T13:44:35Z</time>
      </trkpt>
      <trkpt lat="43.81379" lon="7.24383">
        <ele>609</ele>
        <time>2010-12-26T13:44:37Z</time>
      </trkpt>
      <trkpt lat="43.81369" lon="7.24394">
        <ele>609</ele>
        <time>2010-12-26T13:44:39Z</time>
      </trkpt>
      <trkpt lat="43.81361" lon="7.24402">
        <ele>609</ele>
        <time>2010-12-26T13:44:40Z</time>
      </trkpt>
      <trkpt lat="43.81353" lon="7.2441">
        <ele>609</ele>
        <time>2010-12-26T13:44:42Z</time>
      </trkpt>
      <trkpt lat="43.81346" lon="7.24417">
        <ele>609</ele>
        <time>2010-12-26T13:44:43Z</time>
      </trkpt>
      <trkpt lat="43.81338" lon="7.24427">
        <ele>609</ele>
        <time>2010-12-26T13:44:45Z</time>
      </trkpt>
      <trkpt lat="43.8133" lon="7.24436">
        <ele>609</ele>
        <time>2010-12-26T13:44:46Z</time>
      </trkpt>
      <trkpt lat="43.81322" lon="7.24446">
        <ele>608</ele>
        <time>2010-12-26T13:44:48Z</time>
      </trkpt>
      <trkpt lat="43.81316" lon="7.24457">
        <ele>608</ele>
        <time>2010-12-26T13:44:49Z</time>
      </trkpt>
      <trkpt lat="43.8131" lon="7.24468">
        <ele>607</ele>
        <time>2010-12-26T13:44:51Z</time>
      </trkpt>
      <trkpt lat="43.81304" lon="7.24478">
        <ele>607</ele>
        <time>2010-12-26T13:44:52Z</time>
      </trkpt>
      <trkpt lat="43.81296" lon="7.24492">
        <ele>607</ele>
        <time>2010-12-26T13:44:54Z</time>
      </trkpt>
      <trkpt lat="43.81289" lon="7.24504">
        <ele>607</ele>
        <time>2010-12-26T13:44:56Z</time>
      </trkpt>
      <trkpt lat="43.81278" lon="7.24511">
        <ele>606</ele>
        <time>2010-12-26T13:44:59Z</time>
      </trkpt>
      <trkpt lat="43.81266" lon="7.24511">
        <ele>606</ele>
        <time>2010-12-26T13:45:02Z</time>
      </trkpt>
      <trkpt lat="43.81257" lon="7.2451">
        <ele>606</ele>
        <time>2010-12-26T13:45:05Z</time>
      </trkpt>
      <trkpt lat="43.81247" lon="7.24517">
        <ele>606</ele>
        <time>2010-12-26T13:45:09Z</time>
      </trkpt>
      <trkpt lat="43.8124" lon="7.24527">
        <ele>604</ele>
        <time>2010-12-26T13:45:13Z</time>
      </trkpt>
      <trkpt lat="43.81233" lon="7.24538">
        <ele>605</ele>
        <time>2010-12-26T13:45:16Z</time>
      </trkpt>
      <trkpt lat="43.81227" lon="7.24551">
        <ele>605</ele>
        <time>2010-12-26T13:45:21Z</time>
      </trkpt>
      <trkpt lat="43.81225" lon="7.24563">
        <ele>604</ele>
        <time>2010-12-26T13:45:24Z</time>
      </trkpt>
      <trkpt lat="43.81225" lon="7.24577">
        <ele>604</ele>
        <time>2010-12-26T13:45:27Z</time>
      </trkpt>
      <trkpt lat="43.81229" lon="7.24592">
        <ele>605</ele>
        <time>2010-12-26T13:45:30Z</time>
      </trkpt>
      <trkpt lat="43.81234" lon="7.24606">
        <ele>605</ele>
        <time>2010-12-26T13:45:32Z</time>
      </trkpt>
      <trkpt lat="43.81237" lon="7.24622">
        <ele>606</ele>
        <time>2010-12-26T13:45:34Z</time>
      </trkpt>
      <trkpt lat="43.8124" lon="7.24639">
        <ele>606</ele>
        <time>2010-12-26T13:45:36Z</time>
      </trkpt>
      <trkpt lat="43.81241" lon="7.24652">
        <ele>606</ele>
        <time>2010-12-26T13:45:38Z</time>
      </trkpt>
      <trkpt lat="43.81241" lon="7.24665">
        <ele>608</ele>
        <time>2010-12-26T13:45:41Z</time>
      </trkpt>
      <trkpt lat="43.81239" lon="7.24678">
        <ele>608</ele>
        <time>2010-12-26T13:45:44Z</time>
      </trkpt>
      <trkpt lat="43.81235" lon="7.24689">
        <ele>608</ele>
        <time>2010-12-26T13:45:47Z</time>
      </trkpt>
      <trkpt lat="43.81226" lon="7.24698">
        <ele>607</ele>
        <time>2010-12-26T13:45:51Z</time>
      </trkpt>
      <trkpt lat="43.81222" lon="7.24701">
        <ele>607</ele>
        <time>2010-12-26T13:45:54Z</time>
      </trkpt>
      <trkpt lat="43.81213" lon="7.24706">
        <ele>606</ele>
        <time>2010-12-26T13:45:57Z</time>
      </trkpt>
      <trkpt lat="43.81198" lon="7.24707">
        <ele>605</ele>
        <time>2010-12-26T13:46:03Z</time>
      </trkpt>
      <trkpt lat="43.81188" lon="7.24711">
        <ele>606</ele>
        <time>2010-12-26T13:46:07Z</time>
      </trkpt>
      <trkpt lat="43.8119" lon="7.24744">
        <ele>605</ele>
        <time>2010-12-26T13:46:18Z</time>
      </trkpt>
      <trkpt lat="43.81195" lon="7.24757">
        <ele>604</ele>
        <time>2010-12-26T13:46:20Z</time>
      </trkpt>
      <trkpt lat="43.81202" lon="7.24769">
        <ele>603</ele>
        <time>2010-12-26T13:46:22Z</time>
      </trkpt>
      <trkpt lat="43.8121" lon="7.2478">
        <ele>602</ele>
        <time>2010-12-26T13:46:26Z</time>
      </trkpt>
      <trkpt lat="43.81217" lon="7.24817">
        <ele>600</ele>
        <time>2010-12-26T13:46:37Z</time>
      </trkpt>
      <trkpt lat="43.81213" lon="7.24855">
        <ele>604</ele>
        <time>2010-12-26T13:47:03Z</time>
      </trkpt>
      <trkpt lat="43.81218" lon="7.24892">
        <ele>604</ele>
        <time>2010-12-26T13:47:21Z</time>
      </trkpt>
      <trkpt lat="43.81218" lon="7.24892">
        <ele>604</ele>
        <time>2010-12-26T13:47:24Z</time>
      </trkpt>
      <trkpt lat="43.81226" lon="7.24912">
        <ele>604</ele>
        <time>2010-12-26T13:47:30Z</time>
      </trkpt>
      <trkpt lat="43.81226" lon="7.24912">
        <ele>604</ele>
        <time>2010-12-26T13:47:35Z</time>
      </trkpt>
      <trkpt lat="43.81228" lon="7.24926">
        <ele>604</ele>
        <time>2010-12-26T13:47:36Z</time>
      </trkpt>
      <trkpt lat="43.81242" lon="7.2496">
        <ele>606</ele>
        <time>2010-12-26T13:48:00Z</time>
      </trkpt>
      <trkpt lat="43.81253" lon="7.24978">
        <ele>608</ele>
        <time>2010-12-26T13:48:11Z</time>
      </trkpt>
      <trkpt lat="43.81257" lon="7.2499">
        <ele>608</ele>
        <time>2010-12-26T13:48:16Z</time>
      </trkpt>
      <trkpt lat="43.81257" lon="7.24993">
        <ele>608</ele>
        <time>2010-12-26T13:48:18Z</time>
      </trkpt>
      <trkpt lat="43.81259" lon="7.25013">
        <ele>608</ele>
        <time>2010-12-26T13:48:25Z</time>
      </trkpt>
      <trkpt lat="43.8126" lon="7.25026">
        <ele>609</ele>
        <time>2010-12-26T13:48:30Z</time>
      </trkpt>
      <trkpt lat="43.8126" lon="7.25042">
        <ele>611</ele>
        <time>2010-12-26T13:48:39Z</time>
      </trkpt>
      <trkpt lat="43.8126" lon="7.25044">
        <ele>611</ele>
        <time>2010-12-26T13:48:44Z</time>
      </trkpt>
      <trkpt lat="43.8126" lon="7.25056">
        <ele>613</ele>
        <time>2010-12-26T13:48:49Z</time>
      </trkpt>
      <trkpt lat="43.81262" lon="7.25069">
        <ele>615</ele>
        <time>2010-12-26T13:48:57Z</time>
      </trkpt>
      <trkpt lat="43.81267" lon="7.2508">
        <ele>613</ele>
        <time>2010-12-26T13:49:04Z</time>
      </trkpt>
      <trkpt lat="43.81267" lon="7.2508">
        <ele>613</ele>
        <time>2010-12-26T13:49:07Z</time>
      </trkpt>
      <trkpt lat="43.81275" lon="7.25088">
        <ele>614</ele>
        <time>2010-12-26T13:49:12Z</time>
      </trkpt>
      <trkpt lat="43.81285" lon="7.25095">
        <ele>616</ele>
        <time>2010-12-26T13:49:19Z</time>
      </trkpt>
      <trkpt lat="43.81294" lon="7.251">
        <ele>617</ele>
        <time>2010-12-26T13:49:26Z</time>
      </trkpt>
      <trkpt lat="43.81305" lon="7.25105">
        <ele>617</ele>
        <time>2010-12-26T13:49:34Z</time>
      </trkpt>
      <trkpt lat="43.81317" lon="7.25112">
        <ele>617</ele>
        <time>2010-12-26T13:49:46Z</time>
      </trkpt>
      <trkpt lat="43.81324" lon="7.25125">
        <ele>618</ele>
        <time>2010-12-26T13:49:54Z</time>
      </trkpt>
      <trkpt lat="43.81328" lon="7.25137">
        <ele>619</ele>
        <time>2010-12-26T13:50:00Z</time>
      </trkpt>
      <trkpt lat="43.81333" lon="7.25157">
        <ele>620</ele>
        <time>2010-12-26T13:50:10Z</time>
      </trkpt>
      <trkpt lat="43.81336" lon="7.25171">
        <ele>619</ele>
        <time>2010-12-26T13:50:19Z</time>
      </trkpt>
      <trkpt lat="43.81342" lon="7.25181">
        <ele>621</ele>
        <time>2010-12-26T13:50:28Z</time>
      </trkpt>
      <trkpt lat="43.81351" lon="7.25183">
        <ele>621</ele>
        <time>2010-12-26T13:50:38Z</time>
      </trkpt>
      <trkpt lat="43.81364" lon="7.25182">
        <ele>622</ele>
        <time>2010-12-26T13:50:48Z</time>
      </trkpt>
      <trkpt lat="43.8138" lon="7.25181">
        <ele>623</ele>
        <time>2010-12-26T13:51:00Z</time>
      </trkpt>
      <trkpt lat="43.81381" lon="7.2518">
        <ele>624</ele>
        <time>2010-12-26T13:51:02Z</time>
      </trkpt>
      <trkpt lat="43.81391" lon="7.25179">
        <ele>624</ele>
        <time>2010-12-26T13:51:09Z</time>
      </trkpt>
      <trkpt lat="43.81401" lon="7.25177">
        <ele>625</ele>
        <time>2010-12-26T13:51:18Z</time>
      </trkpt>
      <trkpt lat="43.81414" lon="7.25174">
        <ele>626</ele>
        <time>2010-12-26T13:51:25Z</time>
      </trkpt>
      <trkpt lat="43.81427" lon="7.25173">
        <ele>627</ele>
        <time>2010-12-26T13:51:32Z</time>
      </trkpt>
      <trkpt lat="43.81438" lon="7.25173">
        <ele>629</ele>
        <time>2010-12-26T13:51:39Z</time>
      </trkpt>
      <trkpt lat="43.81448" lon="7.25172">
        <ele>629</ele>
        <time>2010-12-26T13:51:45Z</time>
      </trkpt>
      <trkpt lat="43.81467" lon="7.25168">
        <ele>629</ele>
        <time>2010-12-26T13:51:58Z</time>
      </trkpt>
      <trkpt lat="43.81478" lon="7.25167">
        <ele>629</ele>
        <time>2010-12-26T13:52:03Z</time>
      </trkpt>
      <trkpt lat="43.8149" lon="7.25166">
        <ele>630</ele>
        <time>2010-12-26T13:52:11Z</time>
      </trkpt>
      <trkpt lat="43.81498" lon="7.25171">
        <ele>628</ele>
        <time>2010-12-26T13:52:17Z</time>
      </trkpt>
      <trkpt lat="43.81505" lon="7.25181">
        <ele>627</ele>
        <time>2010-12-26T13:52:26Z</time>
      </trkpt>
      <trkpt lat="43.81505" lon="7.25181">
        <ele>627</ele>
        <time>2010-12-26T13:52:33Z</time>
      </trkpt>
      <trkpt lat="43.81513" lon="7.25189">
        <ele>627</ele>
        <time>2010-12-26T13:52:33Z</time>
      </trkpt>
      <trkpt lat="43.81522" lon="7.25196">
        <ele>627</ele>
        <time>2010-12-26T13:52:42Z</time>
      </trkpt>
      <trkpt lat="43.81539" lon="7.25205">
        <ele>631</ele>
        <time>2010-12-26T13:53:01Z</time>
      </trkpt>
      <trkpt lat="43.81549" lon="7.25205">
        <ele>633</ele>
        <time>2010-12-26T13:53:10Z</time>
      </trkpt>
      <trkpt lat="43.81559" lon="7.2521">
        <ele>634</ele>
        <time>2010-12-26T13:53:18Z</time>
      </trkpt>
      <trkpt lat="43.81569" lon="7.25217">
        <ele>635</ele>
        <time>2010-12-26T13:53:28Z</time>
      </trkpt>
      <trkpt lat="43.81579" lon="7.25224">
        <ele>636</ele>
        <time>2010-12-26T13:53:36Z</time>
      </trkpt>
      <trkpt lat="43.8159" lon="7.25235">
        <ele>640</ele>
        <time>2010-12-26T13:53:53Z</time>
      </trkpt>
      <trkpt lat="43.81599" lon="7.25243">
        <ele>640</ele>
        <time>2010-12-26T13:54:08Z</time>
      </trkpt>
      <trkpt lat="43.81607" lon="7.2525">
        <ele>641</ele>
        <time>2010-12-26T13:54:15Z</time>
      </trkpt>
      <trkpt lat="43.81617" lon="7.25262">
        <ele>642</ele>
        <time>2010-12-26T13:54:24Z</time>
      </trkpt>
      <trkpt lat="43.81622" lon="7.25273">
        <ele>642</ele>
        <time>2010-12-26T13:54:31Z</time>
      </trkpt>
      <trkpt lat="43.81626" lon="7.25286">
        <ele>643</ele>
        <time>2010-12-26T13:54:39Z</time>
      </trkpt>
      <trkpt lat="43.81632" lon="7.25303">
        <ele>647</ele>
        <time>2010-12-26T13:54:49Z</time>
      </trkpt>
      <trkpt lat="43.81637" lon="7.25316">
        <ele>649</ele>
        <time>2010-12-26T13:54:59Z</time>
      </trkpt>
      <trkpt lat="43.81648" lon="7.25341">
        <ele>651</ele>
        <time>2010-12-26T13:55:17Z</time>
      </trkpt>
      <trkpt lat="43.81652" lon="7.25354">
        <ele>654</ele>
        <time>2010-12-26T13:55:25Z</time>
      </trkpt>
      <trkpt lat="43.81657" lon="7.25365">
        <ele>655</ele>
        <time>2010-12-26T13:55:32Z</time>
      </trkpt>
      <trkpt lat="43.81663" lon="7.25379">
        <ele>655</ele>
        <time>2010-12-26T13:55:39Z</time>
      </trkpt>
      <trkpt lat="43.81669" lon="7.2539">
        <ele>656</ele>
        <time>2010-12-26T13:55:44Z</time>
      </trkpt>
      <trkpt lat="43.81677" lon="7.25401">
        <ele>656</ele>
        <time>2010-12-26T13:55:52Z</time>
      </trkpt>
      <trkpt lat="43.81679" lon="7.25403">
        <ele>656</ele>
        <time>2010-12-26T13:55:55Z</time>
      </trkpt>
      <trkpt lat="43.81687" lon="7.25415">
        <ele>658</ele>
        <time>2010-12-26T13:55:59Z</time>
      </trkpt>
      <trkpt lat="43.81694" lon="7.25425">
        <ele>659</ele>
        <time>2010-12-26T13:56:09Z</time>
      </trkpt>
      <trkpt lat="43.81706" lon="7.25442">
        <ele>659</ele>
        <time>2010-12-26T13:57:20Z</time>
      </trkpt>
      <trkpt lat="43.81709" lon="7.25446">
        <ele>660</ele>
        <time>2010-12-26T13:57:27Z</time>
      </trkpt>
      <trkpt lat="43.81709" lon="7.2546">
        <ele>658</ele>
        <time>2010-12-26T13:57:44Z</time>
      </trkpt>
      <trkpt lat="43.81698" lon="7.25462">
        <ele>664</ele>
        <time>2010-12-26T13:57:58Z</time>
      </trkpt>
      <trkpt lat="43.81689" lon="7.2546">
        <ele>665</ele>
        <time>2010-12-26T13:58:02Z</time>
      </trkpt>
      <trkpt lat="43.81677" lon="7.25456">
        <ele>665</ele>
        <time>2010-12-26T13:58:06Z</time>
      </trkpt>
      <trkpt lat="43.81667" lon="7.25451">
        <ele>665</ele>
        <time>2010-12-26T13:58:11Z</time>
      </trkpt>
      <trkpt lat="43.81658" lon="7.25446">
        <ele>666</ele>
        <time>2010-12-26T13:58:15Z</time>
      </trkpt>
      <trkpt lat="43.81649" lon="7.2544">
        <ele>664</ele>
        <time>2010-12-26T13:58:19Z</time>
      </trkpt>
      <trkpt lat="43.81639" lon="7.25435">
        <ele>662</ele>
        <time>2010-12-26T13:58:24Z</time>
      </trkpt>
      <trkpt lat="43.81629" lon="7.25426">
        <ele>662</ele>
        <time>2010-12-26T13:58:35Z</time>
      </trkpt>
      <trkpt lat="43.81615" lon="7.25424">
        <ele>662</ele>
        <time>2010-12-26T13:58:43Z</time>
      </trkpt>
      <trkpt lat="43.81603" lon="7.25427">
        <ele>662</ele>
        <time>2010-12-26T13:58:48Z</time>
      </trkpt>
      <trkpt lat="43.81595" lon="7.25435">
        <ele>662</ele>
        <time>2010-12-26T13:58:50Z</time>
      </trkpt>
      <trkpt lat="43.81583" lon="7.25451">
        <ele>662</ele>
        <time>2010-12-26T13:58:52Z</time>
      </trkpt>
      <trkpt lat="43.8157" lon="7.25468">
        <ele>662</ele>
        <time>2010-12-26T13:58:56Z</time>
      </trkpt>
      <trkpt lat="43.81563" lon="7.25479">
        <ele>661</ele>
        <time>2010-12-26T13:58:59Z</time>
      </trkpt>
      <trkpt lat="43.8156" lon="7.25485">
        <ele>661</ele>
        <time>2010-12-26T13:59:01Z</time>
      </trkpt>
      <trkpt lat="43.81556" lon="7.25496">
        <ele>660</ele>
        <time>2010-12-26T13:59:03Z</time>
      </trkpt>
      <trkpt lat="43.81553" lon="7.25508">
        <ele>660</ele>
        <time>2010-12-26T13:59:06Z</time>
      </trkpt>
      <trkpt lat="43.81548" lon="7.25522">
        <ele>661</ele>
        <time>2010-12-26T13:59:10Z</time>
      </trkpt>
      <trkpt lat="43.81544" lon="7.25536">
        <ele>661</ele>
        <time>2010-12-26T13:59:13Z</time>
      </trkpt>
      <trkpt lat="43.8154" lon="7.25548">
        <ele>661</ele>
        <time>2010-12-26T13:59:16Z</time>
      </trkpt>
      <trkpt lat="43.81535" lon="7.25566">
        <ele>661</ele>
        <time>2010-12-26T13:59:20Z</time>
      </trkpt>
      <trkpt lat="43.8153" lon="7.25578">
        <ele>661</ele>
        <time>2010-12-26T13:59:24Z</time>
      </trkpt>
      <trkpt lat="43.81525" lon="7.25589">
        <ele>661</ele>
        <time>2010-12-26T13:59:26Z</time>
      </trkpt>
      <trkpt lat="43.81516" lon="7.25604">
        <ele>661</ele>
        <time>2010-12-26T13:59:31Z</time>
      </trkpt>
      <trkpt lat="43.81508" lon="7.25612">
        <ele>661</ele>
        <time>2010-12-26T13:59:33Z</time>
      </trkpt>
      <trkpt lat="43.81501" lon="7.25621">
        <ele>662</ele>
        <time>2010-12-26T13:59:36Z</time>
      </trkpt>
      <trkpt lat="43.81494" lon="7.25629">
        <ele>662</ele>
        <time>2010-12-26T13:59:39Z</time>
      </trkpt>
      <trkpt lat="43.81484" lon="7.25639">
        <ele>664</ele>
        <time>2010-12-26T13:59:45Z</time>
      </trkpt>
      <trkpt lat="43.81477" lon="7.25648">
        <ele>664</ele>
        <time>2010-12-26T13:59:48Z</time>
      </trkpt>
      <trkpt lat="43.81468" lon="7.25666">
        <ele>664</ele>
        <time>2010-12-26T13:59:53Z</time>
      </trkpt>
      <trkpt lat="43.81462" lon="7.25679">
        <ele>664</ele>
        <time>2010-12-26T13:59:56Z</time>
      </trkpt>
      <trkpt lat="43.81455" lon="7.25693">
        <ele>664</ele>
        <time>2010-12-26T14:00:00Z</time>
      </trkpt>
      <trkpt lat="43.81448" lon="7.25709">
        <ele>665</ele>
        <time>2010-12-26T14:00:04Z</time>
      </trkpt>
      <trkpt lat="43.81442" lon="7.25718">
        <ele>664</ele>
        <time>2010-12-26T14:00:08Z</time>
      </trkpt>
      <trkpt lat="43.81434" lon="7.25731">
        <ele>664</ele>
        <time>2010-12-26T14:00:12Z</time>
      </trkpt>
      <trkpt lat="43.81427" lon="7.25741">
        <ele>663</ele>
        <time>2010-12-26T14:00:15Z</time>
      </trkpt>
      <trkpt lat="43.81417" lon="7.25747">
        <ele>664</ele>
        <time>2010-12-26T14:00:19Z</time>
      </trkpt>
      <trkpt lat="43.81401" lon="7.25742">
        <ele>663</ele>
        <time>2010-12-26T14:00:26Z</time>
      </trkpt>
      <trkpt lat="43.81396" lon="7.25737">
        <ele>662</ele>
        <time>2010-12-26T14:00:29Z</time>
      </trkpt>
      <trkpt lat="43.81382" lon="7.2572">
        <ele>660</ele>
        <time>2010-12-26T14:00:37Z</time>
      </trkpt>
      <trkpt lat="43.81378" lon="7.25708">
        <ele>662</ele>
        <time>2010-12-26T14:00:42Z</time>
      </trkpt>
      <trkpt lat="43.81374" lon="7.25695">
        <ele>661</ele>
        <time>2010-12-26T14:00:46Z</time>
      </trkpt>
      <trkpt lat="43.81372" lon="7.25683">
        <ele>661</ele>
        <time>2010-12-26T14:00:48Z</time>
      </trkpt>
      <trkpt lat="43.81369" lon="7.25668">
        <ele>661</ele>
        <time>2010-12-26T14:00:50Z</time>
      </trkpt>
      <trkpt lat="43.81367" lon="7.25658">
        <ele>661</ele>
        <time>2010-12-26T14:00:52Z</time>
      </trkpt>
      <trkpt lat="43.81365" lon="7.25643">
        <ele>660</ele>
        <time>2010-12-26T14:00:54Z</time>
      </trkpt>
      <trkpt lat="43.81363" lon="7.25629">
        <ele>660</ele>
        <time>2010-12-26T14:00:56Z</time>
      </trkpt>
      <trkpt lat="43.81361" lon="7.25616">
        <ele>660</ele>
        <time>2010-12-26T14:00:59Z</time>
      </trkpt>
      <trkpt lat="43.81358" lon="7.25602">
        <ele>659</ele>
        <time>2010-12-26T14:01:02Z</time>
      </trkpt>
      <trkpt lat="43.81354" lon="7.25588">
        <ele>660</ele>
        <time>2010-12-26T14:01:04Z</time>
      </trkpt>
      <trkpt lat="43.81349" lon="7.25574">
        <ele>660</ele>
        <time>2010-12-26T14:01:07Z</time>
      </trkpt>
      <trkpt lat="43.81345" lon="7.25562">
        <ele>660</ele>
        <time>2010-12-26T14:01:10Z</time>
      </trkpt>
      <trkpt lat="43.81341" lon="7.25547">
        <ele>660</ele>
        <time>2010-12-26T14:01:14Z</time>
      </trkpt>
      <trkpt lat="43.81337" lon="7.25535">
        <ele>660</ele>
        <time>2010-12-26T14:01:16Z</time>
      </trkpt>
      <trkpt lat="43.81334" lon="7.25523">
        <ele>661</ele>
        <time>2010-12-26T14:01:18Z</time>
      </trkpt>
      <trkpt lat="43.81331" lon="7.25511">
        <ele>660</ele>
        <time>2010-12-26T14:01:22Z</time>
      </trkpt>
      <trkpt lat="43.81316" lon="7.25515">
        <ele>660</ele>
        <time>2010-12-26T14:01:34Z</time>
      </trkpt>
      <trkpt lat="43.81294" lon="7.25546">
        <ele>659</ele>
        <time>2010-12-26T14:01:39Z</time>
      </trkpt>
      <trkpt lat="43.81283" lon="7.2556">
        <ele>660</ele>
        <time>2010-12-26T14:01:40Z</time>
      </trkpt>
      <trkpt lat="43.81272" lon="7.25573">
        <ele>660</ele>
        <time>2010-12-26T14:01:42Z</time>
      </trkpt>
      <trkpt lat="43.81262" lon="7.25584">
        <ele>660</ele>
        <time>2010-12-26T14:01:43Z</time>
      </trkpt>
      <trkpt lat="43.81253" lon="7.25594">
        <ele>659</ele>
        <time>2010-12-26T14:01:44Z</time>
      </trkpt>
      <trkpt lat="43.81245" lon="7.25602">
        <ele>659</ele>
        <time>2010-12-26T14:01:46Z</time>
      </trkpt>
      <trkpt lat="43.81237" lon="7.2561">
        <ele>659</ele>
        <time>2010-12-26T14:01:47Z</time>
      </trkpt>
      <trkpt lat="43.81226" lon="7.25617">
        <ele>659</ele>
        <time>2010-12-26T14:01:50Z</time>
      </trkpt>
      <trkpt lat="43.81217" lon="7.25623">
        <ele>659</ele>
        <time>2010-12-26T14:01:51Z</time>
      </trkpt>
      <trkpt lat="43.81207" lon="7.25627">
        <ele>659</ele>
        <time>2010-12-26T14:01:53Z</time>
      </trkpt>
      <trkpt lat="43.81195" lon="7.2563">
        <ele>658</ele>
        <time>2010-12-26T14:01:55Z</time>
      </trkpt>
      <trkpt lat="43.81183" lon="7.25631">
        <ele>658</ele>
        <time>2010-12-26T14:01:58Z</time>
      </trkpt>
      <trkpt lat="43.81174" lon="7.25623">
        <ele>657</ele>
        <time>2010-12-26T14:02:00Z</time>
      </trkpt>
      <trkpt lat="43.81166" lon="7.25617">
        <ele>657</ele>
        <time>2010-12-26T14:02:01Z</time>
      </trkpt>
      <trkpt lat="43.81156" lon="7.25607">
        <ele>657</ele>
        <time>2010-12-26T14:02:03Z</time>
      </trkpt>
      <trkpt lat="43.81147" lon="7.25597">
        <ele>656</ele>
        <time>2010-12-26T14:02:04Z</time>
      </trkpt>
      <trkpt lat="43.8114" lon="7.25587">
        <ele>655</ele>
        <time>2010-12-26T14:02:06Z</time>
      </trkpt>
      <trkpt lat="43.81133" lon="7.25578">
        <ele>654</ele>
        <time>2010-12-26T14:02:07Z</time>
      </trkpt>
      <trkpt lat="43.8113" lon="7.25574">
        <ele>654</ele>
        <time>2010-12-26T14:02:08Z</time>
      </trkpt>
      <trkpt lat="43.81122" lon="7.25564">
        <ele>653</ele>
        <time>2010-12-26T14:02:10Z</time>
      </trkpt>
      <trkpt lat="43.81093" lon="7.25574">
        <ele>652</ele>
        <time>2010-12-26T14:02:23Z</time>
      </trkpt>
      <trkpt lat="43.81084" lon="7.25579">
        <ele>652</ele>
        <time>2010-12-26T14:02:25Z</time>
      </trkpt>
      <trkpt lat="43.81074" lon="7.25585">
        <ele>652</ele>
        <time>2010-12-26T14:02:26Z</time>
      </trkpt>
      <trkpt lat="43.81064" lon="7.25589">
        <ele>652</ele>
        <time>2010-12-26T14:02:28Z</time>
      </trkpt>
      <trkpt lat="43.81059" lon="7.25592">
        <ele>652</ele>
        <time>2010-12-26T14:02:28Z</time>
      </trkpt>
      <trkpt lat="43.81049" lon="7.25594">
        <ele>652</ele>
        <time>2010-12-26T14:02:30Z</time>
      </trkpt>
      <trkpt lat="43.81039" lon="7.25593">
        <ele>653</ele>
        <time>2010-12-26T14:02:31Z</time>
      </trkpt>
      <trkpt lat="43.8103" lon="7.25591">
        <ele>652</ele>
        <time>2010-12-26T14:02:33Z</time>
      </trkpt>
      <trkpt lat="43.81019" lon="7.25583">
        <ele>652</ele>
        <time>2010-12-26T14:02:35Z</time>
      </trkpt>
      <trkpt lat="43.8101" lon="7.25572">
        <ele>652</ele>
        <time>2010-12-26T14:02:37Z</time>
      </trkpt>
      <trkpt lat="43.81002" lon="7.25562">
        <ele>653</ele>
        <time>2010-12-26T14:02:39Z</time>
      </trkpt>
      <trkpt lat="43.80994" lon="7.25552">
        <ele>652</ele>
        <time>2010-12-26T14:02:41Z</time>
      </trkpt>
      <trkpt lat="43.80987" lon="7.25543">
        <ele>652</ele>
        <time>2010-12-26T14:02:43Z</time>
      </trkpt>
      <trkpt lat="43.80981" lon="7.25533">
        <ele>652</ele>
        <time>2010-12-26T14:02:45Z</time>
      </trkpt>
      <trkpt lat="43.80976" lon="7.25522">
        <ele>652</ele>
        <time>2010-12-26T14:02:48Z</time>
      </trkpt>
      <trkpt lat="43.80972" lon="7.25511">
        <ele>652</ele>
        <time>2010-12-26T14:02:50Z</time>
      </trkpt>
      <trkpt lat="43.80966" lon="7.25497">
        <ele>652</ele>
        <time>2010-12-26T14:02:53Z</time>
      </trkpt>
      <trkpt lat="43.80958" lon="7.25485">
        <ele>653</ele>
        <time>2010-12-26T14:02:56Z</time>
      </trkpt>
      <trkpt lat="43.80952" lon="7.25476">
        <ele>653</ele>
        <time>2010-12-26T14:02:58Z</time>
      </trkpt>
      <trkpt lat="43.80945" lon="7.25467">
        <ele>653</ele>
        <time>2010-12-26T14:03:00Z</time>
      </trkpt>
      <trkpt lat="43.80942" lon="7.25464">
        <ele>652</ele>
        <time>2010-12-26T14:03:01Z</time>
      </trkpt>
      <trkpt lat="43.80933" lon="7.25454">
        <ele>651</ele>
        <time>2010-12-26T14:03:04Z</time>
      </trkpt>
      <trkpt lat="43.80924" lon="7.25444">
        <ele>651</ele>
        <time>2010-12-26T14:03:07Z</time>
      </trkpt>
      <trkpt lat="43.80913" lon="7.2544">
        <ele>651</ele>
        <time>2010-12-26T14:03:10Z</time>
      </trkpt>
      <trkpt lat="43.80906" lon="7.25439">
        <ele>653</ele>
        <time>2010-12-26T14:03:12Z</time>
      </trkpt>
      <trkpt lat="43.80892" lon="7.25477">
        <ele>657</ele>
        <time>2010-12-26T14:03:27Z</time>
      </trkpt>
      <trkpt lat="43.80889" lon="7.2549">
        <ele>657</ele>
        <time>2010-12-26T14:03:29Z</time>
      </trkpt>
      <trkpt lat="43.80886" lon="7.25507">
        <ele>657</ele>
        <time>2010-12-26T14:03:30Z</time>
      </trkpt>
      <trkpt lat="43.80883" lon="7.25522">
        <ele>657</ele>
        <time>2010-12-26T14:03:31Z</time>
      </trkpt>
      <trkpt lat="43.80878" lon="7.25539">
        <ele>656</ele>
        <time>2010-12-26T14:03:33Z</time>
      </trkpt>
      <trkpt lat="43.80871" lon="7.25556">
        <ele>656</ele>
        <time>2010-12-26T14:03:34Z</time>
      </trkpt>
      <trkpt lat="43.80865" lon="7.2557">
        <ele>656</ele>
        <time>2010-12-26T14:03:36Z</time>
      </trkpt>
      <trkpt lat="43.80859" lon="7.25583">
        <ele>656</ele>
        <time>2010-12-26T14:03:37Z</time>
      </trkpt>
      <trkpt lat="43.80852" lon="7.25596">
        <ele>656</ele>
        <time>2010-12-26T14:03:39Z</time>
      </trkpt>
      <trkpt lat="43.80846" lon="7.25608">
        <ele>656</ele>
        <time>2010-12-26T14:03:40Z</time>
      </trkpt>
      <trkpt lat="43.80841" lon="7.25619">
        <ele>655</ele>
        <time>2010-12-26T14:03:42Z</time>
      </trkpt>
      <trkpt lat="43.80835" lon="7.2563">
        <ele>655</ele>
        <time>2010-12-26T14:03:43Z</time>
      </trkpt>
      <trkpt lat="43.80829" lon="7.2564">
        <ele>655</ele>
        <time>2010-12-26T14:03:44Z</time>
      </trkpt>
      <trkpt lat="43.80821" lon="7.25654">
        <ele>655</ele>
        <time>2010-12-26T14:03:47Z</time>
      </trkpt>
      <trkpt lat="43.80813" lon="7.25666">
        <ele>654</ele>
        <time>2010-12-26T14:03:49Z</time>
      </trkpt>
      <trkpt lat="43.80805" lon="7.25678">
        <ele>654</ele>
        <time>2010-12-26T14:03:51Z</time>
      </trkpt>
      <trkpt lat="43.80795" lon="7.25684">
        <ele>655</ele>
        <time>2010-12-26T14:03:53Z</time>
      </trkpt>
      <trkpt lat="43.80784" lon="7.25683">
        <ele>655</ele>
        <time>2010-12-26T14:03:55Z</time>
      </trkpt>
      <trkpt lat="43.80773" lon="7.25682">
        <ele>654</ele>
        <time>2010-12-26T14:03:58Z</time>
      </trkpt>
      <trkpt lat="43.80762" lon="7.25681">
        <ele>654</ele>
        <time>2010-12-26T14:04:00Z</time>
      </trkpt>
      <trkpt lat="43.80751" lon="7.25678">
        <ele>654</ele>
        <time>2010-12-26T14:04:02Z</time>
      </trkpt>
      <trkpt lat="43.80739" lon="7.25676">
        <ele>654</ele>
        <time>2010-12-26T14:04:04Z</time>
      </trkpt>
      <trkpt lat="43.80727" lon="7.25673">
        <ele>653</ele>
        <time>2010-12-26T14:04:07Z</time>
      </trkpt>
      <trkpt lat="43.80716" lon="7.2567">
        <ele>652</ele>
        <time>2010-12-26T14:04:09Z</time>
      </trkpt>
      <trkpt lat="43.80703" lon="7.25668">
        <ele>651</ele>
        <time>2010-12-26T14:04:11Z</time>
      </trkpt>
      <trkpt lat="43.80692" lon="7.25663">
        <ele>650</ele>
        <time>2010-12-26T14:04:13Z</time>
      </trkpt>
      <trkpt lat="43.80684" lon="7.25655">
        <ele>649</ele>
        <time>2010-12-26T14:04:15Z</time>
      </trkpt>
      <trkpt lat="43.80677" lon="7.25647">
        <ele>649</ele>
        <time>2010-12-26T14:04:16Z</time>
      </trkpt>
      <trkpt lat="43.8067" lon="7.25632">
        <ele>649</ele>
        <time>2010-12-26T14:04:19Z</time>
      </trkpt>
      <trkpt lat="43.80664" lon="7.25618">
        <ele>648</ele>
        <time>2010-12-26T14:04:21Z</time>
      </trkpt>
      <trkpt lat="43.8066" lon="7.25606">
        <ele>647</ele>
        <time>2010-12-26T14:04:24Z</time>
      </trkpt>
      <trkpt lat="43.80651" lon="7.25599">
        <ele>647</ele>
        <time>2010-12-26T14:04:28Z</time>
      </trkpt>
      <trkpt lat="43.80643" lon="7.25593">
        <ele>646</ele>
        <time>2010-12-26T14:04:31Z</time>
      </trkpt>
      <trkpt lat="43.80634" lon="7.25585">
        <ele>645</ele>
        <time>2010-12-26T14:04:34Z</time>
      </trkpt>
      <trkpt lat="43.80625" lon="7.25576">
        <ele>644</ele>
        <time>2010-12-26T14:04:37Z</time>
      </trkpt>
      <trkpt lat="43.80616" lon="7.25566">
        <ele>643</ele>
        <time>2010-12-26T14:04:40Z</time>
      </trkpt>
      <trkpt lat="43.80608" lon="7.25558">
        <ele>642</ele>
        <time>2010-12-26T14:04:42Z</time>
      </trkpt>
      <trkpt lat="43.806" lon="7.2555">
        <ele>644</ele>
        <time>2010-12-26T14:04:44Z</time>
      </trkpt>
      <trkpt lat="43.80591" lon="7.25543">
        <ele>644</ele>
        <time>2010-12-26T14:04:47Z</time>
      </trkpt>
      <trkpt lat="43.80583" lon="7.25535">
        <ele>642</ele>
        <time>2010-12-26T14:04:50Z</time>
      </trkpt>
      <trkpt lat="43.80563" lon="7.25566">
        <ele>642</ele>
        <time>2010-12-26T14:04:58Z</time>
      </trkpt>
      <trkpt lat="43.80557" lon="7.25583">
        <ele>642</ele>
        <time>2010-12-26T14:05:00Z</time>
      </trkpt>
      <trkpt lat="43.80551" lon="7.25595">
        <ele>641</ele>
        <time>2010-12-26T14:05:02Z</time>
      </trkpt>
      <trkpt lat="43.80546" lon="7.25607">
        <ele>641</ele>
        <time>2010-12-26T14:05:03Z</time>
      </trkpt>
      <trkpt lat="43.8054" lon="7.25618">
        <ele>640</ele>
        <time>2010-12-26T14:05:05Z</time>
      </trkpt>
      <trkpt lat="43.80534" lon="7.25634">
        <ele>639</ele>
        <time>2010-12-26T14:05:07Z</time>
      </trkpt>
      <trkpt lat="43.80532" lon="7.25639">
        <ele>639</ele>
        <time>2010-12-26T14:05:08Z</time>
      </trkpt>
      <trkpt lat="43.80528" lon="7.25654">
        <ele>637</ele>
        <time>2010-12-26T14:05:10Z</time>
      </trkpt>
      <trkpt lat="43.80525" lon="7.2567">
        <ele>637</ele>
        <time>2010-12-26T14:05:12Z</time>
      </trkpt>
      <trkpt lat="43.80521" lon="7.25685">
        <ele>636</ele>
        <time>2010-12-26T14:05:14Z</time>
      </trkpt>
      <trkpt lat="43.80517" lon="7.25699">
        <ele>635</ele>
        <time>2010-12-26T14:05:17Z</time>
      </trkpt>
      <trkpt lat="43.80511" lon="7.25713">
        <ele>635</ele>
        <time>2010-12-26T14:05:19Z</time>
      </trkpt>
      <trkpt lat="43.80504" lon="7.25726">
        <ele>634</ele>
        <time>2010-12-26T14:05:21Z</time>
      </trkpt>
      <trkpt lat="43.80495" lon="7.25738">
        <ele>633</ele>
        <time>2010-12-26T14:05:23Z</time>
      </trkpt>
      <trkpt lat="43.80485" lon="7.25745">
        <ele>631</ele>
        <time>2010-12-26T14:05:25Z</time>
      </trkpt>
      <trkpt lat="43.80474" lon="7.2575">
        <ele>630</ele>
        <time>2010-12-26T14:05:27Z</time>
      </trkpt>
      <trkpt lat="43.80462" lon="7.25752">
        <ele>630</ele>
        <time>2010-12-26T14:05:30Z</time>
      </trkpt>
      <trkpt lat="43.8045" lon="7.25751">
        <ele>630</ele>
        <time>2010-12-26T14:05:32Z</time>
      </trkpt>
      <trkpt lat="43.80439" lon="7.25749">
        <ele>631</ele>
        <time>2010-12-26T14:05:34Z</time>
      </trkpt>
      <trkpt lat="43.80427" lon="7.25748">
        <ele>631</ele>
        <time>2010-12-26T14:05:36Z</time>
      </trkpt>
      <trkpt lat="43.80414" lon="7.25747">
        <ele>631</ele>
        <time>2010-12-26T14:05:39Z</time>
      </trkpt>
      <trkpt lat="43.80401" lon="7.25746">
        <ele>631</ele>
        <time>2010-12-26T14:05:41Z</time>
      </trkpt>
      <trkpt lat="43.80391" lon="7.25744">
        <ele>630</ele>
        <time>2010-12-26T14:05:42Z</time>
      </trkpt>
      <trkpt lat="43.80382" lon="7.25742">
        <ele>630</ele>
        <time>2010-12-26T14:05:44Z</time>
      </trkpt>
      <trkpt lat="43.80372" lon="7.2574">
        <ele>629</ele>
        <time>2010-12-26T14:05:45Z</time>
      </trkpt>
      <trkpt lat="43.80361" lon="7.25739">
        <ele>629</ele>
        <time>2010-12-26T14:05:46Z</time>
      </trkpt>
      <trkpt lat="43.80351" lon="7.25739">
        <ele>629</ele>
        <time>2010-12-26T14:05:48Z</time>
      </trkpt>
      <trkpt lat="43.80342" lon="7.25739">
        <ele>629</ele>
        <time>2010-12-26T14:05:49Z</time>
      </trkpt>
      <trkpt lat="43.80327" lon="7.25739">
        <ele>628</ele>
        <time>2010-12-26T14:05:51Z</time>
      </trkpt>
      <trkpt lat="43.80312" lon="7.25739">
        <ele>628</ele>
        <time>2010-12-26T14:05:54Z</time>
      </trkpt>
      <trkpt lat="43.803" lon="7.25738">
        <ele>628</ele>
        <time>2010-12-26T14:05:55Z</time>
      </trkpt>
      <trkpt lat="43.80289" lon="7.25737">
        <ele>628</ele>
        <time>2010-12-26T14:05:56Z</time>
      </trkpt>
      <trkpt lat="43.80279" lon="7.25734">
        <ele>628</ele>
        <time>2010-12-26T14:05:58Z</time>
      </trkpt>
      <trkpt lat="43.80268" lon="7.25722">
        <ele>627</ele>
        <time>2010-12-26T14:06:00Z</time>
      </trkpt>
      <trkpt lat="43.80261" lon="7.25706">
        <ele>627</ele>
        <time>2010-12-26T14:06:02Z</time>
      </trkpt>
      <trkpt lat="43.80259" lon="7.25692">
        <ele>626</ele>
        <time>2010-12-26T14:06:04Z</time>
      </trkpt>
      <trkpt lat="43.8026" lon="7.25675">
        <ele>625</ele>
        <time>2010-12-26T14:06:06Z</time>
      </trkpt>
      <trkpt lat="43.80258" lon="7.2566">
        <ele>625</ele>
        <time>2010-12-26T14:06:08Z</time>
      </trkpt>
      <trkpt lat="43.80257" lon="7.25644">
        <ele>624</ele>
        <time>2010-12-26T14:06:10Z</time>
      </trkpt>
      <trkpt lat="43.80256" lon="7.25634">
        <ele>624</ele>
        <time>2010-12-26T14:06:12Z</time>
      </trkpt>
      <trkpt lat="43.80254" lon="7.25618">
        <ele>623</ele>
        <time>2010-12-26T14:06:14Z</time>
      </trkpt>
      <trkpt lat="43.80251" lon="7.25603">
        <ele>622</ele>
        <time>2010-12-26T14:06:16Z</time>
      </trkpt>
      <trkpt lat="43.80248" lon="7.25587">
        <ele>622</ele>
        <time>2010-12-26T14:06:18Z</time>
      </trkpt>
      <trkpt lat="43.80245" lon="7.2557">
        <ele>622</ele>
        <time>2010-12-26T14:06:20Z</time>
      </trkpt>
      <trkpt lat="43.8024" lon="7.25554">
        <ele>622</ele>
        <time>2010-12-26T14:06:22Z</time>
      </trkpt>
      <trkpt lat="43.80234" lon="7.25539">
        <ele>622</ele>
        <time>2010-12-26T14:06:24Z</time>
      </trkpt>
      <trkpt lat="43.80224" lon="7.25534">
        <ele>621</ele>
        <time>2010-12-26T14:06:28Z</time>
      </trkpt>
      <trkpt lat="43.80215" lon="7.25537">
        <ele>620</ele>
        <time>2010-12-26T14:06:31Z</time>
      </trkpt>
      <trkpt lat="43.80204" lon="7.25544">
        <ele>620</ele>
        <time>2010-12-26T14:06:34Z</time>
      </trkpt>
      <trkpt lat="43.80193" lon="7.25552">
        <ele>619</ele>
        <time>2010-12-26T14:06:37Z</time>
      </trkpt>
      <trkpt lat="43.80191" lon="7.25553">
        <ele>619</ele>
        <time>2010-12-26T14:06:37Z</time>
      </trkpt>
      <trkpt lat="43.80182" lon="7.25563">
        <ele>619</ele>
        <time>2010-12-26T14:06:40Z</time>
      </trkpt>
      <trkpt lat="43.80172" lon="7.25577">
        <ele>620</ele>
        <time>2010-12-26T14:06:43Z</time>
      </trkpt>
      <trkpt lat="43.80166" lon="7.25589">
        <ele>620</ele>
        <time>2010-12-26T14:06:45Z</time>
      </trkpt>
      <trkpt lat="43.80159" lon="7.25598">
        <ele>620</ele>
        <time>2010-12-26T14:06:46Z</time>
      </trkpt>
      <trkpt lat="43.80153" lon="7.25607">
        <ele>619</ele>
        <time>2010-12-26T14:06:48Z</time>
      </trkpt>
      <trkpt lat="43.80145" lon="7.25615">
        <ele>618</ele>
        <time>2010-12-26T14:06:49Z</time>
      </trkpt>
      <trkpt lat="43.80138" lon="7.25623">
        <ele>617</ele>
        <time>2010-12-26T14:06:51Z</time>
      </trkpt>
      <trkpt lat="43.8013" lon="7.2563">
        <ele>617</ele>
        <time>2010-12-26T14:06:52Z</time>
      </trkpt>
      <trkpt lat="43.80123" lon="7.25638">
        <ele>616</ele>
        <time>2010-12-26T14:06:54Z</time>
      </trkpt>
      <trkpt lat="43.80112" lon="7.25649">
        <ele>614</ele>
        <time>2010-12-26T14:06:56Z</time>
      </trkpt>
      <trkpt lat="43.80104" lon="7.25656">
        <ele>614</ele>
        <time>2010-12-26T14:06:57Z</time>
      </trkpt>
      <trkpt lat="43.80092" lon="7.25664">
        <ele>614</ele>
        <time>2010-12-26T14:06:59Z</time>
      </trkpt>
      <trkpt lat="43.8008" lon="7.25668">
        <ele>614</ele>
        <time>2010-12-26T14:07:02Z</time>
      </trkpt>
      <trkpt lat="43.80069" lon="7.25671">
        <ele>615</ele>
        <time>2010-12-26T14:07:04Z</time>
      </trkpt>
      <trkpt lat="43.80058" lon="7.25676">
        <ele>615</ele>
        <time>2010-12-26T14:07:06Z</time>
      </trkpt>
      <trkpt lat="43.8005" lon="7.25669">
        <ele>614</ele>
        <time>2010-12-26T14:07:07Z</time>
      </trkpt>
      <trkpt lat="43.80043" lon="7.25657">
        <ele>613</ele>
        <time>2010-12-26T14:07:09Z</time>
      </trkpt>
      <trkpt lat="43.80035" lon="7.25645">
        <ele>612</ele>
        <time>2010-12-26T14:07:10Z</time>
      </trkpt>
      <trkpt lat="43.80029" lon="7.25634">
        <ele>612</ele>
        <time>2010-12-26T14:07:12Z</time>
      </trkpt>
      <trkpt lat="43.80022" lon="7.25624">
        <ele>611</ele>
        <time>2010-12-26T14:07:13Z</time>
      </trkpt>
      <trkpt lat="43.80014" lon="7.25602">
        <ele>611</ele>
        <time>2010-12-26T14:07:16Z</time>
      </trkpt>
      <trkpt lat="43.8001" lon="7.25585">
        <ele>611</ele>
        <time>2010-12-26T14:07:18Z</time>
      </trkpt>
      <trkpt lat="43.80006" lon="7.2557">
        <ele>610</ele>
        <time>2010-12-26T14:07:19Z</time>
      </trkpt>
      <trkpt lat="43.80001" lon="7.25556">
        <ele>610</ele>
        <time>2010-12-26T14:07:21Z</time>
      </trkpt>
      <trkpt lat="43.79997" lon="7.25542">
        <ele>611</ele>
        <time>2010-12-26T14:07:24Z</time>
      </trkpt>
      <trkpt lat="43.79993" lon="7.2553">
        <ele>612</ele>
        <time>2010-12-26T14:07:26Z</time>
      </trkpt>
      <trkpt lat="43.79987" lon="7.25545">
        <ele>613</ele>
        <time>2010-12-26T14:07:32Z</time>
      </trkpt>
      <trkpt lat="43.79969" lon="7.25588">
        <ele>614</ele>
        <time>2010-12-26T14:07:36Z</time>
      </trkpt>
      <trkpt lat="43.79963" lon="7.25604">
        <ele>613</ele>
        <time>2010-12-26T14:07:38Z</time>
      </trkpt>
      <trkpt lat="43.79956" lon="7.25618">
        <ele>613</ele>
        <time>2010-12-26T14:07:39Z</time>
      </trkpt>
      <trkpt lat="43.79947" lon="7.25639">
        <ele>613</ele>
        <time>2010-12-26T14:07:40Z</time>
      </trkpt>
      <trkpt lat="43.7994" lon="7.25666">
        <ele>612</ele>
        <time>2010-12-26T14:07:43Z</time>
      </trkpt>
      <trkpt lat="43.79935" lon="7.25693">
        <ele>612</ele>
        <time>2010-12-26T14:07:45Z</time>
      </trkpt>
      <trkpt lat="43.79932" lon="7.25716">
        <ele>611</ele>
        <time>2010-12-26T14:07:47Z</time>
      </trkpt>
      <trkpt lat="43.79926" lon="7.25733">
        <ele>610</ele>
        <time>2010-12-26T14:07:49Z</time>
      </trkpt>
      <trkpt lat="43.79917" lon="7.25751">
        <ele>609</ele>
        <time>2010-12-26T14:07:51Z</time>
      </trkpt>
      <trkpt lat="43.79906" lon="7.25771">
        <ele>607</ele>
        <time>2010-12-26T14:07:54Z</time>
      </trkpt>
      <trkpt lat="43.79896" lon="7.25789">
        <ele>606</ele>
        <time>2010-12-26T14:07:56Z</time>
      </trkpt>
      <trkpt lat="43.79889" lon="7.25799">
        <ele>604</ele>
        <time>2010-12-26T14:07:57Z</time>
      </trkpt>
      <trkpt lat="43.79882" lon="7.2581">
        <ele>600</ele>
        <time>2010-12-26T14:08:00Z</time>
      </trkpt>
      <trkpt lat="43.79881" lon="7.25826">
        <ele>596</ele>
        <time>2010-12-26T14:08:03Z</time>
      </trkpt>
      <trkpt lat="43.79881" lon="7.25838">
        <ele>594</ele>
        <time>2010-12-26T14:08:05Z</time>
      </trkpt>
      <trkpt lat="43.79882" lon="7.25863">
        <ele>594</ele>
        <time>2010-12-26T14:08:09Z</time>
      </trkpt>
      <trkpt lat="43.79887" lon="7.25881">
        <ele>594</ele>
        <time>2010-12-26T14:08:14Z</time>
      </trkpt>
      <trkpt lat="43.79901" lon="7.25885">
        <ele>593</ele>
        <time>2010-12-26T14:08:18Z</time>
      </trkpt>
      <trkpt lat="43.7991" lon="7.2587">
        <ele>592</ele>
        <time>2010-12-26T14:08:22Z</time>
      </trkpt>
      <trkpt lat="43.79914" lon="7.25859">
        <ele>590</ele>
        <time>2010-12-26T14:08:25Z</time>
      </trkpt>
      <trkpt lat="43.79918" lon="7.25848">
        <ele>588</ele>
        <time>2010-12-26T14:08:28Z</time>
      </trkpt>
      <trkpt lat="43.79929" lon="7.25853">
        <ele>584</ele>
        <time>2010-12-26T14:08:41Z</time>
      </trkpt>
      <trkpt lat="43.79929" lon="7.25872">
        <ele>582</ele>
        <time>2010-12-26T14:08:45Z</time>
      </trkpt>
      <trkpt lat="43.7993" lon="7.25886">
        <ele>581</ele>
        <time>2010-12-26T14:08:47Z</time>
      </trkpt>
      <trkpt lat="43.79932" lon="7.25901">
        <ele>579</ele>
        <time>2010-12-26T14:08:49Z</time>
      </trkpt>
      <trkpt lat="43.79933" lon="7.25915">
        <ele>577</ele>
        <time>2010-12-26T14:08:51Z</time>
      </trkpt>
      <trkpt lat="43.79934" lon="7.25928">
        <ele>576</ele>
        <time>2010-12-26T14:08:54Z</time>
      </trkpt>
      <trkpt lat="43.79938" lon="7.2594">
        <ele>574</ele>
        <time>2010-12-26T14:08:56Z</time>
      </trkpt>
      <trkpt lat="43.79943" lon="7.25951">
        <ele>573</ele>
        <time>2010-12-26T14:08:58Z</time>
      </trkpt>
      <trkpt lat="43.7995" lon="7.25975">
        <ele>569</ele>
        <time>2010-12-26T14:09:02Z</time>
      </trkpt>
      <trkpt lat="43.79952" lon="7.2599">
        <ele>567</ele>
        <time>2010-12-26T14:09:04Z</time>
      </trkpt>
      <trkpt lat="43.79956" lon="7.26009">
        <ele>566</ele>
        <time>2010-12-26T14:09:06Z</time>
      </trkpt>
      <trkpt lat="43.79963" lon="7.26024">
        <ele>564</ele>
        <time>2010-12-26T14:09:09Z</time>
      </trkpt>
      <trkpt lat="43.79968" lon="7.26036">
        <ele>562</ele>
        <time>2010-12-26T14:09:11Z</time>
      </trkpt>
      <trkpt lat="43.79972" lon="7.26056">
        <ele>559</ele>
        <time>2010-12-26T14:09:15Z</time>
      </trkpt>
      <trkpt lat="43.79973" lon="7.26073">
        <ele>556</ele>
        <time>2010-12-26T14:09:19Z</time>
      </trkpt>
      <trkpt lat="43.79973" lon="7.26112">
        <ele>550</ele>
        <time>2010-12-26T14:09:47Z</time>
      </trkpt>
      <trkpt lat="43.79972" lon="7.26151">
        <ele>548</ele>
        <time>2010-12-26T14:10:05Z</time>
      </trkpt>
      <trkpt lat="43.79971" lon="7.26164">
        <ele>548</ele>
        <time>2010-12-26T14:10:09Z</time>
      </trkpt>
      <trkpt lat="43.79966" lon="7.26201">
        <ele>546</ele>
        <time>2010-12-26T14:10:23Z</time>
      </trkpt>
      <trkpt lat="43.79956" lon="7.26203">
        <ele>546</ele>
        <time>2010-12-26T14:10:40Z</time>
      </trkpt>
      <trkpt lat="43.79943" lon="7.26196">
        <ele>546</ele>
        <time>2010-12-26T14:10:45Z</time>
      </trkpt>
      <trkpt lat="43.79943" lon="7.26196">
        <ele>546</ele>
        <time>2010-12-26T14:10:47Z</time>
      </trkpt>
      <trkpt lat="43.79921" lon="7.26187">
        <ele>546</ele>
        <time>2010-12-26T14:10:52Z</time>
      </trkpt>
      <trkpt lat="43.79908" lon="7.26187">
        <ele>547</ele>
        <time>2010-12-26T14:10:56Z</time>
      </trkpt>
      <trkpt lat="43.79899" lon="7.26189">
        <ele>546</ele>
        <time>2010-12-26T14:10:59Z</time>
      </trkpt>
      <trkpt lat="43.79899" lon="7.26189">
        <ele>546</ele>
        <time>2010-12-26T14:10:59Z</time>
      </trkpt>
      <trkpt lat="43.79871" lon="7.26204">
        <ele>545</ele>
        <time>2010-12-26T14:11:08Z</time>
      </trkpt>
      <trkpt lat="43.79871" lon="7.26204">
        <ele>545</ele>
        <time>2010-12-26T14:11:10Z</time>
      </trkpt>
      <trkpt lat="43.79862" lon="7.26207">
        <ele>544</ele>
        <time>2010-12-26T14:11:11Z</time>
      </trkpt>
      <trkpt lat="43.79852" lon="7.26195">
        <ele>544</ele>
        <time>2010-12-26T14:11:21Z</time>
      </trkpt>
      <trkpt lat="43.79852" lon="7.26195">
        <ele>544</ele>
        <time>2010-12-26T14:11:23Z</time>
      </trkpt>
      <trkpt lat="43.79837" lon="7.26188">
        <ele>545</ele>
        <time>2010-12-26T14:11:30Z</time>
      </trkpt>
      <trkpt lat="43.79827" lon="7.2619">
        <ele>545</ele>
        <time>2010-12-26T14:11:33Z</time>
      </trkpt>
      <trkpt lat="43.79822" lon="7.26192">
        <ele>545</ele>
        <time>2010-12-26T14:11:36Z</time>
      </trkpt>
      <trkpt lat="43.79813" lon="7.26195">
        <ele>543</ele>
        <time>2010-12-26T14:11:40Z</time>
      </trkpt>
      <trkpt lat="43.79803" lon="7.26189">
        <ele>541</ele>
        <time>2010-12-26T14:11:46Z</time>
      </trkpt>
      <trkpt lat="43.79798" lon="7.26179">
        <ele>539</ele>
        <time>2010-12-26T14:11:54Z</time>
      </trkpt>
      <trkpt lat="43.79792" lon="7.26169">
        <ele>536</ele>
        <time>2010-12-26T14:12:00Z</time>
      </trkpt>
      <trkpt lat="43.79786" lon="7.26159">
        <ele>534</ele>
        <time>2010-12-26T14:12:09Z</time>
      </trkpt>
      <trkpt lat="43.79775" lon="7.2613">
        <ele>533</ele>
        <time>2010-12-26T14:12:17Z</time>
      </trkpt>
      <trkpt lat="43.7977" lon="7.26117">
        <ele>533</ele>
        <time>2010-12-26T14:12:20Z</time>
      </trkpt>
      <trkpt lat="43.79765" lon="7.26101">
        <ele>532</ele>
        <time>2010-12-26T14:12:23Z</time>
      </trkpt>
      <trkpt lat="43.79759" lon="7.26085">
        <ele>532</ele>
        <time>2010-12-26T14:12:25Z</time>
      </trkpt>
      <trkpt lat="43.79755" lon="7.26073">
        <ele>531</ele>
        <time>2010-12-26T14:12:27Z</time>
      </trkpt>
      <trkpt lat="43.79751" lon="7.26061">
        <ele>531</ele>
        <time>2010-12-26T14:12:28Z</time>
      </trkpt>
      <trkpt lat="43.79746" lon="7.2605">
        <ele>530</ele>
        <time>2010-12-26T14:12:29Z</time>
      </trkpt>
      <trkpt lat="43.79741" lon="7.26034">
        <ele>529</ele>
        <time>2010-12-26T14:12:32Z</time>
      </trkpt>
      <trkpt lat="43.79735" lon="7.26019">
        <ele>528</ele>
        <time>2010-12-26T14:12:34Z</time>
      </trkpt>
      <trkpt lat="43.7973" lon="7.26006">
        <ele>527</ele>
        <time>2010-12-26T14:12:36Z</time>
      </trkpt>
      <trkpt lat="43.79729" lon="7.26001">
        <ele>527</ele>
        <time>2010-12-26T14:12:37Z</time>
      </trkpt>
      <trkpt lat="43.79724" lon="7.2599">
        <ele>526</ele>
        <time>2010-12-26T14:12:39Z</time>
      </trkpt>
      <trkpt lat="43.7972" lon="7.25979">
        <ele>524</ele>
        <time>2010-12-26T14:12:41Z</time>
      </trkpt>
      <trkpt lat="43.79715" lon="7.25966">
        <ele>523</ele>
        <time>2010-12-26T14:12:44Z</time>
      </trkpt>
      <trkpt lat="43.79711" lon="7.25952">
        <ele>523</ele>
        <time>2010-12-26T14:12:47Z</time>
      </trkpt>
      <trkpt lat="43.79707" lon="7.25934">
        <ele>523</ele>
        <time>2010-12-26T14:12:50Z</time>
      </trkpt>
      <trkpt lat="43.79706" lon="7.25927">
        <ele>523</ele>
        <time>2010-12-26T14:12:52Z</time>
      </trkpt>
      <trkpt lat="43.79704" lon="7.25913">
        <ele>521</ele>
        <time>2010-12-26T14:12:55Z</time>
      </trkpt>
      <trkpt lat="43.79702" lon="7.25898">
        <ele>521</ele>
        <time>2010-12-26T14:12:57Z</time>
      </trkpt>
      <trkpt lat="43.79701" lon="7.25884">
        <ele>521</ele>
        <time>2010-12-26T14:13:00Z</time>
      </trkpt>
      <trkpt lat="43.797" lon="7.2587">
        <ele>522</ele>
        <time>2010-12-26T14:13:03Z</time>
      </trkpt>
      <trkpt lat="43.79701" lon="7.25856">
        <ele>522</ele>
        <time>2010-12-26T14:13:06Z</time>
      </trkpt>
      <trkpt lat="43.79703" lon="7.25842">
        <ele>522</ele>
        <time>2010-12-26T14:13:09Z</time>
      </trkpt>
      <trkpt lat="43.79706" lon="7.25828">
        <ele>522</ele>
        <time>2010-12-26T14:13:12Z</time>
      </trkpt>
      <trkpt lat="43.79711" lon="7.25816">
        <ele>523</ele>
        <time>2010-12-26T14:13:16Z</time>
      </trkpt>
      <trkpt lat="43.79716" lon="7.25803">
        <ele>523</ele>
        <time>2010-12-26T14:13:20Z</time>
      </trkpt>
      <trkpt lat="43.79721" lon="7.2579">
        <ele>524</ele>
        <time>2010-12-26T14:13:23Z</time>
      </trkpt>
      <trkpt lat="43.79726" lon="7.25772">
        <ele>524</ele>
        <time>2010-12-26T14:13:27Z</time>
      </trkpt>
      <trkpt lat="43.7973" lon="7.25753">
        <ele>525</ele>
        <time>2010-12-26T14:13:32Z</time>
      </trkpt>
      <trkpt lat="43.79735" lon="7.25733">
        <ele>525</ele>
        <time>2010-12-26T14:13:36Z</time>
      </trkpt>
      <trkpt lat="43.79738" lon="7.25719">
        <ele>526</ele>
        <time>2010-12-26T14:13:39Z</time>
      </trkpt>
      <trkpt lat="43.79741" lon="7.25704">
        <ele>527</ele>
        <time>2010-12-26T14:13:42Z</time>
      </trkpt>
      <trkpt lat="43.79742" lon="7.25682">
        <ele>527</ele>
        <time>2010-12-26T14:13:46Z</time>
      </trkpt>
      <trkpt lat="43.79739" lon="7.25666">
        <ele>528</ele>
        <time>2010-12-26T14:13:48Z</time>
      </trkpt>
      <trkpt lat="43.79736" lon="7.2565">
        <ele>528</ele>
        <time>2010-12-26T14:13:50Z</time>
      </trkpt>
      <trkpt lat="43.79731" lon="7.25635">
        <ele>528</ele>
        <time>2010-12-26T14:13:52Z</time>
      </trkpt>
      <trkpt lat="43.79728" lon="7.25621">
        <ele>529</ele>
        <time>2010-12-26T14:13:54Z</time>
      </trkpt>
      <trkpt lat="43.79724" lon="7.25609">
        <ele>530</ele>
        <time>2010-12-26T14:13:57Z</time>
      </trkpt>
      <trkpt lat="43.79717" lon="7.25597">
        <ele>530</ele>
        <time>2010-12-26T14:14:01Z</time>
      </trkpt>
      <trkpt lat="43.79707" lon="7.25595">
        <ele>530</ele>
        <time>2010-12-26T14:14:04Z</time>
      </trkpt>
      <trkpt lat="43.79683" lon="7.25616">
        <ele>530</ele>
        <time>2010-12-26T14:14:16Z</time>
      </trkpt>
      <trkpt lat="43.79676" lon="7.25625">
        <ele>530</ele>
        <time>2010-12-26T14:14:20Z</time>
      </trkpt>
      <trkpt lat="43.79667" lon="7.25632">
        <ele>531</ele>
        <time>2010-12-26T14:14:23Z</time>
      </trkpt>
      <trkpt lat="43.79658" lon="7.25639">
        <ele>531</ele>
        <time>2010-12-26T14:14:26Z</time>
      </trkpt>
      <trkpt lat="43.79647" lon="7.25644">
        <ele>531</ele>
        <time>2010-12-26T14:14:29Z</time>
      </trkpt>
      <trkpt lat="43.79638" lon="7.25647">
        <ele>531</ele>
        <time>2010-12-26T14:14:30Z</time>
      </trkpt>
      <trkpt lat="43.79626" lon="7.2565">
        <ele>531</ele>
        <time>2010-12-26T14:14:33Z</time>
      </trkpt>
      <trkpt lat="43.79616" lon="7.25651">
        <ele>531</ele>
        <time>2010-12-26T14:14:35Z</time>
      </trkpt>
      <trkpt lat="43.79606" lon="7.2565">
        <ele>532</ele>
        <time>2010-12-26T14:14:37Z</time>
      </trkpt>
      <trkpt lat="43.79594" lon="7.25646">
        <ele>532</ele>
        <time>2010-12-26T14:14:40Z</time>
      </trkpt>
      <trkpt lat="43.79579" lon="7.25636">
        <ele>532</ele>
        <time>2010-12-26T14:14:44Z</time>
      </trkpt>
      <trkpt lat="43.79568" lon="7.25628">
        <ele>533</ele>
        <time>2010-12-26T14:14:46Z</time>
      </trkpt>
      <trkpt lat="43.7956" lon="7.25621">
        <ele>533</ele>
        <time>2010-12-26T14:14:48Z</time>
      </trkpt>
      <trkpt lat="43.79552" lon="7.25609">
        <ele>533</ele>
        <time>2010-12-26T14:14:51Z</time>
      </trkpt>
      <trkpt lat="43.79543" lon="7.25589">
        <ele>532</ele>
        <time>2010-12-26T14:14:56Z</time>
      </trkpt>
      <trkpt lat="43.79537" lon="7.2557">
        <ele>532</ele>
        <time>2010-12-26T14:15:00Z</time>
      </trkpt>
      <trkpt lat="43.79532" lon="7.25555">
        <ele>533</ele>
        <time>2010-12-26T14:15:03Z</time>
      </trkpt>
      <trkpt lat="43.79527" lon="7.25544">
        <ele>533</ele>
        <time>2010-12-26T14:15:06Z</time>
      </trkpt>
      <trkpt lat="43.79516" lon="7.25536">
        <ele>534</ele>
        <time>2010-12-26T14:15:15Z</time>
      </trkpt>
      <trkpt lat="43.79506" lon="7.25539">
        <ele>534</ele>
        <time>2010-12-26T14:15:22Z</time>
      </trkpt>
      <trkpt lat="43.79487" lon="7.25545">
        <ele>534</ele>
        <time>2010-12-26T14:15:26Z</time>
      </trkpt>
      <trkpt lat="43.79477" lon="7.25547">
        <ele>534</ele>
        <time>2010-12-26T14:15:28Z</time>
      </trkpt>
      <trkpt lat="43.79465" lon="7.25549">
        <ele>534</ele>
        <time>2010-12-26T14:15:30Z</time>
      </trkpt>
      <trkpt lat="43.79449" lon="7.2555">
        <ele>534</ele>
        <time>2010-12-26T14:15:33Z</time>
      </trkpt>
      <trkpt lat="43.79439" lon="7.25549">
        <ele>534</ele>
        <time>2010-12-26T14:15:35Z</time>
      </trkpt>
      <trkpt lat="43.79427" lon="7.25547">
        <ele>534</ele>
        <time>2010-12-26T14:15:37Z</time>
      </trkpt>
      <trkpt lat="43.79411" lon="7.25537">
        <ele>534</ele>
        <time>2010-12-26T14:15:42Z</time>
      </trkpt>
      <trkpt lat="43.79402" lon="7.25532">
        <ele>534</ele>
        <time>2010-12-26T14:15:44Z</time>
      </trkpt>
      <trkpt lat="43.79392" lon="7.25527">
        <ele>534</ele>
        <time>2010-12-26T14:15:46Z</time>
      </trkpt>
      <trkpt lat="43.79384" lon="7.25521">
        <ele>534</ele>
        <time>2010-12-26T14:15:48Z</time>
      </trkpt>
      <trkpt lat="43.79372" lon="7.25514">
        <ele>534</ele>
        <time>2010-12-26T14:15:51Z</time>
      </trkpt>
      <trkpt lat="43.79362" lon="7.25505">
        <ele>533</ele>
        <time>2010-12-26T14:15:54Z</time>
      </trkpt>
      <trkpt lat="43.79352" lon="7.25495">
        <ele>534</ele>
        <time>2010-12-26T14:15:56Z</time>
      </trkpt>
      <trkpt lat="43.79344" lon="7.25487">
        <ele>535</ele>
        <time>2010-12-26T14:15:59Z</time>
      </trkpt>
      <trkpt lat="43.79335" lon="7.25479">
        <ele>535</ele>
        <time>2010-12-26T14:16:01Z</time>
      </trkpt>
      <trkpt lat="43.79329" lon="7.25469">
        <ele>535</ele>
        <time>2010-12-26T14:16:03Z</time>
      </trkpt>
      <trkpt lat="43.79323" lon="7.25457">
        <ele>535</ele>
        <time>2010-12-26T14:16:05Z</time>
      </trkpt>
      <trkpt lat="43.79316" lon="7.25435">
        <ele>535</ele>
        <time>2010-12-26T14:16:10Z</time>
      </trkpt>
      <trkpt lat="43.79313" lon="7.25411">
        <ele>535</ele>
        <time>2010-12-26T14:16:14Z</time>
      </trkpt>
      <trkpt lat="43.79311" lon="7.25395">
        <ele>534</ele>
        <time>2010-12-26T14:16:17Z</time>
      </trkpt>
      <trkpt lat="43.7931" lon="7.25376">
        <ele>534</ele>
        <time>2010-12-26T14:16:20Z</time>
      </trkpt>
      <trkpt lat="43.79308" lon="7.25359">
        <ele>534</ele>
        <time>2010-12-26T14:16:23Z</time>
      </trkpt>
      <trkpt lat="43.79304" lon="7.2534">
        <ele>534</ele>
        <time>2010-12-26T14:16:27Z</time>
      </trkpt>
      <trkpt lat="43.79299" lon="7.25324">
        <ele>534</ele>
        <time>2010-12-26T14:16:30Z</time>
      </trkpt>
      <trkpt lat="43.79293" lon="7.25312">
        <ele>534</ele>
        <time>2010-12-26T14:16:34Z</time>
      </trkpt>
      <trkpt lat="43.79284" lon="7.25307">
        <ele>535</ele>
        <time>2010-12-26T14:16:37Z</time>
      </trkpt>
      <trkpt lat="43.79275" lon="7.25304">
        <ele>535</ele>
        <time>2010-12-26T14:16:39Z</time>
      </trkpt>
      <trkpt lat="43.79262" lon="7.25306">
        <ele>537</ele>
        <time>2010-12-26T14:16:43Z</time>
      </trkpt>
      <trkpt lat="43.7925" lon="7.25311">
        <ele>538</ele>
        <time>2010-12-26T14:16:46Z</time>
      </trkpt>
      <trkpt lat="43.79238" lon="7.25318">
        <ele>539</ele>
        <time>2010-12-26T14:16:50Z</time>
      </trkpt>
      <trkpt lat="43.79228" lon="7.25325">
        <ele>540</ele>
        <time>2010-12-26T14:16:52Z</time>
      </trkpt>
      <trkpt lat="43.79218" lon="7.25332">
        <ele>541</ele>
        <time>2010-12-26T14:16:55Z</time>
      </trkpt>
      <trkpt lat="43.79209" lon="7.25339">
        <ele>541</ele>
        <time>2010-12-26T14:16:58Z</time>
      </trkpt>
      <trkpt lat="43.792" lon="7.25346">
        <ele>542</ele>
        <time>2010-12-26T14:17:01Z</time>
      </trkpt>
      <trkpt lat="43.79191" lon="7.25351">
        <ele>542</ele>
        <time>2010-12-26T14:17:04Z</time>
      </trkpt>
      <trkpt lat="43.7918" lon="7.25357">
        <ele>542</ele>
        <time>2010-12-26T14:17:07Z</time>
      </trkpt>
      <trkpt lat="43.79167" lon="7.25362">
        <ele>542</ele>
        <time>2010-12-26T14:17:12Z</time>
      </trkpt>
      <trkpt lat="43.79152" lon="7.25365">
        <ele>542</ele>
        <time>2010-12-26T14:17:16Z</time>
      </trkpt>
      <trkpt lat="43.79137" lon="7.25367">
        <ele>542</ele>
        <time>2010-12-26T14:17:20Z</time>
      </trkpt>
      <trkpt lat="43.79127" lon="7.25367">
        <ele>542</ele>
        <time>2010-12-26T14:17:22Z</time>
      </trkpt>
      <trkpt lat="43.79116" lon="7.25367">
        <ele>542</ele>
        <time>2010-12-26T14:17:25Z</time>
      </trkpt>
      <trkpt lat="43.79107" lon="7.25366">
        <ele>542</ele>
        <time>2010-12-26T14:17:27Z</time>
      </trkpt>
      <trkpt lat="43.79096" lon="7.25365">
        <ele>543</ele>
        <time>2010-12-26T14:17:30Z</time>
      </trkpt>
      <trkpt lat="43.7908" lon="7.25364">
        <ele>543</ele>
        <time>2010-12-26T14:17:34Z</time>
      </trkpt>
      <trkpt lat="43.7907" lon="7.25369">
        <ele>542</ele>
        <time>2010-12-26T14:17:38Z</time>
      </trkpt>
      <trkpt lat="43.7906" lon="7.25367">
        <ele>542</ele>
        <time>2010-12-26T14:17:42Z</time>
      </trkpt>
      <trkpt lat="43.79049" lon="7.25365">
        <ele>542</ele>
        <time>2010-12-26T14:17:44Z</time>
      </trkpt>
      <trkpt lat="43.79039" lon="7.25363">
        <ele>542</ele>
        <time>2010-12-26T14:17:46Z</time>
      </trkpt>
      <trkpt lat="43.79029" lon="7.25361">
        <ele>542</ele>
        <time>2010-12-26T14:17:48Z</time>
      </trkpt>
      <trkpt lat="43.79017" lon="7.25358">
        <ele>542</ele>
        <time>2010-12-26T14:17:51Z</time>
      </trkpt>
      <trkpt lat="43.79002" lon="7.25352">
        <ele>542</ele>
        <time>2010-12-26T14:17:54Z</time>
      </trkpt>
      <trkpt lat="43.78993" lon="7.25347">
        <ele>542</ele>
        <time>2010-12-26T14:17:56Z</time>
      </trkpt>
      <trkpt lat="43.78985" lon="7.25342">
        <ele>542</ele>
        <time>2010-12-26T14:17:59Z</time>
      </trkpt>
      <trkpt lat="43.78976" lon="7.25337">
        <ele>541</ele>
        <time>2010-12-26T14:18:01Z</time>
      </trkpt>
      <trkpt lat="43.78964" lon="7.25327">
        <ele>541</ele>
        <time>2010-12-26T14:18:04Z</time>
      </trkpt>
      <trkpt lat="43.78952" lon="7.25314">
        <ele>540</ele>
        <time>2010-12-26T14:18:08Z</time>
      </trkpt>
      <trkpt lat="43.78944" lon="7.25305">
        <ele>540</ele>
        <time>2010-12-26T14:18:13Z</time>
      </trkpt>
      <trkpt lat="43.78934" lon="7.2529">
        <ele>539</ele>
        <time>2010-12-26T14:18:17Z</time>
      </trkpt>
      <trkpt lat="43.78928" lon="7.25278">
        <ele>540</ele>
        <time>2010-12-26T14:18:20Z</time>
      </trkpt>
      <trkpt lat="43.7892" lon="7.25262">
        <ele>540</ele>
        <time>2010-12-26T14:18:24Z</time>
      </trkpt>
      <trkpt lat="43.78913" lon="7.25253">
        <ele>540</ele>
        <time>2010-12-26T14:18:27Z</time>
      </trkpt>
      <trkpt lat="43.78905" lon="7.25244">
        <ele>541</ele>
        <time>2010-12-26T14:18:30Z</time>
      </trkpt>
      <trkpt lat="43.78895" lon="7.25237">
        <ele>541</ele>
        <time>2010-12-26T14:18:33Z</time>
      </trkpt>
      <trkpt lat="43.78885" lon="7.25234">
        <ele>541</ele>
        <time>2010-12-26T14:18:36Z</time>
      </trkpt>
      <trkpt lat="43.78871" lon="7.25231">
        <ele>542</ele>
        <time>2010-12-26T14:18:40Z</time>
      </trkpt>
      <trkpt lat="43.7886" lon="7.2523">
        <ele>542</ele>
        <time>2010-12-26T14:18:43Z</time>
      </trkpt>
      <trkpt lat="43.7885" lon="7.25228">
        <ele>543</ele>
        <time>2010-12-26T14:18:46Z</time>
      </trkpt>
      <trkpt lat="43.78841" lon="7.25223">
        <ele>543</ele>
        <time>2010-12-26T14:18:50Z</time>
      </trkpt>
      <trkpt lat="43.7883" lon="7.25217">
        <ele>544</ele>
        <time>2010-12-26T14:18:54Z</time>
      </trkpt>
      <trkpt lat="43.7882" lon="7.25213">
        <ele>544</ele>
        <time>2010-12-26T14:18:56Z</time>
      </trkpt>
      <trkpt lat="43.78805" lon="7.2521">
        <ele>545</ele>
        <time>2010-12-26T14:19:01Z</time>
      </trkpt>
      <trkpt lat="43.7879" lon="7.2521">
        <ele>546</ele>
        <time>2010-12-26T14:19:05Z</time>
      </trkpt>
      <trkpt lat="43.78774" lon="7.25214">
        <ele>547</ele>
        <time>2010-12-26T14:19:09Z</time>
      </trkpt>
      <trkpt lat="43.7876" lon="7.25222">
        <ele>547</ele>
        <time>2010-12-26T14:19:13Z</time>
      </trkpt>
      <trkpt lat="43.78752" lon="7.25229">
        <ele>548</ele>
        <time>2010-12-26T14:19:15Z</time>
      </trkpt>
      <trkpt lat="43.78741" lon="7.25238">
        <ele>549</ele>
        <time>2010-12-26T14:19:18Z</time>
      </trkpt>
      <trkpt lat="43.78726" lon="7.25249">
        <ele>549</ele>
        <time>2010-12-26T14:19:22Z</time>
      </trkpt>
      <trkpt lat="43.78711" lon="7.25256">
        <ele>549</ele>
        <time>2010-12-26T14:19:27Z</time>
      </trkpt>
      <trkpt lat="43.78703" lon="7.25261">
        <ele>549</ele>
        <time>2010-12-26T14:19:31Z</time>
      </trkpt>
      <trkpt lat="43.78691" lon="7.25264">
        <ele>550</ele>
        <time>2010-12-26T14:19:34Z</time>
      </trkpt>
      <trkpt lat="43.78682" lon="7.25262">
        <ele>551</ele>
        <time>2010-12-26T14:19:37Z</time>
      </trkpt>
      <trkpt lat="43.78672" lon="7.2526">
        <ele>553</ele>
        <time>2010-12-26T14:19:40Z</time>
      </trkpt>
      <trkpt lat="43.7866" lon="7.25258">
        <ele>554</ele>
        <time>2010-12-26T14:19:44Z</time>
      </trkpt>
      <trkpt lat="43.78648" lon="7.25256">
        <ele>554</ele>
        <time>2010-12-26T14:19:48Z</time>
      </trkpt>
      <trkpt lat="43.78636" lon="7.25257">
        <ele>554</ele>
        <time>2010-12-26T14:19:51Z</time>
      </trkpt>
      <trkpt lat="43.78626" lon="7.25256">
        <ele>554</ele>
        <time>2010-12-26T14:19:54Z</time>
      </trkpt>
      <trkpt lat="43.78615" lon="7.25256">
        <ele>554</ele>
        <time>2010-12-26T14:19:58Z</time>
      </trkpt>
      <trkpt lat="43.78603" lon="7.25256">
        <ele>555</ele>
        <time>2010-12-26T14:20:01Z</time>
      </trkpt>
      <trkpt lat="43.78589" lon="7.25256">
        <ele>555</ele>
        <time>2010-12-26T14:20:05Z</time>
      </trkpt>
      <trkpt lat="43.78574" lon="7.25256">
        <ele>556</ele>
        <time>2010-12-26T14:20:08Z</time>
      </trkpt>
      <trkpt lat="43.78561" lon="7.25257">
        <ele>556</ele>
        <time>2010-12-26T14:20:11Z</time>
      </trkpt>
      <trkpt lat="43.78551" lon="7.25259">
        <ele>556</ele>
        <time>2010-12-26T14:20:13Z</time>
      </trkpt>
      <trkpt lat="43.7854" lon="7.2526">
        <ele>556</ele>
        <time>2010-12-26T14:20:16Z</time>
      </trkpt>
      <trkpt lat="43.78526" lon="7.25262">
        <ele>556</ele>
        <time>2010-12-26T14:20:20Z</time>
      </trkpt>
      <trkpt lat="43.78515" lon="7.25264">
        <ele>556</ele>
        <time>2010-12-26T14:20:23Z</time>
      </trkpt>
      <trkpt lat="43.78505" lon="7.25267">
        <ele>556</ele>
        <time>2010-12-26T14:20:26Z</time>
      </trkpt>
      <trkpt lat="43.78496" lon="7.2527">
        <ele>556</ele>
        <time>2010-12-26T14:20:30Z</time>
      </trkpt>
      <trkpt lat="43.7848" lon="7.25276">
        <ele>556</ele>
        <time>2010-12-26T14:20:35Z</time>
      </trkpt>
      <trkpt lat="43.78465" lon="7.25282">
        <ele>556</ele>
        <time>2010-12-26T14:20:39Z</time>
      </trkpt>
      <trkpt lat="43.78454" lon="7.25288">
        <ele>556</ele>
        <time>2010-12-26T14:20:42Z</time>
      </trkpt>
      <trkpt lat="43.78445" lon="7.25292">
        <ele>557</ele>
        <time>2010-12-26T14:20:44Z</time>
      </trkpt>
      <trkpt lat="43.78435" lon="7.25297">
        <ele>557</ele>
        <time>2010-12-26T14:20:46Z</time>
      </trkpt>
      <trkpt lat="43.78424" lon="7.25301">
        <ele>557</ele>
        <time>2010-12-26T14:20:49Z</time>
      </trkpt>
      <trkpt lat="43.78412" lon="7.25306">
        <ele>558</ele>
        <time>2010-12-26T14:20:52Z</time>
      </trkpt>
      <trkpt lat="43.78401" lon="7.25311">
        <ele>558</ele>
        <time>2010-12-26T14:20:55Z</time>
      </trkpt>
      <trkpt lat="43.78391" lon="7.25317">
        <ele>558</ele>
        <time>2010-12-26T14:20:58Z</time>
      </trkpt>
      <trkpt lat="43.7838" lon="7.25323">
        <ele>558</ele>
        <time>2010-12-26T14:21:01Z</time>
      </trkpt>
      <trkpt lat="43.7837" lon="7.25329">
        <ele>558</ele>
        <time>2010-12-26T14:21:03Z</time>
      </trkpt>
      <trkpt lat="43.78362" lon="7.25334">
        <ele>559</ele>
        <time>2010-12-26T14:21:05Z</time>
      </trkpt>
      <trkpt lat="43.78354" lon="7.2534">
        <ele>560</ele>
        <time>2010-12-26T14:21:08Z</time>
      </trkpt>
      <trkpt lat="43.78339" lon="7.25351">
        <ele>560</ele>
        <time>2010-12-26T14:21:12Z</time>
      </trkpt>
      <trkpt lat="43.78325" lon="7.25363">
        <ele>561</ele>
        <time>2010-12-26T14:21:16Z</time>
      </trkpt>
      <trkpt lat="43.78315" lon="7.25371">
        <ele>563</ele>
        <time>2010-12-26T14:21:20Z</time>
      </trkpt>
      <trkpt lat="43.78305" lon="7.2538">
        <ele>564</ele>
        <time>2010-12-26T14:21:23Z</time>
      </trkpt>
      <trkpt lat="43.78294" lon="7.25388">
        <ele>564</ele>
        <time>2010-12-26T14:21:27Z</time>
      </trkpt>
      <trkpt lat="43.78282" lon="7.25396">
        <ele>564</ele>
        <time>2010-12-26T14:21:31Z</time>
      </trkpt>
      <trkpt lat="43.7827" lon="7.25402">
        <ele>565</ele>
        <time>2010-12-26T14:21:34Z</time>
      </trkpt>
      <trkpt lat="43.78246" lon="7.25388">
        <ele>566</ele>
        <time>2010-12-26T14:21:46Z</time>
      </trkpt>
      <trkpt lat="43.78238" lon="7.25379">
        <ele>567</ele>
        <time>2010-12-26T14:21:47Z</time>
      </trkpt>
      <trkpt lat="43.78229" lon="7.2537">
        <ele>567</ele>
        <time>2010-12-26T14:21:49Z</time>
      </trkpt>
      <trkpt lat="43.78221" lon="7.25361">
        <ele>568</ele>
        <time>2010-12-26T14:21:51Z</time>
      </trkpt>
      <trkpt lat="43.78214" lon="7.25346">
        <ele>567</ele>
        <time>2010-12-26T14:21:56Z</time>
      </trkpt>
      <trkpt lat="43.78209" lon="7.25326">
        <ele>568</ele>
        <time>2010-12-26T14:22:00Z</time>
      </trkpt>
      <trkpt lat="43.78205" lon="7.25311">
        <ele>568</ele>
        <time>2010-12-26T14:22:03Z</time>
      </trkpt>
      <trkpt lat="43.78198" lon="7.25297">
        <ele>569</ele>
        <time>2010-12-26T14:22:09Z</time>
      </trkpt>
      <trkpt lat="43.78177" lon="7.25263">
        <ele>570</ele>
        <time>2010-12-26T14:22:26Z</time>
      </trkpt>
      <trkpt lat="43.78171" lon="7.25254">
        <ele>570</ele>
        <time>2010-12-26T14:22:31Z</time>
      </trkpt>
      <trkpt lat="43.78165" lon="7.2524">
        <ele>571</ele>
        <time>2010-12-26T14:22:38Z</time>
      </trkpt>
      <trkpt lat="43.78159" lon="7.25229">
        <ele>574</ele>
        <time>2010-12-26T14:22:46Z</time>
      </trkpt>
      <trkpt lat="43.78198" lon="7.25247">
        <ele>589</ele>
        <time>2010-12-26T14:29:39Z</time>
      </trkpt>
      <trkpt lat="43.78198" lon="7.25247">
        <ele>589</ele>
        <time>2010-12-26T14:29:42Z</time>
      </trkpt>
      <trkpt lat="43.78227" lon="7.25237">
        <ele>588</ele>
        <time>2010-12-26T14:29:46Z</time>
      </trkpt>
      <trkpt lat="43.78253" lon="7.25214">
        <ele>588</ele>
        <time>2010-12-26T14:29:52Z</time>
      </trkpt>
      <trkpt lat="43.78295" lon="7.25164">
        <ele>588</ele>
        <time>2010-12-26T14:30:03Z</time>
      </trkpt>
      <trkpt lat="43.78348" lon="7.25077">
        <ele>587</ele>
        <time>2010-12-26T14:30:19Z</time>
      </trkpt>
      <trkpt lat="43.78364" lon="7.24999">
        <ele>586</ele>
        <time>2010-12-26T14:30:23Z</time>
      </trkpt>
      <trkpt lat="43.78374" lon="7.2493">
        <ele>585</ele>
        <time>2010-12-26T14:30:25Z</time>
      </trkpt>
      <trkpt lat="43.78381" lon="7.2485">
        <ele>584</ele>
        <time>2010-12-26T14:30:30Z</time>
      </trkpt>
      <trkpt lat="43.78385" lon="7.2477">
        <ele>584</ele>
        <time>2010-12-26T14:30:34Z</time>
      </trkpt>
      <trkpt lat="43.78395" lon="7.24704">
        <ele>584</ele>
        <time>2010-12-26T14:30:36Z</time>
      </trkpt>
      <trkpt lat="43.7841" lon="7.24631">
        <ele>584</ele>
        <time>2010-12-26T14:30:40Z</time>
      </trkpt>
      <trkpt lat="43.78418" lon="7.2462">
        <ele>584</ele>
        <time>2010-12-26T14:30:42Z</time>
      </trkpt>
      <trkpt lat="43.78426" lon="7.24608">
        <ele>584</ele>
        <time>2010-12-26T14:30:44Z</time>
      </trkpt>
      <trkpt lat="43.78433" lon="7.24597">
        <ele>584</ele>
        <time>2010-12-26T14:30:46Z</time>
      </trkpt>
      <trkpt lat="43.7844" lon="7.24582">
        <ele>584</ele>
        <time>2010-12-26T14:30:48Z</time>
      </trkpt>
      <trkpt lat="43.78446" lon="7.24564">
        <ele>583</ele>
        <time>2010-12-26T14:30:50Z</time>
      </trkpt>
      <trkpt lat="43.78452" lon="7.2455">
        <ele>583</ele>
        <time>2010-12-26T14:30:52Z</time>
      </trkpt>
      <trkpt lat="43.78458" lon="7.24537">
        <ele>583</ele>
        <time>2010-12-26T14:30:55Z</time>
      </trkpt>
      <trkpt lat="43.78361" lon="7.24597">
        <ele>582</ele>
        <time>2010-12-26T14:31:42Z</time>
      </trkpt>
      <trkpt lat="43.78263" lon="7.24617">
        <ele>580</ele>
        <time>2010-12-26T14:31:52Z</time>
      </trkpt>
      <trkpt lat="43.78167" lon="7.24552">
        <ele>578</ele>
        <time>2010-12-26T14:32:00Z</time>
      </trkpt>
      <trkpt lat="43.78095" lon="7.24509">
        <ele>575</ele>
        <time>2010-12-26T14:32:04Z</time>
      </trkpt>
      <trkpt lat="43.78063" lon="7.2449">
        <ele>573</ele>
        <time>2010-12-26T14:32:06Z</time>
      </trkpt>
      <trkpt lat="43.78033" lon="7.24468">
        <ele>571</ele>
        <time>2010-12-26T14:32:08Z</time>
      </trkpt>
      <trkpt lat="43.78006" lon="7.24446">
        <ele>570</ele>
        <time>2010-12-26T14:32:11Z</time>
      </trkpt>
      <trkpt lat="43.77979" lon="7.24423">
        <ele>567</ele>
        <time>2010-12-26T14:32:13Z</time>
      </trkpt>
      <trkpt lat="43.77953" lon="7.24401">
        <ele>565</ele>
        <time>2010-12-26T14:32:15Z</time>
      </trkpt>
      <trkpt lat="43.77929" lon="7.24376">
        <ele>563</ele>
        <time>2010-12-26T14:32:17Z</time>
      </trkpt>
      <trkpt lat="43.779" lon="7.24347">
        <ele>561</ele>
        <time>2010-12-26T14:32:21Z</time>
      </trkpt>
      <trkpt lat="43.77878" lon="7.24326">
        <ele>560</ele>
        <time>2010-12-26T14:32:23Z</time>
      </trkpt>
      <trkpt lat="43.77858" lon="7.24307">
        <ele>560</ele>
        <time>2010-12-26T14:32:25Z</time>
      </trkpt>
      <trkpt lat="43.77816" lon="7.24276">
        <ele>559</ele>
        <time>2010-12-26T14:32:29Z</time>
      </trkpt>
      <trkpt lat="43.77788" lon="7.24252">
        <ele>559</ele>
        <time>2010-12-26T14:32:34Z</time>
      </trkpt>
      <trkpt lat="43.77759" lon="7.24252">
        <ele>558</ele>
        <time>2010-12-26T14:32:35Z</time>
      </trkpt>
      <trkpt lat="43.77744" lon="7.24264">
        <ele>557</ele>
        <time>2010-12-26T14:32:39Z</time>
      </trkpt>
      <trkpt lat="43.77696" lon="7.24295">
        <ele>555</ele>
        <time>2010-12-26T14:32:47Z</time>
      </trkpt>
      <trkpt lat="43.7761" lon="7.24292">
        <ele>554</ele>
        <time>2010-12-26T14:33:00Z</time>
      </trkpt>
      <trkpt lat="43.77552" lon="7.2429">
        <ele>554</ele>
        <time>2010-12-26T14:33:04Z</time>
      </trkpt>
      <trkpt lat="43.77494" lon="7.2429">
        <ele>554</ele>
        <time>2010-12-26T14:33:08Z</time>
      </trkpt>
      <trkpt lat="43.77436" lon="7.2429">
        <ele>553</ele>
        <time>2010-12-26T14:33:12Z</time>
      </trkpt>
      <trkpt lat="43.77374" lon="7.24294">
        <ele>553</ele>
        <time>2010-12-26T14:33:16Z</time>
      </trkpt>
      <trkpt lat="43.77333" lon="7.24291">
        <ele>553</ele>
        <time>2010-12-26T14:33:22Z</time>
      </trkpt>
      <trkpt lat="43.77292" lon="7.243">
        <ele>553</ele>
        <time>2010-12-26T14:33:23Z</time>
      </trkpt>
      <trkpt lat="43.77279" lon="7.24291">
        <ele>553</ele>
        <time>2010-12-26T14:33:25Z</time>
      </trkpt>
      <trkpt lat="43.77227" lon="7.24267">
        <ele>552</ele>
        <time>2010-12-26T14:33:29Z</time>
      </trkpt>
      <trkpt lat="43.772" lon="7.24257">
        <ele>552</ele>
        <time>2010-12-26T14:33:31Z</time>
      </trkpt>
      <trkpt lat="43.77175" lon="7.24253">
        <ele>552</ele>
        <time>2010-12-26T14:33:33Z</time>
      </trkpt>
      <trkpt lat="43.77151" lon="7.24248">
        <ele>552</ele>
        <time>2010-12-26T14:33:35Z</time>
      </trkpt>
      <trkpt lat="43.77129" lon="7.24239">
        <ele>551</ele>
        <time>2010-12-26T14:33:37Z</time>
      </trkpt>
      <trkpt lat="43.77108" lon="7.24231">
        <ele>551</ele>
        <time>2010-12-26T14:33:39Z</time>
      </trkpt>
      <trkpt lat="43.77086" lon="7.24224">
        <ele>551</ele>
        <time>2010-12-26T14:33:41Z</time>
      </trkpt>
      <trkpt lat="43.77064" lon="7.24217">
        <ele>551</ele>
        <time>2010-12-26T14:33:43Z</time>
      </trkpt>
      <trkpt lat="43.77043" lon="7.24211">
        <ele>551</ele>
        <time>2010-12-26T14:33:46Z</time>
      </trkpt>
      <trkpt lat="43.77" lon="7.24214">
        <ele>550</ele>
        <time>2010-12-26T14:33:50Z</time>
      </trkpt>
      <trkpt lat="43.76957" lon="7.24212">
        <ele>550</ele>
        <time>2010-12-26T14:33:54Z</time>
      </trkpt>
      <trkpt lat="43.7691" lon="7.24205">
        <ele>549</ele>
        <time>2010-12-26T14:33:58Z</time>
      </trkpt>
      <trkpt lat="43.76859" lon="7.24196">
        <ele>549</ele>
        <time>2010-12-26T14:34:04Z</time>
      </trkpt>
      <trkpt lat="43.76829" lon="7.24192">
        <ele>549</ele>
        <time>2010-12-26T14:34:05Z</time>
      </trkpt>
      <trkpt lat="43.76767" lon="7.24188">
        <ele>548</ele>
        <time>2010-12-26T14:34:10Z</time>
      </trkpt>
      <trkpt lat="43.7672" lon="7.24182">
        <ele>548</ele>
        <time>2010-12-26T14:34:16Z</time>
      </trkpt>
      <trkpt lat="43.76698" lon="7.24179">
        <ele>548</ele>
        <time>2010-12-26T14:34:18Z</time>
      </trkpt>
      <trkpt lat="43.76676" lon="7.24176">
        <ele>548</ele>
        <time>2010-12-26T14:34:20Z</time>
      </trkpt>
      <trkpt lat="43.76565" lon="7.24191">
        <ele>546</ele>
        <time>2010-12-26T14:34:27Z</time>
      </trkpt>
      <trkpt lat="43.76515" lon="7.24194">
        <ele>545</ele>
        <time>2010-12-26T14:34:31Z</time>
      </trkpt>
      <trkpt lat="43.76475" lon="7.24195">
        <ele>545</ele>
        <time>2010-12-26T14:34:36Z</time>
      </trkpt>
      <trkpt lat="43.76452" lon="7.24195">
        <ele>545</ele>
        <time>2010-12-26T14:34:38Z</time>
      </trkpt>
      <trkpt lat="43.7643" lon="7.24195">
        <ele>545</ele>
        <time>2010-12-26T14:34:40Z</time>
      </trkpt>
      <trkpt lat="43.76357" lon="7.24248">
        <ele>542</ele>
        <time>2010-12-26T14:34:45Z</time>
      </trkpt>
      <trkpt lat="43.76314" lon="7.24251">
        <ele>542</ele>
        <time>2010-12-26T14:34:50Z</time>
      </trkpt>
      <trkpt lat="43.76292" lon="7.24253">
        <ele>542</ele>
        <time>2010-12-26T14:34:52Z</time>
      </trkpt>
      <trkpt lat="43.76262" lon="7.2429">
        <ele>538</ele>
        <time>2010-12-26T14:34:53Z</time>
      </trkpt>
      <trkpt lat="43.7622" lon="7.24296">
        <ele>538</ele>
        <time>2010-12-26T14:34:58Z</time>
      </trkpt>
      <trkpt lat="43.76198" lon="7.24299">
        <ele>538</ele>
        <time>2010-12-26T14:35:00Z</time>
      </trkpt>
      <trkpt lat="43.7618" lon="7.24358">
        <ele>534</ele>
        <time>2010-12-26T14:35:01Z</time>
      </trkpt>
      <trkpt lat="43.76133" lon="7.24408">
        <ele>530</ele>
        <time>2010-12-26T14:35:06Z</time>
      </trkpt>
      <trkpt lat="43.76107" lon="7.24454">
        <ele>524</ele>
        <time>2010-12-26T14:35:09Z</time>
      </trkpt>
      <trkpt lat="43.76072" lon="7.24477">
        <ele>524</ele>
        <time>2010-12-26T14:35:14Z</time>
      </trkpt>
      <trkpt lat="43.7612" lon="7.24496">
        <ele>520</ele>
        <time>2010-12-26T14:35:16Z</time>
      </trkpt>
      <trkpt lat="43.76121" lon="7.24527">
        <ele>516</ele>
        <time>2010-12-26T14:35:20Z</time>
      </trkpt>
      <trkpt lat="43.76034" lon="7.24624">
        <ele>503</ele>
        <time>2010-12-26T14:35:37Z</time>
      </trkpt>
      <trkpt lat="43.75987" lon="7.24633">
        <ele>496</ele>
        <time>2010-12-26T14:35:45Z</time>
      </trkpt>
      <trkpt lat="43.75987" lon="7.24633">
        <ele>496</ele>
        <time>2010-12-26T14:35:49Z</time>
      </trkpt>
      <trkpt lat="43.75921" lon="7.24636">
        <ele>490</ele>
        <time>2010-12-26T14:35:52Z</time>
      </trkpt>
      <trkpt lat="43.75871" lon="7.24655">
        <ele>485</ele>
        <time>2010-12-26T14:35:58Z</time>
      </trkpt>
      <trkpt lat="43.75795" lon="7.24705">
        <ele>480</ele>
        <time>2010-12-26T14:36:18Z</time>
      </trkpt>
      <trkpt lat="43.75734" lon="7.24756">
        <ele>477</ele>
        <time>2010-12-26T14:36:26Z</time>
      </trkpt>
      <trkpt lat="43.75682" lon="7.24799">
        <ele>474</ele>
        <time>2010-12-26T14:36:33Z</time>
      </trkpt>
      <trkpt lat="43.75631" lon="7.24825">
        <ele>474</ele>
        <time>2010-12-26T14:36:40Z</time>
      </trkpt>
      <trkpt lat="43.75581" lon="7.24803">
        <ele>474</ele>
        <time>2010-12-26T14:36:50Z</time>
      </trkpt>
      <trkpt lat="43.75542" lon="7.24766">
        <ele>474</ele>
        <time>2010-12-26T14:37:01Z</time>
      </trkpt>
      <trkpt lat="43.75492" lon="7.24741">
        <ele>473</ele>
        <time>2010-12-26T14:37:09Z</time>
      </trkpt>
      <trkpt lat="43.75445" lon="7.24722">
        <ele>472</ele>
        <time>2010-12-26T14:37:15Z</time>
      </trkpt>
      <trkpt lat="43.75392" lon="7.24696">
        <ele>471</ele>
        <time>2010-12-26T14:37:22Z</time>
      </trkpt>
      <trkpt lat="43.75342" lon="7.2468">
        <ele>471</ele>
        <time>2010-12-26T14:37:30Z</time>
      </trkpt>
      <trkpt lat="43.75284" lon="7.2467">
        <ele>470</ele>
        <time>2010-12-26T14:37:38Z</time>
      </trkpt>
      <trkpt lat="43.75238" lon="7.24665">
        <ele>469</ele>
        <time>2010-12-26T14:37:45Z</time>
      </trkpt>
      <trkpt lat="43.75191" lon="7.24664">
        <ele>469</ele>
        <time>2010-12-26T14:37:53Z</time>
      </trkpt>
      <trkpt lat="43.75135" lon="7.24675">
        <ele>468</ele>
        <time>2010-12-26T14:38:02Z</time>
      </trkpt>
      <trkpt lat="43.75091" lon="7.24685">
        <ele>468</ele>
        <time>2010-12-26T14:38:08Z</time>
      </trkpt>
      <trkpt lat="43.75042" lon="7.24695">
        <ele>468</ele>
        <time>2010-12-26T14:38:12Z</time>
      </trkpt>
      <trkpt lat="43.74966" lon="7.24709">
        <ele>468</ele>
        <time>2010-12-26T14:38:16Z</time>
      </trkpt>
      <trkpt lat="43.7487" lon="7.24735">
        <ele>468</ele>
        <time>2010-12-26T14:38:21Z</time>
      </trkpt>
      <trkpt lat="43.74824" lon="7.24748">
        <ele>468</ele>
        <time>2010-12-26T14:38:23Z</time>
      </trkpt>
      <trkpt lat="43.74784" lon="7.24761">
        <ele>468</ele>
        <time>2010-12-26T14:38:25Z</time>
      </trkpt>
      <trkpt lat="43.74745" lon="7.24772">
        <ele>468</ele>
        <time>2010-12-26T14:38:27Z</time>
      </trkpt>
      <trkpt lat="43.7471" lon="7.24781">
        <ele>468</ele>
        <time>2010-12-26T14:38:29Z</time>
      </trkpt>
      <trkpt lat="43.74643" lon="7.24844">
        <ele>468</ele>
        <time>2010-12-26T14:38:34Z</time>
      </trkpt>
      <trkpt lat="43.74601" lon="7.2491">
        <ele>468</ele>
        <time>2010-12-26T14:38:38Z</time>
      </trkpt>
      <trkpt lat="43.74579" lon="7.24948">
        <ele>468</ele>
        <time>2010-12-26T14:38:40Z</time>
      </trkpt>
      <trkpt lat="43.74566" lon="7.24976">
        <ele>468</ele>
        <time>2010-12-26T14:38:42Z</time>
      </trkpt>
      <trkpt lat="43.74543" lon="7.25029">
        <ele>467</ele>
        <time>2010-12-26T14:38:46Z</time>
      </trkpt>
      <trkpt lat="43.74507" lon="7.25084">
        <ele>467</ele>
        <time>2010-12-26T14:38:52Z</time>
      </trkpt>
      <trkpt lat="43.74492" lon="7.25106">
        <ele>467</ele>
        <time>2010-12-26T14:38:54Z</time>
      </trkpt>
      <trkpt lat="43.74539" lon="7.25081">
        <ele>467</ele>
        <time>2010-12-26T14:38:55Z</time>
      </trkpt>
      <trkpt lat="43.74438" lon="7.24934">
        <ele>458</ele>
        <time>2010-12-26T14:39:11Z</time>
      </trkpt>
      <trkpt lat="43.74339" lon="7.24861">
        <ele>458</ele>
        <time>2010-12-26T14:39:19Z</time>
      </trkpt>
      <trkpt lat="43.74305" lon="7.24822">
        <ele>458</ele>
        <time>2010-12-26T14:39:24Z</time>
      </trkpt>
      <trkpt lat="43.74317" lon="7.25121">
        <ele>451</ele>
        <time>2010-12-26T14:39:34Z</time>
      </trkpt>
      <trkpt lat="43.74317" lon="7.25121">
        <ele>451</ele>
        <time>2010-12-26T14:39:34Z</time>
      </trkpt>
      <trkpt lat="43.74316" lon="7.25191">
        <ele>451</ele>
        <time>2010-12-26T14:39:40Z</time>
      </trkpt>
      <trkpt lat="43.74232" lon="7.25137">
        <ele>439</ele>
        <time>2010-12-26T14:39:43Z</time>
      </trkpt>
      <trkpt lat="43.74168" lon="7.25122">
        <ele>425</ele>
        <time>2010-12-26T14:39:47Z</time>
      </trkpt>
      <trkpt lat="43.74125" lon="7.25112">
        <ele>425</ele>
        <time>2010-12-26T14:39:52Z</time>
      </trkpt>
      <trkpt lat="43.74098" lon="7.25135">
        <ele>413</ele>
        <time>2010-12-26T14:39:56Z</time>
      </trkpt>
      <trkpt lat="43.73829" lon="7.25239">
        <ele>405</ele>
        <time>2010-12-26T14:40:18Z</time>
      </trkpt>
      <trkpt lat="43.73829" lon="7.25239">
        <ele>405</ele>
        <time>2010-12-26T14:40:18Z</time>
      </trkpt>
      <trkpt lat="43.73781" lon="7.25253">
        <ele>405</ele>
        <time>2010-12-26T14:40:24Z</time>
      </trkpt>
      <trkpt lat="43.73753" lon="7.25302">
        <ele>403</ele>
        <time>2010-12-26T14:40:31Z</time>
      </trkpt>
      <trkpt lat="43.73866" lon="7.25561">
        <ele>401</ele>
        <time>2010-12-26T14:40:52Z</time>
      </trkpt>
      <trkpt lat="43.73866" lon="7.25561">
        <ele>401</ele>
        <time>2010-12-26T14:40:52Z</time>
      </trkpt>
      <trkpt lat="43.73893" lon="7.25624">
        <ele>401</ele>
        <time>2010-12-26T14:40:58Z</time>
      </trkpt>
      <trkpt lat="43.73978" lon="7.25621">
        <ele>394</ele>
        <time>2010-12-26T14:41:01Z</time>
      </trkpt>
      <trkpt lat="43.7401" lon="7.25664">
        <ele>394</ele>
        <time>2010-12-26T14:41:06Z</time>
      </trkpt>
      <trkpt lat="43.74041" lon="7.25839">
        <ele>389</ele>
        <time>2010-12-26T14:41:17Z</time>
      </trkpt>
      <trkpt lat="43.74048" lon="7.25853">
        <ele>386</ele>
        <time>2010-12-26T14:41:21Z</time>
      </trkpt>
      <trkpt lat="43.74093" lon="7.25897">
        <ele>386</ele>
        <time>2010-12-26T14:41:25Z</time>
      </trkpt>
      <trkpt lat="43.74144" lon="7.25967">
        <ele>387</ele>
        <time>2010-12-26T14:41:31Z</time>
      </trkpt>
      <trkpt lat="43.74173" lon="7.26004">
        <ele>387</ele>
        <time>2010-12-26T14:41:36Z</time>
      </trkpt>
      <trkpt lat="43.74385" lon="7.27214">
        <ele>387</ele>
        <time>2010-12-26T14:43:11Z</time>
      </trkpt>
      <trkpt lat="43.74385" lon="7.27214">
        <ele>387</ele>
        <time>2010-12-26T14:43:11Z</time>
      </trkpt>
      <trkpt lat="43.74365" lon="7.27262">
        <ele>387</ele>
        <time>2010-12-26T14:43:15Z</time>
      </trkpt>
      <trkpt lat="43.7436" lon="7.27326">
        <ele>387</ele>
        <time>2010-12-26T14:43:20Z</time>
      </trkpt>
      <trkpt lat="43.73871" lon="7.2742">
        <ele>379</ele>
        <time>2010-12-26T14:44:05Z</time>
      </trkpt>
      <trkpt lat="43.73871" lon="7.2742">
        <ele>379</ele>
        <time>2010-12-26T14:44:05Z</time>
      </trkpt>
      <trkpt lat="43.73871" lon="7.2742">
        <ele>379</ele>
        <time>2010-12-26T14:44:10Z</time>
      </trkpt>
      <trkpt lat="43.73867" lon="7.27562">
        <ele>343</ele>
        <time>2010-12-26T14:44:49Z</time>
      </trkpt>
      <trkpt lat="43.73855" lon="7.27633">
        <ele>337</ele>
        <time>2010-12-26T14:44:57Z</time>
      </trkpt>
      <trkpt lat="43.73861" lon="7.27709">
        <ele>327</ele>
        <time>2010-12-26T14:45:10Z</time>
      </trkpt>
      <trkpt lat="43.7389" lon="7.27771">
        <ele>321</ele>
        <time>2010-12-26T14:45:23Z</time>
      </trkpt>
      <trkpt lat="43.73864" lon="7.27824">
        <ele>319</ele>
        <time>2010-12-26T14:45:32Z</time>
      </trkpt>
      <trkpt lat="43.73788" lon="7.27855">
        <ele>315</ele>
        <time>2010-12-26T14:45:41Z</time>
      </trkpt>
      <trkpt lat="43.73719" lon="7.2788">
        <ele>315</ele>
        <time>2010-12-26T14:45:45Z</time>
      </trkpt>
      <trkpt lat="43.73663" lon="7.27898">
        <ele>317</ele>
        <time>2010-12-26T14:45:49Z</time>
      </trkpt>
      <trkpt lat="43.73629" lon="7.27906">
        <ele>319</ele>
        <time>2010-12-26T14:45:51Z</time>
      </trkpt>
      <trkpt lat="43.73594" lon="7.27911">
        <ele>320</ele>
        <time>2010-12-26T14:45:54Z</time>
      </trkpt>
      <trkpt lat="43.73572" lon="7.27912">
        <ele>321</ele>
        <time>2010-12-26T14:45:55Z</time>
      </trkpt>
      <trkpt lat="43.73543" lon="7.27915">
        <ele>322</ele>
        <time>2010-12-26T14:45:57Z</time>
      </trkpt>
      <trkpt lat="43.73516" lon="7.27918">
        <ele>323</ele>
        <time>2010-12-26T14:45:59Z</time>
      </trkpt>
      <trkpt lat="43.73492" lon="7.27904">
        <ele>324</ele>
        <time>2010-12-26T14:46:01Z</time>
      </trkpt>
      <trkpt lat="43.73467" lon="7.27893">
        <ele>324</ele>
        <time>2010-12-26T14:46:03Z</time>
      </trkpt>
      <trkpt lat="43.73442" lon="7.27872">
        <ele>324</ele>
        <time>2010-12-26T14:46:05Z</time>
      </trkpt>
      <trkpt lat="43.73411" lon="7.27858">
        <ele>323</ele>
        <time>2010-12-26T14:46:08Z</time>
      </trkpt>
      <trkpt lat="43.73389" lon="7.27849">
        <ele>322</ele>
        <time>2010-12-26T14:46:10Z</time>
      </trkpt>
      <trkpt lat="43.73343" lon="7.27828">
        <ele>321</ele>
        <time>2010-12-26T14:46:14Z</time>
      </trkpt>
      <trkpt lat="43.73297" lon="7.27779">
        <ele>320</ele>
        <time>2010-12-26T14:46:18Z</time>
      </trkpt>
      <trkpt lat="43.73261" lon="7.27704">
        <ele>317</ele>
        <time>2010-12-26T14:46:22Z</time>
      </trkpt>
      <trkpt lat="43.73257" lon="7.27677">
        <ele>315</ele>
        <time>2010-12-26T14:46:26Z</time>
      </trkpt>
      <trkpt lat="43.73252" lon="7.27654">
        <ele>312</ele>
        <time>2010-12-26T14:46:30Z</time>
      </trkpt>
      <trkpt lat="43.73212" lon="7.27617">
        <ele>302</ele>
        <time>2010-12-26T14:46:43Z</time>
      </trkpt>
      <trkpt lat="43.73156" lon="7.27593">
        <ele>301</ele>
        <time>2010-12-26T14:46:51Z</time>
      </trkpt>
      <trkpt lat="43.73106" lon="7.27579">
        <ele>299</ele>
        <time>2010-12-26T14:46:55Z</time>
      </trkpt>
      <trkpt lat="43.73062" lon="7.2757">
        <ele>298</ele>
        <time>2010-12-26T14:46:57Z</time>
      </trkpt>
      <trkpt lat="43.73041" lon="7.27568">
        <ele>298</ele>
        <time>2010-12-26T14:46:59Z</time>
      </trkpt>
      <trkpt lat="43.73025" lon="7.27566">
        <ele>298</ele>
        <time>2010-12-26T14:47:01Z</time>
      </trkpt>
      <trkpt lat="43.73006" lon="7.27571">
        <ele>298</ele>
        <time>2010-12-26T14:47:03Z</time>
      </trkpt>
      <trkpt lat="43.72955" lon="7.27598">
        <ele>296</ele>
        <time>2010-12-26T14:47:12Z</time>
      </trkpt>
      <trkpt lat="43.72932" lon="7.27655">
        <ele>294</ele>
        <time>2010-12-26T14:47:22Z</time>
      </trkpt>
      <trkpt lat="43.72931" lon="7.27718">
        <ele>293</ele>
        <time>2010-12-26T14:47:36Z</time>
      </trkpt>
      <trkpt lat="43.72951" lon="7.27775">
        <ele>290</ele>
        <time>2010-12-26T14:48:24Z</time>
      </trkpt>
      <trkpt lat="43.72951" lon="7.27775">
        <ele>290</ele>
        <time>2010-12-26T14:49:40Z</time>
      </trkpt>
      <trkpt lat="43.72951" lon="7.27775">
        <ele>290</ele>
        <time>2010-12-26T14:49:40Z</time>
      </trkpt>
      <trkpt lat="43.72951" lon="7.27775">
        <ele>290</ele>
        <time>2010-12-26T14:49:46Z</time>
      </trkpt>
    </trkseg>
  </trk>
</gpx>